Time,TemperatureF,DewpointF,PressureIn,WindDirection,WindDirectionDegrees,WindSpeedMPH,WindSpeedGustMPH,Humidity,HourlyPrecipIn,Conditions,Clouds,dailyrainin,SoftwareType,DateUTC
2013-09-22 00:00:00,54.1,50.6,29.91,WNW,301,3.0,4.0,88,0.00,,---,0.00,VWS V14.01,2013-09-22 04:00:00,
2013-09-22 00:01:00,53.7,50.2,29.91,WNW,297,2.0,5.0,88,0.00,,---,0.00,VWS V14.01,2013-09-22 04:01:00,
2013-09-22 00:02:00,54.2,50.7,29.91,NW,315,2.0,5.0,88,0.00,,---,0.00,VWS V14.01,2013-09-22 04:02:00,
2013-09-22 00:03:00,54.3,50.8,29.91,NW,306,3.0,5.0,88,0.00,,---,0.00,VWS V14.01,2013-09-22 04:03:00,
2013-09-22 00:04:00,54.4,50.9,29.91,NW,323,3.0,5.0,88,0.00,,---,0.00,VWS V14.01,2013-09-22 04:04:00,
2013-09-22 00:05:00,54.5,51.0,29.91,WNW,296,4.0,5.0,88,0.00,,---,0.00,VWS V14.01,2013-09-22 04:05:00,
2013-09-22 00:06:00,53.9,50.1,29.91,WNW,295,3.0,5.0,87,0.00,,---,0.00,VWS V14.01,2013-09-22 04:06:00,
2013-09-22 00:07:00,54.5,50.7,29.91,WNW,299,5.0,5.0,87,0.00,,---,0.00,VWS V14.01,2013-09-22 04:07:00,
2013-09-22 00:08:00,54.6,50.8,29.91,WNW,303,3.0,5.0,87,0.00,,---,0.00,VWS V14.01,2013-09-22 04:08:00,
2013-09-22 00:09:00,54.6,50.8,29.91,NW,323,4.0,6.0,87,0.00,,---,0.00,VWS V14.01,2013-09-22 04:09:00,
2013-09-22 00:10:00,54.6,50.8,29.91,NW,308,4.0,6.0,87,0.00,,---,0.00,VWS V14.01,2013-09-22 04:10:00,
2013-09-22 00:11:00,54.2,50.7,29.91,NW,315,3.0,5.0,88,0.00,,---,0.00,VWS V14.01,2013-09-22 04:11:00,
2013-09-22 00:12:00,54.7,50.9,29.91,WNW,300,5.0,6.0,87,0.00,,---,0.00,VWS V14.01,2013-09-22 04:12:00,
2013-09-22 00:13:00,54.7,50.9,29.91,NW,306,5.0,7.0,87,0.00,,---,0.00,VWS V14.01,2013-09-22 04:13:00,
2013-09-22 00:14:00,54.7,50.6,29.91,NW,305,4.0,7.0,86,0.00,,---,0.00,VWS V14.01,2013-09-22 04:14:00,
2013-09-22 00:15:00,54.7,50.6,29.91,NW,313,4.0,7.0,86,0.00,,---,0.00,VWS V14.01,2013-09-22 04:15:00,
2013-09-22 00:16:00,54.5,50.7,29.91,WNW,296,4.0,5.0,87,0.00,,---,0.00,VWS V14.01,2013-09-22 04:16:00,
2013-09-22 00:17:00,54.8,51.0,29.91,NW,310,4.0,7.0,87,0.00,,---,0.00,VWS V14.01,2013-09-22 04:17:00,
2013-09-22 00:18:00,54.8,50.7,29.91,WNW,295,3.0,7.0,86,0.00,,---,0.00,VWS V14.01,2013-09-22 04:18:00,
2013-09-22 00:19:00,54.8,50.7,29.91,NW,314,2.0,7.0,86,0.00,,---,0.00,VWS V14.01,2013-09-22 04:19:00,
2013-09-22 00:20:00,54.9,50.8,29.91,WNW,303,1.0,7.0,86,0.00,,---,0.00,VWS V14.01,2013-09-22 04:20:00,
2013-09-22 00:21:00,54.6,50.8,29.91,NW,306,5.0,6.0,87,0.00,,---,0.00,VWS V14.01,2013-09-22 04:21:00,
2013-09-22 00:22:00,54.9,51.1,29.91,WNW,299,1.0,7.0,87,0.00,,---,0.00,VWS V14.01,2013-09-22 04:22:00,
2013-09-22 00:23:00,55.0,51.2,29.91,SW,233,0.0,7.0,87,0.00,,---,0.00,VWS V14.01,2013-09-22 04:23:00,
2013-09-22 00:24:00,55.1,51.3,29.91,West,278,0.0,7.0,87,0.00,,---,0.00,VWS V14.01,2013-09-22 04:24:00,
2013-09-22 00:25:00,55.1,51.3,29.91,West,278,0.0,7.0,87,0.00,,---,0.00,VWS V14.01,2013-09-22 04:25:00,
2013-09-22 00:26:00,54.8,51.0,29.91,NW,308,2.0,7.0,87,0.00,,---,0.00,VWS V14.01,2013-09-22 04:26:00,
2013-09-22 00:27:00,55.1,51.3,29.91,NNW,340,1.0,7.0,87,0.00,,---,0.00,VWS V14.01,2013-09-22 04:27:00,
2013-09-22 00:28:00,55.1,51.0,29.91,NNW,347,1.0,7.0,86,0.00,,---,0.00,VWS V14.01,2013-09-22 04:28:00,
2013-09-22 00:29:00,55.1,51.0,29.91,NNW,347,0.0,7.0,86,0.00,,---,0.00,VWS V14.01,2013-09-22 04:29:00,
2013-09-22 00:30:00,55.1,51.0,29.91,NNW,347,0.0,0.0,86,0.00,,---,0.00,VWS V14.01,2013-09-22 04:30:00,
2013-09-22 00:31:00,54.9,50.8,29.91,NNW,328,1.0,7.0,86,0.00,,---,0.00,VWS V14.01,2013-09-22 04:31:00,
2013-09-22 00:32:00,55.2,51.1,29.91,NNW,347,0.0,1.0,86,0.00,,---,0.00,VWS V14.01,2013-09-22 04:32:00,
2013-09-22 00:33:00,55.2,51.1,29.91,NNW,347,0.0,1.0,86,0.00,,---,0.00,VWS V14.01,2013-09-22 04:33:00,
2013-09-22 00:34:00,55.2,51.1,29.91,North,350,1.0,3.0,86,0.00,,---,0.00,VWS V14.01,2013-09-22 04:34:00,
2013-09-22 00:35:00,55.2,51.4,29.91,North,350,0.0,3.0,87,0.00,,---,0.00,VWS V14.01,2013-09-22 04:35:00,
2013-09-22 00:36:00,55.1,51.3,29.91,NNW,340,2.0,7.0,87,0.00,,---,0.00,VWS V14.01,2013-09-22 04:36:00,
2013-09-22 00:37:00,55.3,51.5,29.91,North,350,1.0,3.0,87,0.00,,---,0.00,VWS V14.01,2013-09-22 04:37:00,
2013-09-22 00:38:00,55.3,51.5,29.91,NNW,341,3.0,3.0,87,0.00,,---,0.00,VWS V14.01,2013-09-22 04:38:00,
2013-09-22 00:39:00,55.3,50.9,29.91,NW,320,1.0,3.0,85,0.00,,---,0.00,VWS V14.01,2013-09-22 04:39:00,
2013-09-22 00:40:00,55.3,50.9,29.91,NNW,348,1.0,3.0,85,0.00,,---,0.00,VWS V14.01,2013-09-22 04:40:00,
2013-09-22 00:41:00,55.2,51.1,29.91,NNW,347,0.0,1.0,86,0.00,,---,0.00,VWS V14.01,2013-09-22 04:41:00,
2013-09-22 00:42:00,55.3,51.2,29.91,North,359,1.0,3.0,86,0.00,,---,0.00,VWS V14.01,2013-09-22 04:42:00,
2013-09-22 00:43:00,55.3,51.2,29.91,North,354,2.0,3.0,86,0.00,,---,0.00,VWS V14.01,2013-09-22 04:43:00,
2013-09-22 00:44:00,55.4,51.3,29.91,WNW,303,3.0,3.0,86,0.00,,---,0.00,VWS V14.01,2013-09-22 04:44:00,
2013-09-22 00:45:00,55.4,51.6,29.91,WNW,303,0.0,3.0,87,0.00,,---,0.00,VWS V14.01,2013-09-22 04:45:00,
2013-09-22 00:46:00,55.3,51.5,29.91,North,350,0.0,3.0,87,0.00,,---,0.00,VWS V14.01,2013-09-22 04:46:00,
2013-09-22 00:47:00,55.5,51.4,29.91,WNW,293,1.0,3.0,86,0.00,,---,0.00,VWS V14.01,2013-09-22 04:47:00,
2013-09-22 00:48:00,55.5,51.4,29.91,WNW,293,3.0,3.0,86,0.00,,---,0.00,VWS V14.01,2013-09-22 04:48:00,
2013-09-22 00:49:00,55.5,51.4,29.91,WNW,301,3.0,4.0,86,0.00,,---,0.00,VWS V14.01,2013-09-22 04:49:00,
2013-09-22 00:50:00,55.5,51.4,29.91,WNW,301,2.0,4.0,86,0.00,,---,0.00,VWS V14.01,2013-09-22 04:50:00,
2013-09-22 00:51:00,55.3,51.2,29.91,North,354,1.0,3.0,86,0.00,,---,0.00,VWS V14.01,2013-09-22 04:51:00,
2013-09-22 00:52:00,55.5,51.7,29.91,WNW,301,0.0,4.0,87,0.00,,---,0.00,VWS V14.01,2013-09-22 04:52:00,
2013-09-22 00:53:00,55.5,51.7,29.91,WNW,302,1.0,4.0,87,0.00,,---,0.00,VWS V14.01,2013-09-22 04:53:00,
2013-09-22 00:54:00,55.5,51.4,29.91,WNW,303,2.0,4.0,86,0.00,,---,0.00,VWS V14.01,2013-09-22 04:54:00,
2013-09-22 00:55:00,55.5,51.4,29.91,WNW,303,0.0,4.0,86,0.00,,---,0.00,VWS V14.01,2013-09-22 04:55:00,
2013-09-22 00:56:00,55.5,51.7,29.91,WNW,293,3.0,3.0,87,0.00,,---,0.00,VWS V14.01,2013-09-22 04:56:00,
2013-09-22 00:57:00,55.5,51.4,29.91,WNW,303,2.0,4.0,86,0.00,,---,0.00,VWS V14.01,2013-09-22 04:57:00,
2013-09-22 00:58:00,55.5,51.4,29.91,WNW,303,0.0,4.0,86,0.00,,---,0.00,VWS V14.01,2013-09-22 04:58:00,
2013-09-22 00:59:00,55.6,51.2,29.91,NNE,21,2.0,4.0,85,0.00,,---,0.00,VWS V14.01,2013-09-22 04:59:00,
2013-09-22 01:00:00,55.6,51.2,29.91,NNE,21,2.0,2.0,85,0.00,,---,0.00,VWS V14.01,2013-09-22 05:00:00,
2013-09-22 01:01:00,55.5,51.4,29.91,WNW,301,0.0,4.0,86,0.00,,---,0.00,VWS V14.01,2013-09-22 05:01:00,
2013-09-22 01:02:00,55.6,51.5,29.91,WNW,282,1.0,3.0,86,0.00,,---,0.00,VWS V14.01,2013-09-22 05:02:00,
2013-09-22 01:03:00,55.6,51.8,29.91,WNW,282,1.0,3.0,87,0.00,,---,0.00,VWS V14.01,2013-09-22 05:03:00,
2013-09-22 01:04:00,55.6,51.8,29.91,WNW,282,0.0,3.0,87,0.00,,---,0.00,VWS V14.01,2013-09-22 05:04:00,
2013-09-22 01:05:00,55.5,51.7,29.91,West,280,2.0,3.0,87,0.00,,---,0.00,VWS V14.01,2013-09-22 05:05:00,
2013-09-22 01:06:00,55.4,51.6,29.91,West,280,1.0,3.0,87,0.00,,---,0.00,VWS V14.01,2013-09-22 05:06:00,
2013-09-22 01:07:00,55.3,51.5,29.91,West,280,2.0,3.0,87,0.00,,---,0.00,VWS V14.01,2013-09-22 05:07:00,
2013-09-22 01:08:00,55.1,51.0,29.91,West,280,0.0,3.0,86,0.00,,---,0.00,VWS V14.01,2013-09-22 05:08:00,
2013-09-22 01:09:00,55.0,50.9,29.91,West,280,0.0,3.0,86,0.00,,---,0.00,VWS V14.01,2013-09-22 05:09:00,
2013-09-22 01:10:00,55.0,50.9,29.91,West,280,0.0,3.0,86,0.00,,---,0.00,VWS V14.01,2013-09-22 05:10:00,
2013-09-22 01:11:00,54.9,51.1,29.91,West,280,0.0,3.0,87,0.00,,---,0.00,VWS V14.01,2013-09-22 05:11:00,
2013-09-22 01:12:00,54.9,51.1,29.91,West,280,0.0,3.0,87,0.00,,---,0.00,VWS V14.01,2013-09-22 05:12:00,
2013-09-22 01:13:00,54.9,51.4,29.91,West,280,0.0,3.0,88,0.00,,---,0.00,VWS V14.01,2013-09-22 05:13:00,
2013-09-22 01:14:00,54.9,51.4,29.91,WNW,290,2.0,3.0,88,0.00,,---,0.00,VWS V14.01,2013-09-22 05:14:00,
2013-09-22 01:15:00,54.9,51.4,29.91,WNW,297,2.0,3.0,88,0.00,,---,0.00,VWS V14.01,2013-09-22 05:15:00,
2013-09-22 01:16:00,55.0,51.8,29.91,WNW,297,0.0,4.0,89,0.00,,---,0.00,VWS V14.01,2013-09-22 05:16:00,
2013-09-22 01:17:00,55.0,51.8,29.91,WNW,297,0.0,4.0,89,0.00,,---,0.00,VWS V14.01,2013-09-22 05:17:00,
2013-09-22 01:18:00,55.1,51.9,29.91,WNW,297,0.0,4.0,89,0.00,,---,0.00,VWS V14.01,2013-09-22 05:18:00,
2013-09-22 01:19:00,55.1,51.6,29.91,NNE,22,2.0,4.0,88,0.00,,---,0.00,VWS V14.01,2013-09-22 05:19:00,
2013-09-22 01:20:00,55.1,51.6,29.91,NNE,22,1.0,4.0,88,0.00,,---,0.00,VWS V14.01,2013-09-22 05:20:00,
2013-09-22 01:21:00,54.9,51.1,29.91,West,280,1.0,3.0,87,0.00,,---,0.00,VWS V14.01,2013-09-22 05:21:00,
2013-09-22 01:22:00,55.1,51.0,29.91,NNE,24,2.0,5.0,86,0.00,,---,0.00,VWS V14.01,2013-09-22 05:22:00,
2013-09-22 01:23:00,55.2,51.1,29.91,NNE,24,1.0,5.0,86,0.00,,---,0.00,VWS V14.01,2013-09-22 05:23:00,
2013-09-22 01:24:00,55.2,51.1,29.91,NNE,14,3.0,5.0,86,0.00,,---,0.00,VWS V14.01,2013-09-22 05:24:00,
2013-09-22 01:25:00,55.2,51.1,29.91,NNW,346,3.0,5.0,86,0.00,,---,0.00,VWS V14.01,2013-09-22 05:25:00,
2013-09-22 01:26:00,55.0,51.8,29.91,WNW,297,0.0,4.0,89,0.00,,---,0.00,VWS V14.01,2013-09-22 05:26:00,
2013-09-22 01:27:00,55.3,50.9,29.92,NNE,18,3.0,5.0,85,0.00,,---,0.00,VWS V14.01,2013-09-22 05:27:00,
2013-09-22 01:28:00,55.3,50.9,29.92,NNE,23,3.0,5.0,85,0.00,,---,0.00,VWS V14.01,2013-09-22 05:28:00,
2013-09-22 01:29:00,55.3,50.9,29.92,NNE,23,1.0,5.0,85,0.00,,---,0.00,VWS V14.01,2013-09-22 05:29:00,
2013-09-22 01:30:00,55.3,50.9,29.92,NNE,23,3.0,3.0,85,0.00,,---,0.00,VWS V14.01,2013-09-22 05:30:00,
2013-09-22 01:31:00,55.2,51.1,29.91,NNE,24,4.0,5.0,86,0.00,,---,0.00,VWS V14.01,2013-09-22 05:31:00,
2013-09-22 01:32:00,55.3,50.6,29.92,NNE,33,4.0,5.0,84,0.00,,---,0.00,VWS V14.01,2013-09-22 05:32:00,
2013-09-22 01:33:00,55.3,50.6,29.91,NNE,33,1.0,5.0,84,0.00,,---,0.00,VWS V14.01,2013-09-22 05:33:00,
2013-09-22 01:34:00,55.3,50.6,29.91,NNE,33,2.0,5.0,84,0.00,,---,0.00,VWS V14.01,2013-09-22 05:34:00,
2013-09-22 01:35:00,55.3,50.6,29.92,NNE,33,1.0,5.0,84,0.00,,---,0.00,VWS V14.01,2013-09-22 05:35:00,
2013-09-22 01:36:00,55.3,50.9,29.91,NNW,344,0.0,5.0,85,0.00,,---,0.00,VWS V14.01,2013-09-22 05:36:00,
2013-09-22 01:37:00,55.2,50.5,29.92,NNE,16,2.0,5.0,84,0.00,,---,0.00,VWS V14.01,2013-09-22 05:37:00,
2013-09-22 01:38:00,55.2,50.5,29.92,NNE,18,2.0,5.0,84,0.00,,---,0.00,VWS V14.01,2013-09-22 05:38:00,
2013-09-22 01:39:00,55.1,50.7,29.92,NNE,18,1.0,5.0,85,0.00,,---,0.00,VWS V14.01,2013-09-22 05:39:00,
2013-09-22 01:40:00,55.1,50.7,29.92,NNE,22,2.0,5.0,85,0.00,,---,0.00,VWS V14.01,2013-09-22 05:40:00,
2013-09-22 01:41:00,55.3,50.6,29.91,NNE,27,4.0,4.0,84,0.00,,---,0.00,VWS V14.01,2013-09-22 05:41:00,
2013-09-22 01:42:00,55.1,50.7,29.92,NNE,23,3.0,5.0,85,0.00,,---,0.00,VWS V14.01,2013-09-22 05:42:00,
2013-09-22 01:43:00,55.1,50.7,29.92,NNE,24,3.0,5.0,85,0.00,,---,0.00,VWS V14.01,2013-09-22 05:43:00,
2013-09-22 01:44:00,55.1,50.7,29.92,NNE,19,1.0,5.0,85,0.00,,---,0.00,VWS V14.01,2013-09-22 05:44:00,
2013-09-22 01:45:00,55.0,50.6,29.92,NNE,20,3.0,5.0,85,0.00,,---,0.00,VWS V14.01,2013-09-22 05:45:00,
2013-09-22 01:46:00,55.2,50.5,29.92,NNE,16,4.0,5.0,84,0.00,,---,0.00,VWS V14.01,2013-09-22 05:46:00,
2013-09-22 01:47:00,55.0,50.6,29.92,NNE,24,3.0,5.0,85,0.00,,---,0.00,VWS V14.01,2013-09-22 05:47:00,
2013-09-22 01:48:00,54.9,50.5,29.92,NNE,27,2.0,5.0,85,0.00,,---,0.00,VWS V14.01,2013-09-22 05:48:00,
2013-09-22 01:49:00,54.9,50.8,29.92,NNE,29,2.0,5.0,86,0.00,,---,0.00,VWS V14.01,2013-09-22 05:49:00,
2013-09-22 01:50:00,54.9,50.5,29.92,NE,34,0.0,5.0,85,0.00,,---,0.00,VWS V14.01,2013-09-22 05:50:00,
2013-09-22 01:51:00,55.1,50.7,29.92,NNE,23,3.0,5.0,85,0.00,,---,0.00,VWS V14.01,2013-09-22 05:51:00,
2013-09-22 01:52:00,54.9,50.8,29.92,NE,34,2.0,5.0,86,0.00,,---,0.00,VWS V14.01,2013-09-22 05:52:00,
2013-09-22 01:53:00,54.9,50.8,29.92,NE,45,4.0,5.0,86,0.00,,---,0.00,VWS V14.01,2013-09-22 05:53:00,
2013-09-22 01:54:00,54.9,50.8,29.92,NE,35,4.0,5.0,86,0.00,,---,0.00,VWS V14.01,2013-09-22 05:54:00,
2013-09-22 01:55:00,54.9,50.8,29.92,NNE,23,1.0,5.0,86,0.00,,---,0.00,VWS V14.01,2013-09-22 05:55:00,
2013-09-22 01:56:00,55.0,50.6,29.92,NNE,20,2.0,5.0,85,0.00,,---,0.00,VWS V14.01,2013-09-22 05:56:00,
2013-09-22 01:57:00,55.0,50.9,29.92,NNE,25,1.0,5.0,86,0.00,,---,0.00,VWS V14.01,2013-09-22 05:57:00,
2013-09-22 01:58:00,54.9,50.8,29.92,NNE,28,1.0,5.0,86,0.00,,---,0.00,VWS V14.01,2013-09-22 05:58:00,
2013-09-22 01:59:00,54.9,50.8,29.92,NNE,29,2.0,5.0,86,0.00,,---,0.00,VWS V14.01,2013-09-22 05:59:00,
2013-09-22 02:00:00,54.9,50.8,29.92,NNE,29,3.0,3.0,86,0.00,,---,0.00,VWS V14.01,2013-09-22 06:00:00,
2013-09-22 02:01:00,54.9,50.8,29.92,NE,34,2.0,5.0,86,0.00,,---,0.00,VWS V14.01,2013-09-22 06:01:00,
2013-09-22 02:02:00,54.9,51.1,29.92,NNE,23,1.0,3.0,87,0.00,,---,0.00,VWS V14.01,2013-09-22 06:02:00,
2013-09-22 02:03:00,54.9,51.1,29.92,NE,39,1.0,4.0,87,0.00,,---,0.00,VWS V14.01,2013-09-22 06:03:00,
2013-09-22 02:04:00,54.9,51.1,29.92,NE,39,2.0,4.0,87,0.00,,---,0.00,VWS V14.01,2013-09-22 06:04:00,
2013-09-22 02:05:00,54.9,51.1,29.92,NNE,25,2.0,4.0,87,0.00,,---,0.00,VWS V14.01,2013-09-22 06:05:00,
2013-09-22 02:06:00,55.0,50.9,29.92,NNE,31,2.0,5.0,86,0.00,,---,0.00,VWS V14.01,2013-09-22 06:06:00,
2013-09-22 02:07:00,54.8,51.0,29.92,NNE,25,2.0,4.0,87,0.00,,---,0.00,VWS V14.01,2013-09-22 06:07:00,
2013-09-22 02:08:00,54.8,51.0,29.92,NNE,31,2.0,4.0,87,0.00,,---,0.00,VWS V14.01,2013-09-22 06:08:00,
2013-09-22 02:09:00,54.8,50.7,29.92,NNE,14,3.0,4.0,86,0.00,,---,0.00,VWS V14.01,2013-09-22 06:09:00,
2013-09-22 02:10:00,54.8,50.7,29.92,NNE,24,3.0,5.0,86,0.00,,---,0.00,VWS V14.01,2013-09-22 06:10:00,
2013-09-22 02:11:00,54.9,51.1,29.92,NNE,23,2.0,3.0,87,0.00,,---,0.00,VWS V14.01,2013-09-22 06:11:00,
2013-09-22 02:12:00,54.8,50.7,29.92,NNE,26,3.0,5.0,86,0.00,,---,0.00,VWS V14.01,2013-09-22 06:12:00,
2013-09-22 02:13:00,54.8,50.7,29.92,NNE,21,3.0,5.0,86,0.00,,---,0.00,VWS V14.01,2013-09-22 06:13:00,
2013-09-22 02:14:00,54.8,50.7,29.92,NNE,24,2.0,5.0,86,0.00,,---,0.00,VWS V14.01,2013-09-22 06:14:00,
2013-09-22 02:15:00,54.8,51.0,29.92,NNE,27,3.0,5.0,87,0.00,,---,0.00,VWS V14.01,2013-09-22 06:15:00,
2013-09-22 02:16:00,54.8,51.0,29.92,NNE,23,3.0,4.0,87,0.00,,---,0.00,VWS V14.01,2013-09-22 06:16:00,
2013-09-22 02:17:00,54.8,50.7,29.92,NNE,25,5.0,5.0,86,0.00,,---,0.00,VWS V14.01,2013-09-22 06:17:00,
2013-09-22 02:18:00,54.8,50.7,29.92,NNE,24,4.0,5.0,86,0.00,,---,0.00,VWS V14.01,2013-09-22 06:18:00,
2013-09-22 02:19:00,54.8,50.7,29.92,NNE,26,2.0,5.0,86,0.00,,---,0.00,VWS V14.01,2013-09-22 06:19:00,
2013-09-22 02:20:00,54.8,50.7,29.92,NNE,21,5.0,5.0,86,0.00,,---,0.00,VWS V14.01,2013-09-22 06:20:00,
2013-09-22 02:21:00,54.8,50.7,29.92,NNE,29,2.0,5.0,86,0.00,,---,0.00,VWS V14.01,2013-09-22 06:21:00,
2013-09-22 02:22:00,54.8,50.7,29.92,NNE,21,2.0,5.0,86,0.00,,---,0.00,VWS V14.01,2013-09-22 06:22:00,
2013-09-22 02:23:00,54.8,50.7,29.92,NE,34,4.0,5.0,86,0.00,,---,0.00,VWS V14.01,2013-09-22 06:23:00,
2013-09-22 02:24:00,54.8,50.7,29.92,NE,34,2.0,5.0,86,0.00,,---,0.00,VWS V14.01,2013-09-22 06:24:00,
2013-09-22 02:25:00,54.9,50.8,29.92,NNE,23,2.0,5.0,86,0.00,,---,0.00,VWS V14.01,2013-09-22 06:25:00,
2013-09-22 02:26:00,54.8,50.7,29.92,NNE,30,3.0,5.0,86,0.00,,---,0.00,VWS V14.01,2013-09-22 06:26:00,
2013-09-22 02:27:00,54.9,50.8,29.93,NNE,27,0.0,5.0,86,0.00,,---,0.00,VWS V14.01,2013-09-22 06:27:00,
2013-09-22 02:28:00,54.9,50.8,29.93,North,10,1.0,5.0,86,0.00,,---,0.00,VWS V14.01,2013-09-22 06:28:00,
2013-09-22 02:29:00,54.9,50.8,29.93,NNE,23,5.0,5.0,86,0.00,,---,0.00,VWS V14.01,2013-09-22 06:29:00,
2013-09-22 02:30:00,54.9,50.8,29.93,NNE,22,1.0,3.0,86,0.00,,---,0.00,VWS V14.01,2013-09-22 06:30:00,
2013-09-22 02:31:00,54.8,50.7,29.92,NNE,24,4.0,5.0,86,0.00,,---,0.00,VWS V14.01,2013-09-22 06:31:00,
2013-09-22 02:32:00,55.0,50.9,29.92,NNE,25,1.0,5.0,86,0.00,,---,0.00,VWS V14.01,2013-09-22 06:32:00,
2013-09-22 02:33:00,55.0,50.9,29.92,North,4,1.0,5.0,86,0.00,,---,0.00,VWS V14.01,2013-09-22 06:33:00,
2013-09-22 02:34:00,55.0,50.9,29.93,North,4,0.0,5.0,86,0.00,,---,0.00,VWS V14.01,2013-09-22 06:34:00,
2013-09-22 02:35:00,55.0,50.9,29.92,NNE,23,3.0,5.0,86,0.00,,---,0.00,VWS V14.01,2013-09-22 06:35:00,
2013-09-22 02:36:00,54.9,50.8,29.93,NNE,27,2.0,5.0,86,0.00,,---,0.00,VWS V14.01,2013-09-22 06:36:00,
2013-09-22 02:37:00,55.0,50.6,29.93,NNE,23,1.0,5.0,85,0.00,,---,0.00,VWS V14.01,2013-09-22 06:37:00,
2013-09-22 02:38:00,55.0,50.6,29.93,North,9,1.0,5.0,85,0.00,,---,0.00,VWS V14.01,2013-09-22 06:38:00,
2013-09-22 02:39:00,55.0,50.6,29.93,NNE,12,2.0,5.0,85,0.00,,---,0.00,VWS V14.01,2013-09-22 06:39:00,
2013-09-22 02:40:00,55.0,50.6,29.93,NNE,12,1.0,5.0,85,0.00,,---,0.00,VWS V14.01,2013-09-22 06:40:00,
2013-09-22 02:41:00,54.9,50.8,29.93,NNE,25,2.0,5.0,86,0.00,,---,0.00,VWS V14.01,2013-09-22 06:41:00,
2013-09-22 02:42:00,55.1,50.7,29.93,North,9,1.0,5.0,85,0.00,,---,0.00,VWS V14.01,2013-09-22 06:42:00,
2013-09-22 02:43:00,55.1,51.0,29.93,NNE,28,4.0,5.0,86,0.00,,---,0.00,VWS V14.01,2013-09-22 06:43:00,
2013-09-22 02:44:00,55.1,50.7,29.93,NNE,28,1.0,5.0,85,0.00,,---,0.00,VWS V14.01,2013-09-22 06:44:00,
2013-09-22 02:45:00,55.1,50.7,29.93,NNE,28,1.0,5.0,85,0.00,,---,0.00,VWS V14.01,2013-09-22 06:45:00,
2013-09-22 02:46:00,55.0,50.6,29.93,NNE,23,2.0,5.0,85,0.00,,---,0.00,VWS V14.01,2013-09-22 06:46:00,
2013-09-22 02:47:00,55.1,50.7,29.93,NNE,22,2.0,5.0,85,0.00,,---,0.00,VWS V14.01,2013-09-22 06:47:00,
2013-09-22 02:48:00,55.2,50.8,29.93,NNE,22,1.0,5.0,85,0.00,,---,0.00,VWS V14.01,2013-09-22 06:48:00,
2013-09-22 02:49:00,55.1,50.7,29.93,NNE,23,0.0,5.0,85,0.00,,---,0.00,VWS V14.01,2013-09-22 06:49:00,
2013-09-22 02:50:00,55.2,50.8,29.93,NNE,14,1.0,5.0,85,0.00,,---,0.00,VWS V14.01,2013-09-22 06:50:00,
2013-09-22 02:51:00,55.0,50.6,29.92,NNE,12,0.0,5.0,85,0.00,,---,0.00,VWS V14.01,2013-09-22 06:51:00,
2013-09-22 02:52:00,55.2,50.8,29.93,NNE,20,2.0,5.0,85,0.00,,---,0.00,VWS V14.01,2013-09-22 06:52:00,
2013-09-22 02:53:00,55.2,50.8,29.93,NNE,16,2.0,5.0,85,0.00,,---,0.00,VWS V14.01,2013-09-22 06:53:00,
2013-09-22 02:54:00,55.2,50.8,29.93,NNE,21,2.0,5.0,85,0.00,,---,0.00,VWS V14.01,2013-09-22 06:54:00,
2013-09-22 02:55:00,55.3,50.9,29.93,NNE,21,1.0,5.0,85,0.00,,---,0.00,VWS V14.01,2013-09-22 06:55:00,
2013-09-22 02:56:00,55.1,50.7,29.93,NNE,22,1.0,5.0,85,0.00,,---,0.00,VWS V14.01,2013-09-22 06:56:00,
2013-09-22 02:57:00,55.2,50.8,29.93,North,354,3.0,5.0,85,0.00,,---,0.00,VWS V14.01,2013-09-22 06:57:00,
2013-09-22 02:58:00,55.2,50.5,29.93,NNE,23,3.0,5.0,84,0.00,,---,0.00,VWS V14.01,2013-09-22 06:58:00,
2013-09-22 02:59:00,55.3,50.6,29.93,NNE,23,2.0,5.0,84,0.00,,---,0.00,VWS V14.01,2013-09-22 06:59:00,
2013-09-22 03:00:00,55.3,50.6,29.93,NNE,21,3.0,3.0,84,0.00,,---,0.00,VWS V14.01,2013-09-22 07:00:00,
2013-09-22 03:01:00,55.2,50.8,29.93,NNE,20,0.0,5.0,85,0.00,,---,0.00,VWS V14.01,2013-09-22 07:01:00,
2013-09-22 03:02:00,55.3,50.6,29.93,North,4,2.0,3.0,84,0.00,,---,0.00,VWS V14.01,2013-09-22 07:02:00,
2013-09-22 03:03:00,55.3,50.6,29.93,NNE,30,4.0,4.0,84,0.00,,---,0.00,VWS V14.01,2013-09-22 07:03:00,
2013-09-22 03:04:00,55.3,50.6,29.93,NNE,33,0.0,4.0,84,0.00,,---,0.00,VWS V14.01,2013-09-22 07:04:00,
2013-09-22 03:05:00,55.3,50.6,29.93,NNE,33,1.0,4.0,84,0.00,,---,0.00,VWS V14.01,2013-09-22 07:05:00,
2013-09-22 03:06:00,55.2,50.8,29.93,NNE,21,2.0,5.0,85,0.00,,---,0.00,VWS V14.01,2013-09-22 07:06:00,
2013-09-22 03:07:00,55.3,50.6,29.93,NNE,31,1.0,4.0,84,0.00,,---,0.00,VWS V14.01,2013-09-22 07:07:00,
2013-09-22 03:08:00,55.4,51.0,29.93,NNE,29,2.0,4.0,85,0.00,,---,0.00,VWS V14.01,2013-09-22 07:08:00,
2013-09-22 03:09:00,55.4,50.7,29.93,NE,34,4.0,4.0,84,0.00,,---,0.00,VWS V14.01,2013-09-22 07:09:00,
2013-09-22 03:10:00,55.4,50.7,29.93,NE,35,0.0,4.0,84,0.00,,---,0.00,VWS V14.01,2013-09-22 07:10:00,
2013-09-22 03:11:00,55.3,50.6,29.93,North,4,1.0,3.0,84,0.00,,---,0.00,VWS V14.01,2013-09-22 07:11:00,
2013-09-22 03:12:00,55.4,50.7,29.93,NE,35,1.0,4.0,84,0.00,,---,0.00,VWS V14.01,2013-09-22 07:12:00,
2013-09-22 03:13:00,55.4,50.7,29.93,NNE,27,2.0,4.0,84,0.00,,---,0.00,VWS V14.01,2013-09-22 07:13:00,
2013-09-22 03:14:00,55.4,50.7,29.93,NNE,32,2.0,4.0,84,0.00,,---,0.00,VWS V14.01,2013-09-22 07:14:00,
2013-09-22 03:15:00,55.4,50.7,29.93,NNE,32,3.0,4.0,84,0.00,,---,0.00,VWS V14.01,2013-09-22 07:15:00,
2013-09-22 03:16:00,55.3,50.6,29.93,NNE,31,2.0,4.0,84,0.00,,---,0.00,VWS V14.01,2013-09-22 07:16:00,
2013-09-22 03:17:00,55.4,50.7,29.93,NNE,21,2.0,4.0,84,0.00,,---,0.00,VWS V14.01,2013-09-22 07:17:00,
2013-09-22 03:18:00,55.4,50.7,29.93,NNE,21,2.0,4.0,84,0.00,,---,0.00,VWS V14.01,2013-09-22 07:18:00,
2013-09-22 03:19:00,55.4,50.7,29.93,NNE,22,3.0,4.0,84,0.00,,---,0.00,VWS V14.01,2013-09-22 07:19:00,
2013-09-22 03:20:00,55.4,50.7,29.93,NNE,23,3.0,5.0,84,0.00,,---,0.00,VWS V14.01,2013-09-22 07:20:00,
2013-09-22 03:21:00,55.4,50.7,29.93,NE,35,3.0,4.0,84,0.00,,---,0.00,VWS V14.01,2013-09-22 07:21:00,
2013-09-22 03:22:00,55.4,50.3,29.93,NNE,23,3.0,5.0,83,0.00,,---,0.00,VWS V14.01,2013-09-22 07:22:00,
2013-09-22 03:23:00,55.4,50.7,29.93,NNE,23,1.0,5.0,84,0.00,,---,0.00,VWS V14.01,2013-09-22 07:23:00,
2013-09-22 03:24:00,55.4,50.7,29.93,NNE,25,1.0,5.0,84,0.00,,---,0.00,VWS V14.01,2013-09-22 07:24:00,
2013-09-22 03:25:00,55.4,50.7,29.93,NNE,30,3.0,5.0,84,0.00,,---,0.00,VWS V14.01,2013-09-22 07:25:00,
2013-09-22 03:26:00,55.4,50.7,29.93,NNE,20,2.0,4.0,84,0.00,,---,0.00,VWS V14.01,2013-09-22 07:26:00,
2013-09-22 03:27:00,55.3,50.6,29.93,NNE,30,2.0,5.0,84,0.00,,---,0.00,VWS V14.01,2013-09-22 07:27:00,
2013-09-22 03:28:00,55.4,50.7,29.93,NNE,33,2.0,5.0,84,0.00,,---,0.00,VWS V14.01,2013-09-22 07:28:00,
2013-09-22 03:29:00,55.4,51.0,29.93,NE,45,3.0,5.0,85,0.00,,---,0.00,VWS V14.01,2013-09-22 07:29:00,
2013-09-22 03:30:00,55.4,50.7,29.93,NE,47,1.0,3.0,84,0.00,,---,0.00,VWS V14.01,2013-09-22 07:30:00,
2013-09-22 03:31:00,55.4,50.3,29.93,NNE,20,4.0,5.0,83,0.00,,---,0.00,VWS V14.01,2013-09-22 07:31:00,
2013-09-22 03:32:00,55.5,51.1,29.93,NE,39,1.0,4.0,85,0.00,,---,0.00,VWS V14.01,2013-09-22 07:32:00,
2013-09-22 03:33:00,55.5,50.8,29.93,NNE,28,4.0,4.0,84,0.00,,---,0.00,VWS V14.01,2013-09-22 07:33:00,
2013-09-22 03:34:00,55.5,50.8,29.93,NNE,33,3.0,5.0,84,0.00,,---,0.00,VWS V14.01,2013-09-22 07:34:00,
2013-09-22 03:35:00,55.5,50.8,29.93,NNE,33,1.0,5.0,84,0.00,,---,0.00,VWS V14.01,2013-09-22 07:35:00,
2013-09-22 03:36:00,55.4,50.7,29.93,NNE,30,2.0,5.0,84,0.00,,---,0.00,VWS V14.01,2013-09-22 07:36:00,
2013-09-22 03:37:00,55.6,50.8,29.93,NNE,33,2.0,5.0,84,0.00,,---,0.00,VWS V14.01,2013-09-22 07:37:00,
2013-09-22 03:38:00,55.6,50.8,29.93,NNE,30,3.0,5.0,84,0.00,,---,0.00,VWS V14.01,2013-09-22 07:38:00,
2013-09-22 03:39:00,55.5,50.4,29.93,North,4,3.0,5.0,83,0.00,,---,0.00,VWS V14.01,2013-09-22 07:39:00,
2013-09-22 03:40:00,55.5,50.4,29.93,NNE,18,3.0,5.0,83,0.00,,---,0.00,VWS V14.01,2013-09-22 07:40:00,
2013-09-22 03:41:00,55.5,51.1,29.93,NE,39,1.0,4.0,85,0.00,,---,0.00,VWS V14.01,2013-09-22 07:41:00,
2013-09-22 03:42:00,55.5,50.4,29.93,NNE,23,1.0,5.0,83,0.00,,---,0.00,VWS V14.01,2013-09-22 07:42:00,
2013-09-22 03:43:00,55.5,50.4,29.93,NNE,23,1.0,5.0,83,0.00,,---,0.00,VWS V14.01,2013-09-22 07:43:00,
2013-09-22 03:44:00,55.5,50.4,29.93,NNE,23,2.0,5.0,83,0.00,,---,0.00,VWS V14.01,2013-09-22 07:44:00,
2013-09-22 03:45:00,55.4,50.3,29.93,North,4,4.0,5.0,83,0.00,,---,0.00,VWS V14.01,2013-09-22 07:45:00,
2013-09-22 03:46:00,55.6,50.8,29.93,NNE,33,1.0,5.0,84,0.00,,---,0.00,VWS V14.01,2013-09-22 07:46:00,
2013-09-22 03:47:00,55.4,50.3,29.93,NNE,33,3.0,5.0,83,0.00,,---,0.00,VWS V14.01,2013-09-22 07:47:00,
2013-09-22 03:48:00,55.4,50.3,29.93,NNE,31,3.0,5.0,83,0.00,,---,0.00,VWS V14.01,2013-09-22 07:48:00,
2013-09-22 03:49:00,55.4,50.3,29.93,NNE,31,0.0,5.0,83,0.00,,---,0.00,VWS V14.01,2013-09-22 07:49:00,
2013-09-22 03:50:00,55.4,50.3,29.93,NNE,32,4.0,5.0,83,0.00,,---,0.00,VWS V14.01,2013-09-22 07:50:00,
2013-09-22 03:51:00,55.5,50.4,29.93,NNE,23,3.0,5.0,83,0.00,,---,0.00,VWS V14.01,2013-09-22 07:51:00,
2013-09-22 03:52:00,55.4,50.3,29.93,NE,39,2.0,5.0,83,0.00,,---,0.00,VWS V14.01,2013-09-22 07:52:00,
2013-09-22 03:53:00,55.4,50.3,29.93,NNE,31,3.0,5.0,83,0.00,,---,0.00,VWS V14.01,2013-09-22 07:53:00,
2013-09-22 03:54:00,55.4,50.3,29.93,NNE,32,3.0,5.0,83,0.00,,---,0.00,VWS V14.01,2013-09-22 07:54:00,
2013-09-22 03:55:00,55.4,50.3,29.93,NNE,29,4.0,5.0,83,0.00,,---,0.00,VWS V14.01,2013-09-22 07:55:00,
2013-09-22 03:56:00,55.4,50.3,29.93,NNE,33,2.0,5.0,83,0.00,,---,0.00,VWS V14.01,2013-09-22 07:56:00,
2013-09-22 03:57:00,55.5,50.1,29.93,NE,36,2.0,5.0,82,0.00,,---,0.00,VWS V14.01,2013-09-22 07:57:00,
2013-09-22 03:58:00,55.5,50.8,29.93,NE,38,2.0,5.0,84,0.00,,---,0.00,VWS V14.01,2013-09-22 07:58:00,
2013-09-22 03:59:00,55.5,50.4,29.93,NE,50,3.0,5.0,83,0.00,,---,0.00,VWS V14.01,2013-09-22 07:59:00,
2013-09-22 04:00:00,55.6,50.5,29.93,NE,40,3.0,3.0,83,0.00,,---,0.00,VWS V14.01,2013-09-22 08:00:00,
2013-09-22 04:01:00,55.4,50.3,29.93,NE,39,1.0,5.0,83,0.00,,---,0.00,VWS V14.01,2013-09-22 08:01:00,
2013-09-22 04:02:00,55.6,50.5,29.93,NE,39,4.0,7.0,83,0.00,,---,0.00,VWS V14.01,2013-09-22 08:02:00,
2013-09-22 04:03:00,55.7,50.6,29.93,NNE,21,2.0,7.0,83,0.00,,---,0.00,VWS V14.01,2013-09-22 08:03:00,
2013-09-22 04:04:00,55.6,50.2,29.93,NNE,31,5.0,7.0,82,0.00,,---,0.00,VWS V14.01,2013-09-22 08:04:00,
2013-09-22 04:05:00,55.6,50.2,29.94,NE,49,5.0,7.0,82,0.00,,---,0.00,VWS V14.01,2013-09-22 08:05:00,
2013-09-22 04:06:00,55.4,50.0,29.93,NE,36,4.0,5.0,82,0.00,,---,0.00,VWS V14.01,2013-09-22 08:06:00,
2013-09-22 04:07:00,55.6,50.2,29.94,NE,35,3.0,7.0,82,0.00,,---,0.00,VWS V14.01,2013-09-22 08:07:00,
2013-09-22 04:08:00,55.6,50.2,29.94,NNE,29,4.0,7.0,82,0.00,,---,0.00,VWS V14.01,2013-09-22 08:08:00,
2013-09-22 04:09:00,55.5,50.1,29.94,NNE,27,4.0,7.0,82,0.00,,---,0.00,VWS V14.01,2013-09-22 08:09:00,
2013-09-22 04:10:00,55.5,50.1,29.94,NE,37,3.0,7.0,82,0.00,,---,0.00,VWS V14.01,2013-09-22 08:10:00,
2013-09-22 04:11:00,55.6,50.2,29.93,NNE,31,3.0,7.0,82,0.00,,---,0.00,VWS V14.01,2013-09-22 08:11:00,
2013-09-22 04:12:00,55.5,50.1,29.94,NE,41,4.0,7.0,82,0.00,,---,0.00,VWS V14.01,2013-09-22 08:12:00,
2013-09-22 04:13:00,55.5,49.8,29.94,NNE,29,2.0,7.0,81,0.00,,---,0.00,VWS V14.01,2013-09-22 08:13:00,
2013-09-22 04:14:00,55.5,50.1,29.94,North,8,3.0,7.0,82,0.00,,---,0.00,VWS V14.01,2013-09-22 08:14:00,
2013-09-22 04:15:00,55.5,49.8,29.94,NE,43,3.0,7.0,81,0.00,,---,0.00,VWS V14.01,2013-09-22 08:15:00,
2013-09-22 04:16:00,55.6,50.2,29.94,NNE,22,5.0,7.0,82,0.00,,---,0.00,VWS V14.01,2013-09-22 08:16:00,
2013-09-22 04:17:00,55.5,50.1,29.94,NE,48,4.0,7.0,82,0.00,,---,0.00,VWS V14.01,2013-09-22 08:17:00,
2013-09-22 04:18:00,55.5,50.1,29.94,NNE,25,4.0,7.0,82,0.00,,---,0.00,VWS V14.01,2013-09-22 08:18:00,
2013-09-22 04:19:00,55.5,49.8,29.94,NE,37,4.0,7.0,81,0.00,,---,0.00,VWS V14.01,2013-09-22 08:19:00,
2013-09-22 04:20:00,55.5,49.8,29.94,NE,37,5.0,7.0,81,0.00,,---,0.00,VWS V14.01,2013-09-22 08:20:00,
2013-09-22 04:21:00,55.5,50.1,29.94,ENE,57,4.0,7.0,82,0.00,,---,0.00,VWS V14.01,2013-09-22 08:21:00,
2013-09-22 04:22:00,55.4,49.7,29.94,NNE,29,4.0,7.0,81,0.00,,---,0.00,VWS V14.01,2013-09-22 08:22:00,
2013-09-22 04:23:00,55.4,49.7,29.94,NNE,33,6.0,7.0,81,0.00,,---,0.00,VWS V14.01,2013-09-22 08:23:00,
2013-09-22 04:24:00,55.4,49.7,29.94,NE,39,1.0,7.0,81,0.00,,---,0.00,VWS V14.01,2013-09-22 08:24:00,
2013-09-22 04:25:00,55.4,49.7,29.94,NNE,25,2.0,7.0,81,0.00,,---,0.00,VWS V14.01,2013-09-22 08:25:00,
2013-09-22 04:26:00,55.4,50.0,29.94,NE,49,4.0,7.0,82,0.00,,---,0.00,VWS V14.01,2013-09-22 08:26:00,
2013-09-22 04:27:00,55.4,49.3,29.94,ENE,58,10.0,10.0,80,0.00,,---,0.00,VWS V14.01,2013-09-22 08:27:00,
2013-09-22 04:28:00,55.4,49.0,29.94,NE,54,4.0,10.0,79,0.00,,---,0.00,VWS V14.01,2013-09-22 08:28:00,
2013-09-22 04:29:00,55.5,49.4,29.94,NNE,16,3.0,10.0,80,0.00,,---,0.00,VWS V14.01,2013-09-22 08:29:00,
2013-09-22 04:30:00,55.5,49.4,29.94,NE,52,3.0,6.0,80,0.00,,---,0.00,VWS V14.01,2013-09-22 08:30:00,
2013-09-22 04:31:00,55.4,49.3,29.94,NE,43,3.0,7.0,80,0.00,,---,0.00,VWS V14.01,2013-09-22 08:31:00,
2013-09-22 04:32:00,55.5,49.4,29.94,NE,45,4.0,10.0,80,0.00,,---,0.00,VWS V14.01,2013-09-22 08:32:00,
2013-09-22 04:33:00,55.5,48.4,29.94,NE,36,5.0,10.0,77,0.00,,---,0.00,VWS V14.01,2013-09-22 08:33:00,
2013-09-22 04:34:00,55.6,48.9,29.94,ENE,64,9.0,10.0,78,0.00,,---,0.00,VWS V14.01,2013-09-22 08:34:00,
2013-09-22 04:35:00,55.6,48.9,29.94,NE,35,3.0,10.0,78,0.00,,---,0.00,VWS V14.01,2013-09-22 08:35:00,
2013-09-22 04:36:00,55.4,49.7,29.94,ENE,57,5.0,9.0,81,0.00,,---,0.00,VWS V14.01,2013-09-22 08:36:00,
2013-09-22 04:37:00,55.5,48.4,29.94,NNE,26,4.0,10.0,77,0.00,,---,0.00,VWS V14.01,2013-09-22 08:37:00,
2013-09-22 04:38:00,55.5,48.1,29.94,NE,52,2.0,10.0,76,0.00,,---,0.00,VWS V14.01,2013-09-22 08:38:00,
2013-09-22 04:39:00,55.5,48.4,29.94,NE,54,3.0,10.0,77,0.00,,---,0.00,VWS V14.01,2013-09-22 08:39:00,
2013-09-22 04:40:00,55.5,49.1,29.94,NNE,26,6.0,10.0,79,0.00,,---,0.00,VWS V14.01,2013-09-22 08:40:00,
2013-09-22 04:41:00,55.5,49.4,29.94,NE,55,7.0,10.0,80,0.00,,---,0.00,VWS V14.01,2013-09-22 08:41:00,
2013-09-22 04:42:00,55.5,48.8,29.94,NE,47,4.0,10.0,78,0.00,,---,0.00,VWS V14.01,2013-09-22 08:42:00,
2013-09-22 04:43:00,55.5,48.8,29.94,NE,40,2.0,10.0,78,0.00,,---,0.00,VWS V14.01,2013-09-22 08:43:00,
2013-09-22 04:44:00,55.4,48.3,29.94,NNE,33,3.0,10.0,77,0.00,,---,0.00,VWS V14.01,2013-09-22 08:44:00,
2013-09-22 04:45:00,55.4,49.0,29.94,ENE,62,9.0,10.0,79,0.00,,---,0.00,VWS V14.01,2013-09-22 08:45:00,
2013-09-22 04:46:00,55.5,48.4,29.94,NNE,30,3.0,10.0,77,0.00,,---,0.00,VWS V14.01,2013-09-22 08:46:00,
2013-09-22 04:47:00,55.4,48.7,29.94,NE,50,4.0,10.0,78,0.00,,---,0.00,VWS V14.01,2013-09-22 08:47:00,
2013-09-22 04:48:00,55.4,49.0,29.94,ENE,57,7.0,10.0,79,0.00,,---,0.00,VWS V14.01,2013-09-22 08:48:00,
2013-09-22 04:49:00,55.5,49.1,29.94,ENE,76,9.0,10.0,79,0.00,,---,0.00,VWS V14.01,2013-09-22 08:49:00,
2013-09-22 04:50:00,55.5,48.4,29.94,NE,50,4.0,10.0,77,0.00,,---,0.00,VWS V14.01,2013-09-22 08:50:00,
2013-09-22 04:51:00,55.5,48.8,29.94,NE,41,5.0,10.0,78,0.00,,---,0.00,VWS V14.01,2013-09-22 08:51:00,
2013-09-22 04:52:00,55.5,48.8,29.94,NNE,31,3.0,10.0,78,0.00,,---,0.00,VWS V14.01,2013-09-22 08:52:00,
2013-09-22 04:53:00,55.5,49.1,29.94,NE,54,6.0,10.0,79,0.00,,---,0.00,VWS V14.01,2013-09-22 08:53:00,
2013-09-22 04:54:00,55.5,48.8,29.94,NE,48,2.0,10.0,78,0.00,,---,0.00,VWS V14.01,2013-09-22 08:54:00,
2013-09-22 04:55:00,55.5,48.4,29.94,NE,48,5.0,10.0,77,0.00,,---,0.00,VWS V14.01,2013-09-22 08:55:00,
2013-09-22 04:56:00,55.4,48.7,29.94,NE,46,3.0,10.0,78,0.00,,---,0.00,VWS V14.01,2013-09-22 08:56:00,
2013-09-22 04:57:00,55.5,48.4,29.94,NE,43,4.0,10.0,77,0.00,,---,0.00,VWS V14.01,2013-09-22 08:57:00,
2013-09-22 04:58:00,55.5,48.4,29.94,NE,54,6.0,10.0,77,0.00,,---,0.00,VWS V14.01,2013-09-22 08:58:00,
2013-09-22 04:59:00,55.5,47.7,29.94,NE,45,3.0,10.0,75,0.00,,---,0.00,VWS V14.01,2013-09-22 08:59:00,
2013-09-22 05:00:00,55.5,48.4,29.94,ENE,60,5.0,5.0,77,0.00,,---,0.00,VWS V14.01,2013-09-22 09:00:00,
2013-09-22 05:01:00,55.5,48.8,29.94,NE,43,4.0,10.0,78,0.00,,---,0.00,VWS V14.01,2013-09-22 09:01:00,
2013-09-22 05:02:00,55.5,48.1,29.94,ENE,60,7.0,9.0,76,0.00,,---,0.00,VWS V14.01,2013-09-22 09:02:00,
2013-09-22 05:03:00,55.5,48.1,29.94,ENE,78,9.0,9.0,76,0.00,,---,0.00,VWS V14.01,2013-09-22 09:03:00,
2013-09-22 05:04:00,55.5,48.1,29.94,ENE,73,5.0,9.0,76,0.00,,---,0.00,VWS V14.01,2013-09-22 09:04:00,
2013-09-22 05:05:00,55.5,48.4,29.94,East,81,6.0,9.0,77,0.00,,---,0.00,VWS V14.01,2013-09-22 09:05:00,
2013-09-22 05:06:00,55.5,48.4,29.94,NE,40,6.0,10.0,77,0.00,,---,0.00,VWS V14.01,2013-09-22 09:06:00,
2013-09-22 05:07:00,55.5,48.4,29.95,ENE,70,5.0,9.0,77,0.00,,---,0.00,VWS V14.01,2013-09-22 09:07:00,
2013-09-22 05:08:00,55.5,48.1,29.94,ENE,57,3.0,9.0,76,0.00,,---,0.00,VWS V14.01,2013-09-22 09:08:00,
2013-09-22 05:09:00,55.5,48.4,29.95,ENE,69,9.0,9.0,77,0.00,,---,0.00,VWS V14.01,2013-09-22 09:09:00,
2013-09-22 05:10:00,55.4,48.0,29.95,ENE,67,5.0,9.0,76,0.00,,---,0.00,VWS V14.01,2013-09-22 09:10:00,
2013-09-22 05:11:00,55.5,48.1,29.94,NE,53,6.0,9.0,76,0.00,,---,0.00,VWS V14.01,2013-09-22 09:11:00,
2013-09-22 05:12:00,55.4,48.3,29.95,East,79,7.0,9.0,77,0.00,,---,0.00,VWS V14.01,2013-09-22 09:12:00,
2013-09-22 05:13:00,55.4,48.3,29.95,ENE,73,8.0,9.0,77,0.00,,---,0.00,VWS V14.01,2013-09-22 09:13:00,
2013-09-22 05:14:00,55.4,48.0,29.95,ENE,75,7.0,9.0,76,0.00,,---,0.00,VWS V14.01,2013-09-22 09:14:00,
2013-09-22 05:15:00,55.4,48.3,29.95,East,91,6.0,9.0,77,0.00,,---,0.00,VWS V14.01,2013-09-22 09:15:00,
2013-09-22 05:16:00,55.5,48.4,29.94,ENE,62,7.0,9.0,77,0.00,,---,0.00,VWS V14.01,2013-09-22 09:16:00,
2013-09-22 05:17:00,55.4,48.3,29.95,East,93,6.0,9.0,77,0.00,,---,0.00,VWS V14.01,2013-09-22 09:17:00,
2013-09-22 05:18:00,55.4,48.7,29.95,NE,54,3.0,9.0,78,0.00,,---,0.00,VWS V14.01,2013-09-22 09:18:00,
2013-09-22 05:19:00,55.4,48.3,29.95,ENE,63,4.0,9.0,77,0.00,,---,0.00,VWS V14.01,2013-09-22 09:19:00,
2013-09-22 05:20:00,55.4,48.3,29.95,ENE,76,7.0,9.0,77,0.00,,---,0.00,VWS V14.01,2013-09-22 09:20:00,
2013-09-22 05:21:00,55.4,48.3,29.95,ENE,68,5.0,9.0,77,0.00,,---,0.00,VWS V14.01,2013-09-22 09:21:00,
2013-09-22 05:22:00,55.4,48.0,29.95,ENE,69,7.0,9.0,76,0.00,,---,0.00,VWS V14.01,2013-09-22 09:22:00,
2013-09-22 05:23:00,55.3,47.9,29.95,East,85,8.0,9.0,76,0.00,,---,0.00,VWS V14.01,2013-09-22 09:23:00,
2013-09-22 05:24:00,55.3,47.9,29.95,ENE,76,5.0,9.0,76,0.00,,---,0.00,VWS V14.01,2013-09-22 09:24:00,
2013-09-22 05:25:00,55.3,47.9,29.95,East,91,7.0,9.0,76,0.00,,---,0.00,VWS V14.01,2013-09-22 09:25:00,
2013-09-22 05:26:00,55.4,48.3,29.95,East,91,5.0,9.0,77,0.00,,---,0.00,VWS V14.01,2013-09-22 09:26:00,
2013-09-22 05:27:00,55.2,47.4,29.95,East,79,6.0,9.0,75,0.00,,---,0.00,VWS V14.01,2013-09-22 09:27:00,
2013-09-22 05:28:00,55.1,47.7,29.95,ENE,70,7.0,9.0,76,0.00,,---,0.00,VWS V14.01,2013-09-22 09:28:00,
2013-09-22 05:29:00,55.1,48.0,29.95,ENE,77,5.0,9.0,77,0.00,,---,0.00,VWS V14.01,2013-09-22 09:29:00,
2013-09-22 05:30:00,55.1,47.7,29.95,East,85,7.0,8.0,76,0.00,,---,0.00,VWS V14.01,2013-09-22 09:30:00,
2013-09-22 05:31:00,55.4,48.3,29.95,ENE,64,7.0,9.0,77,0.00,,---,0.00,VWS V14.01,2013-09-22 09:31:00,
2013-09-22 05:32:00,55.0,47.9,29.95,East,81,6.0,8.0,77,0.00,,---,0.00,VWS V14.01,2013-09-22 09:32:00,
2013-09-22 05:33:00,55.0,47.9,29.95,East,79,6.0,8.0,77,0.00,,---,0.00,VWS V14.01,2013-09-22 09:33:00,
2013-09-22 05:34:00,55.0,47.9,29.95,East,87,6.0,8.0,77,0.00,,---,0.00,VWS V14.01,2013-09-22 09:34:00,
2013-09-22 05:35:00,55.0,48.3,29.95,ENE,64,7.0,8.0,78,0.00,,---,0.00,VWS V14.01,2013-09-22 09:35:00,
2013-09-22 05:36:00,55.2,47.4,29.95,East,87,6.0,9.0,75,0.00,,---,0.00,VWS V14.01,2013-09-22 09:36:00,
2013-09-22 05:37:00,55.0,47.9,29.96,ENE,73,5.0,8.0,77,0.00,,---,0.00,VWS V14.01,2013-09-22 09:37:00,
2013-09-22 05:38:00,55.0,48.3,29.96,ENE,62,5.0,8.0,78,0.00,,---,0.00,VWS V14.01,2013-09-22 09:38:00,
2013-09-22 05:39:00,55.0,48.3,29.96,NE,53,2.0,8.0,78,0.00,,---,0.00,VWS V14.01,2013-09-22 09:39:00,
2013-09-22 05:40:00,55.0,48.6,29.96,NE,52,3.0,8.0,79,0.00,,---,0.00,VWS V14.01,2013-09-22 09:40:00,
2013-09-22 05:41:00,55.0,47.9,29.95,ENE,74,7.0,8.0,77,0.00,,---,0.00,VWS V14.01,2013-09-22 09:41:00,
2013-09-22 05:42:00,54.9,48.2,29.95,ENE,62,4.0,8.0,78,0.00,,---,0.00,VWS V14.01,2013-09-22 09:42:00,
2013-09-22 05:43:00,54.9,47.8,29.96,ENE,60,5.0,8.0,77,0.00,,---,0.00,VWS V14.01,2013-09-22 09:43:00,
2013-09-22 05:44:00,54.9,47.8,29.96,NE,50,3.0,8.0,77,0.00,,---,0.00,VWS V14.01,2013-09-22 09:44:00,
2013-09-22 05:45:00,54.8,48.1,29.96,NNE,28,4.0,8.0,78,0.00,,---,0.00,VWS V14.01,2013-09-22 09:45:00,
2013-09-22 05:46:00,55.0,47.9,29.96,ENE,74,4.0,8.0,77,0.00,,---,0.00,VWS V14.01,2013-09-22 09:46:00,
2013-09-22 05:47:00,54.8,47.7,29.96,NE,35,2.0,8.0,77,0.00,,---,0.00,VWS V14.01,2013-09-22 09:47:00,
2013-09-22 05:48:00,54.7,48.0,29.96,NE,48,3.0,8.0,78,0.00,,---,0.00,VWS V14.01,2013-09-22 09:48:00,
2013-09-22 05:49:00,54.8,48.4,29.96,NE,46,1.0,8.0,79,0.00,,---,0.00,VWS V14.01,2013-09-22 09:49:00,
2013-09-22 05:50:00,54.8,48.4,29.96,NNE,28,4.0,8.0,79,0.00,,---,0.00,VWS V14.01,2013-09-22 09:50:00,
2013-09-22 05:51:00,54.9,48.2,29.95,NE,35,1.0,8.0,78,0.00,,---,0.00,VWS V14.01,2013-09-22 09:51:00,
2013-09-22 05:52:00,54.6,47.9,29.96,NNE,27,2.0,8.0,78,0.00,,---,0.00,VWS V14.01,2013-09-22 09:52:00,
2013-09-22 05:53:00,54.6,47.9,29.96,NNE,22,2.0,8.0,78,0.00,,---,0.00,VWS V14.01,2013-09-22 09:53:00,
2013-09-22 05:54:00,54.5,47.8,29.96,NE,35,3.0,8.0,78,0.00,,---,0.00,VWS V14.01,2013-09-22 09:54:00,
2013-09-22 05:55:00,54.4,47.7,29.96,NE,35,2.0,8.0,78,0.00,,---,0.00,VWS V14.01,2013-09-22 09:55:00,
2013-09-22 05:56:00,54.8,47.7,29.96,NE,35,3.0,8.0,77,0.00,,---,0.00,VWS V14.01,2013-09-22 09:56:00,
2013-09-22 05:57:00,54.3,47.9,29.96,NNE,31,2.0,8.0,79,0.00,,---,0.00,VWS V14.01,2013-09-22 09:57:00,
2013-09-22 05:58:00,54.3,47.6,29.96,NNE,31,1.0,8.0,78,0.00,,---,0.00,VWS V14.01,2013-09-22 09:58:00,
2013-09-22 05:59:00,54.2,47.8,29.96,NNE,31,1.0,8.0,79,0.00,,---,0.00,VWS V14.01,2013-09-22 09:59:00,
2013-09-22 06:00:00,54.2,47.8,29.96,NNE,31,1.0,1.0,79,0.00,,---,0.00,VWS V14.01,2013-09-22 10:00:00,
2013-09-22 06:01:00,54.6,47.9,29.96,NNE,27,4.0,8.0,78,0.00,,---,0.00,VWS V14.01,2013-09-22 10:01:00,
2013-09-22 06:02:00,54.1,47.7,29.96,NNE,31,2.0,3.0,79,0.00,,---,0.00,VWS V14.01,2013-09-22 10:02:00,
2013-09-22 06:03:00,54.1,48.1,29.96,NNE,31,2.0,3.0,80,0.00,,---,0.00,VWS V14.01,2013-09-22 10:03:00,
2013-09-22 06:04:00,54.1,48.1,29.96,NNE,31,1.0,3.0,80,0.00,,---,0.00,VWS V14.01,2013-09-22 10:04:00,
2013-09-22 06:05:00,54.0,48.0,29.96,NNE,31,3.0,3.0,80,0.00,,---,0.00,VWS V14.01,2013-09-22 10:05:00,
2013-09-22 06:06:00,54.3,47.9,29.96,NNE,31,2.0,8.0,79,0.00,,---,0.00,VWS V14.01,2013-09-22 10:06:00,
2013-09-22 06:07:00,54.0,48.0,29.96,NNE,31,2.0,3.0,80,0.00,,---,0.00,VWS V14.01,2013-09-22 10:07:00,
2013-09-22 06:08:00,54.0,48.0,29.96,NNE,31,1.0,3.0,80,0.00,,---,0.00,VWS V14.01,2013-09-22 10:08:00,
2013-09-22 06:09:00,54.0,48.0,29.96,NNE,31,2.0,3.0,80,0.00,,---,0.00,VWS V14.01,2013-09-22 10:09:00,
2013-09-22 06:10:00,54.0,48.0,29.96,NNE,31,0.0,3.0,80,0.00,,---,0.00,VWS V14.01,2013-09-22 10:10:00,
2013-09-22 06:11:00,54.1,47.7,29.96,NNE,31,1.0,3.0,79,0.00,,---,0.00,VWS V14.01,2013-09-22 10:11:00,
2013-09-22 06:12:00,54.0,48.0,29.96,NNE,31,2.0,4.0,80,0.00,,---,0.00,VWS V14.01,2013-09-22 10:12:00,
2013-09-22 06:13:00,53.9,47.9,29.96,NNE,31,2.0,4.0,80,0.00,,---,0.00,VWS V14.01,2013-09-22 10:13:00,
2013-09-22 06:14:00,53.9,47.9,29.96,NNE,31,1.0,4.0,80,0.00,,---,0.00,VWS V14.01,2013-09-22 10:14:00,
2013-09-22 06:15:00,53.9,47.9,29.96,NE,39,2.0,4.0,80,0.00,,---,0.00,VWS V14.01,2013-09-22 10:15:00,
2013-09-22 06:16:00,54.0,48.0,29.96,NNE,31,3.0,3.0,80,0.00,,---,0.00,VWS V14.01,2013-09-22 10:16:00,
2013-09-22 06:17:00,53.9,48.2,29.96,NE,37,2.0,4.0,81,0.00,,---,0.00,VWS V14.01,2013-09-22 10:17:00,
2013-09-22 06:18:00,53.9,48.2,29.96,NNE,32,4.0,4.0,81,0.00,,---,0.00,VWS V14.01,2013-09-22 10:18:00,
2013-09-22 06:19:00,53.9,48.2,29.96,NNE,32,2.0,4.0,81,0.00,,---,0.00,VWS V14.01,2013-09-22 10:19:00,
2013-09-22 06:20:00,53.9,48.2,29.96,NNE,32,2.0,4.0,81,0.00,,---,0.00,VWS V14.01,2013-09-22 10:20:00,
2013-09-22 06:21:00,54.0,48.0,29.96,NNE,31,2.0,4.0,80,0.00,,---,0.00,VWS V14.01,2013-09-22 10:21:00,
2013-09-22 06:22:00,53.8,48.1,29.96,NE,52,3.0,4.0,81,0.00,,---,0.00,VWS V14.01,2013-09-22 10:22:00,
2013-09-22 06:23:00,53.8,48.1,29.96,NE,37,2.0,4.0,81,0.00,,---,0.00,VWS V14.01,2013-09-22 10:23:00,
2013-09-22 06:24:00,53.8,48.1,29.96,NE,35,2.0,4.0,81,0.00,,---,0.00,VWS V14.01,2013-09-22 10:24:00,
2013-09-22 06:25:00,53.8,48.1,29.96,NNE,33,3.0,4.0,81,0.00,,---,0.00,VWS V14.01,2013-09-22 10:25:00,
2013-09-22 06:26:00,53.9,48.2,29.96,NE,37,2.0,4.0,81,0.00,,---,0.00,VWS V14.01,2013-09-22 10:26:00,
2013-09-22 06:27:00,53.7,48.3,29.96,NE,49,2.0,4.0,82,0.00,,---,0.00,VWS V14.01,2013-09-22 10:27:00,
2013-09-22 06:28:00,53.7,48.0,29.96,NE,40,5.0,5.0,81,0.00,,---,0.00,VWS V14.01,2013-09-22 10:28:00,
2013-09-22 06:29:00,53.7,48.0,29.96,NE,50,3.0,5.0,81,0.00,,---,0.00,VWS V14.01,2013-09-22 10:29:00,
2013-09-22 06:30:00,53.7,48.0,29.96,NE,42,4.0,4.0,81,0.00,,---,0.00,VWS V14.01,2013-09-22 10:30:00,
2013-09-22 06:31:00,53.9,48.2,29.96,NE,51,2.0,4.0,81,0.00,,---,0.00,VWS V14.01,2013-09-22 10:31:00,
2013-09-22 06:32:00,53.7,48.3,29.96,ENE,60,3.0,8.0,82,0.00,,---,0.00,VWS V14.01,2013-09-22 10:32:00,
2013-09-22 06:33:00,53.8,48.4,29.96,ENE,72,8.0,9.0,82,0.00,,---,0.00,VWS V14.01,2013-09-22 10:33:00,
2013-09-22 06:34:00,53.9,48.5,29.96,ENE,67,8.0,9.0,82,0.00,,---,0.00,VWS V14.01,2013-09-22 10:34:00,
2013-09-22 06:35:00,54.0,48.6,29.96,ENE,58,7.0,9.0,82,0.00,,---,0.00,VWS V14.01,2013-09-22 10:35:00,
2013-09-22 06:36:00,53.7,48.3,29.96,NE,49,2.0,4.0,82,0.00,,---,0.00,VWS V14.01,2013-09-22 10:36:00,
2013-09-22 06:37:00,54.2,48.8,29.96,ENE,58,5.0,9.0,82,0.00,,---,0.00,VWS V14.01,2013-09-22 10:37:00,
2013-09-22 06:38:00,54.2,48.2,29.96,ENE,62,4.0,9.0,80,0.00,,---,0.00,VWS V14.01,2013-09-22 10:38:00,
2013-09-22 06:39:00,54.2,48.5,29.96,ENE,77,8.0,9.0,81,0.00,,---,0.00,VWS V14.01,2013-09-22 10:39:00,
2013-09-22 06:40:00,54.2,48.5,29.96,ENE,77,4.0,9.0,81,0.00,,---,0.00,VWS V14.01,2013-09-22 10:40:00,
2013-09-22 06:41:00,53.7,48.0,29.96,ENE,69,8.0,8.0,81,0.00,,---,0.00,VWS V14.01,2013-09-22 10:41:00,
2013-09-22 06:42:00,54.2,48.2,29.96,ENE,64,5.0,9.0,80,0.00,,---,0.00,VWS V14.01,2013-09-22 10:42:00,
2013-09-22 06:43:00,54.2,47.8,29.96,ENE,70,7.0,9.0,79,0.00,,---,0.00,VWS V14.01,2013-09-22 10:43:00,
2013-09-22 06:44:00,54.1,48.1,29.96,ENE,74,7.0,9.0,80,0.00,,---,0.00,VWS V14.01,2013-09-22 10:44:00,
2013-09-22 06:46:00,54.2,48.8,29.96,NE,48,4.0,9.0,82,0.00,,---,0.00,VWS V14.01,2013-09-22 10:46:00,
2013-09-22 06:50:00,54.0,48.0,29.96,NNE,19,3.0,9.0,80,0.00,,---,0.00,VWS V14.01,2013-09-22 10:50:00,
2013-09-22 06:51:00,54.2,47.8,29.96,ENE,62,8.0,9.0,79,0.00,,---,0.00,VWS V14.01,2013-09-22 10:51:00,
2013-09-22 06:52:00,53.7,47.3,29.97,NNE,29,1.0,9.0,79,0.00,,---,0.00,VWS V14.01,2013-09-22 10:52:00,
2013-09-22 06:54:00,53.5,47.2,29.97,NNE,21,4.0,9.0,79,0.00,,---,0.00,VWS V14.01,2013-09-22 10:54:00,
2013-09-22 06:55:00,53.3,47.0,29.97,NNE,22,0.0,9.0,79,0.00,,---,0.00,VWS V14.01,2013-09-22 10:55:00,
2013-09-22 06:56:00,53.3,47.0,29.97,NNE,22,2.0,9.0,79,0.00,,---,0.00,VWS V14.01,2013-09-22 10:56:00,
2013-09-22 06:57:00,53.2,46.9,29.97,NNE,22,1.0,9.0,79,0.00,,---,0.00,VWS V14.01,2013-09-22 10:57:00,
2013-09-22 06:58:00,53.0,46.7,29.97,NNE,22,3.0,9.0,79,0.00,,---,0.00,VWS V14.01,2013-09-22 10:58:00,
2013-09-22 06:59:00,54.0,48.0,29.96,NNE,19,2.0,9.0,80,0.00,,---,0.00,VWS V14.01,2013-09-22 10:59:00,
2013-09-22 07:00:00,52.8,46.5,29.97,NNE,22,2.0,2.0,79,0.00,,---,0.00,VWS V14.01,2013-09-22 11:00:00,
2013-09-22 07:01:00,52.7,46.4,29.97,NNE,22,1.0,3.0,79,0.00,,---,0.00,VWS V14.01,2013-09-22 11:01:00,
2013-09-22 07:02:00,52.6,46.3,29.97,NNE,22,2.0,3.0,79,0.00,,---,0.00,VWS V14.01,2013-09-22 11:02:00,
2013-09-22 07:03:00,52.6,46.6,29.97,NNE,23,2.0,3.0,80,0.00,,---,0.00,VWS V14.01,2013-09-22 11:03:00,
2013-09-22 07:04:00,53.4,47.1,29.97,NNE,22,1.0,9.0,79,0.00,,---,0.00,VWS V14.01,2013-09-22 11:04:00,
2013-09-22 07:05:00,52.6,46.6,29.97,NE,48,2.0,3.0,80,0.00,,---,0.00,VWS V14.01,2013-09-22 11:05:00,
2013-09-22 07:06:00,52.6,46.9,29.97,NE,48,1.0,3.0,81,0.00,,---,0.00,VWS V14.01,2013-09-22 11:06:00,
2013-09-22 07:07:00,52.5,46.5,29.97,NNE,15,2.0,3.0,80,0.00,,---,0.00,VWS V14.01,2013-09-22 11:07:00,
2013-09-22 07:08:00,52.5,46.5,29.97,NNE,15,2.0,3.0,80,0.00,,---,0.00,VWS V14.01,2013-09-22 11:08:00,
2013-09-22 07:09:00,52.8,46.5,29.97,NNE,22,2.0,2.0,79,0.00,,---,0.00,VWS V14.01,2013-09-22 11:09:00,
2013-09-22 07:10:00,52.4,46.4,29.98,NNE,20,5.0,5.0,80,0.00,,---,0.00,VWS V14.01,2013-09-22 11:10:00,
2013-09-22 07:11:00,52.4,46.4,29.98,NE,35,3.0,5.0,80,0.00,,---,0.00,VWS V14.01,2013-09-22 11:11:00,
2013-09-22 07:12:00,52.4,46.4,29.98,NE,35,2.0,5.0,80,0.00,,---,0.00,VWS V14.01,2013-09-22 11:12:00,
2013-09-22 07:13:00,52.4,46.4,29.98,NNE,29,4.0,5.0,80,0.00,,---,0.00,VWS V14.01,2013-09-22 11:13:00,
2013-09-22 07:14:00,52.6,46.6,29.97,NE,48,3.0,3.0,80,0.00,,---,0.00,VWS V14.01,2013-09-22 11:14:00,
2013-09-22 07:15:00,52.3,46.0,29.98,NNE,33,2.0,5.0,79,0.00,,---,0.00,VWS V14.01,2013-09-22 11:15:00,
2013-09-22 07:16:00,52.3,46.0,29.98,NNE,33,2.0,5.0,79,0.00,,---,0.00,VWS V14.01,2013-09-22 11:16:00,
2013-09-22 07:17:00,52.3,46.0,29.98,NNE,33,2.0,5.0,79,0.00,,---,0.00,VWS V14.01,2013-09-22 11:17:00,
2013-09-22 07:18:00,52.2,45.9,29.98,NNE,33,1.0,5.0,79,0.00,,---,0.00,VWS V14.01,2013-09-22 11:18:00,
2013-09-22 07:19:00,52.4,46.4,29.98,NNE,28,3.0,3.0,80,0.00,,---,0.00,VWS V14.01,2013-09-22 11:19:00,
2013-09-22 07:20:00,52.2,45.9,29.98,NNE,33,2.0,5.0,79,0.00,,---,0.00,VWS V14.01,2013-09-22 11:20:00,
2013-09-22 07:21:00,52.2,45.9,29.98,NNE,33,3.0,5.0,79,0.00,,---,0.00,VWS V14.01,2013-09-22 11:21:00,
2013-09-22 07:22:00,52.2,46.2,29.98,NNE,33,1.0,5.0,80,0.00,,---,0.00,VWS V14.01,2013-09-22 11:22:00,
2013-09-22 07:23:00,52.2,46.2,29.98,NE,36,2.0,5.0,80,0.00,,---,0.00,VWS V14.01,2013-09-22 11:23:00,
2013-09-22 07:24:00,52.3,46.0,29.98,NNE,33,1.0,5.0,79,0.00,,---,0.00,VWS V14.01,2013-09-22 11:24:00,
2013-09-22 07:25:00,52.2,46.5,29.98,NE,39,2.0,5.0,81,0.00,,---,0.00,VWS V14.01,2013-09-22 11:25:00,
2013-09-22 07:26:00,52.2,46.5,29.98,NE,45,3.0,5.0,81,0.00,,---,0.00,VWS V14.01,2013-09-22 11:26:00,
2013-09-22 07:27:00,52.2,46.9,29.98,ENE,60,3.0,5.0,82,0.00,,---,0.00,VWS V14.01,2013-09-22 11:27:00,
2013-09-22 07:28:00,52.3,47.3,29.98,ENE,58,5.0,5.0,83,0.00,,---,0.00,VWS V14.01,2013-09-22 11:28:00,
2013-09-22 07:29:00,52.2,45.9,29.98,NNE,33,2.0,5.0,79,0.00,,---,0.00,VWS V14.01,2013-09-22 11:29:00,
2013-09-22 07:30:00,52.4,47.7,29.98,ENE,77,8.0,8.0,84,0.00,,---,0.00,VWS V14.01,2013-09-22 11:30:00,
2013-09-22 07:31:00,52.5,47.5,29.99,ENE,74,5.0,8.0,83,0.00,,---,0.00,VWS V14.01,2013-09-22 11:31:00,
2013-09-22 07:32:00,52.6,47.6,29.99,ENE,62,5.0,8.0,83,0.00,,---,0.00,VWS V14.01,2013-09-22 11:32:00,
2013-09-22 07:33:00,52.6,47.3,29.99,East,94,5.0,8.0,82,0.00,,---,0.00,VWS V14.01,2013-09-22 11:33:00,
2013-09-22 07:34:00,52.2,46.5,29.98,NE,39,2.0,5.0,81,0.00,,---,0.00,VWS V14.01,2013-09-22 11:34:00,
2013-09-22 07:35:00,52.7,47.4,29.99,ENE,73,3.0,8.0,82,0.00,,---,0.00,VWS V14.01,2013-09-22 11:35:00,
2013-09-22 07:36:00,52.7,47.4,29.99,ENE,60,3.0,8.0,82,0.00,,---,0.00,VWS V14.01,2013-09-22 11:36:00,
2013-09-22 07:37:00,52.7,47.0,29.99,ENE,63,3.0,8.0,81,0.00,,---,0.00,VWS V14.01,2013-09-22 11:37:00,
2013-09-22 07:38:00,52.7,47.0,29.99,NNE,29,4.0,8.0,81,0.00,,---,0.00,VWS V14.01,2013-09-22 11:38:00,
2013-09-22 07:39:00,52.7,47.4,29.99,NE,48,3.0,8.0,82,0.00,,---,0.00,VWS V14.01,2013-09-22 11:39:00,
2013-09-22 07:40:00,52.5,47.8,29.98,East,91,5.0,8.0,84,0.00,,---,0.00,VWS V14.01,2013-09-22 11:40:00,
2013-09-22 07:41:00,52.7,47.0,29.99,NE,48,1.0,8.0,81,0.00,,---,0.00,VWS V14.01,2013-09-22 11:41:00,
2013-09-22 07:42:00,52.7,47.0,29.99,NE,43,2.0,8.0,81,0.00,,---,0.00,VWS V14.01,2013-09-22 11:42:00,
2013-09-22 07:43:00,52.6,46.9,29.99,NNE,32,2.0,8.0,81,0.00,,---,0.00,VWS V14.01,2013-09-22 11:43:00,
2013-09-22 07:44:00,52.6,46.6,29.99,NE,43,3.0,8.0,80,0.00,,---,0.00,VWS V14.01,2013-09-22 11:44:00,
2013-09-22 07:45:00,52.7,47.4,29.99,ENE,74,2.0,8.0,82,0.00,,---,0.00,VWS V14.01,2013-09-22 11:45:00,
2013-09-22 07:46:00,52.6,46.6,29.99,NNE,31,2.0,8.0,80,0.00,,---,0.00,VWS V14.01,2013-09-22 11:46:00,
2013-09-22 07:47:00,52.6,46.6,29.99,NE,39,3.0,8.0,80,0.00,,---,0.00,VWS V14.01,2013-09-22 11:47:00,
2013-09-22 07:48:00,52.5,46.2,29.99,NNE,19,1.0,8.0,79,0.00,,---,0.00,VWS V14.01,2013-09-22 11:48:00,
2013-09-22 07:49:00,52.5,46.5,29.99,NNE,19,2.0,8.0,80,0.00,,---,0.00,VWS V14.01,2013-09-22 11:49:00,
2013-09-22 07:50:00,52.8,47.5,29.99,NE,48,1.0,8.0,82,0.00,,---,0.00,VWS V14.01,2013-09-22 11:50:00,
2013-09-22 07:51:00,52.6,46.6,29.99,NNE,22,1.0,8.0,80,0.00,,---,0.00,VWS V14.01,2013-09-22 11:51:00,
2013-09-22 07:52:00,52.6,46.6,29.99,NNE,25,2.0,8.0,80,0.00,,---,0.00,VWS V14.01,2013-09-22 11:52:00,
2013-09-22 07:53:00,52.7,46.7,29.99,NNE,27,4.0,8.0,80,0.00,,---,0.00,VWS V14.01,2013-09-22 11:53:00,
2013-09-22 07:54:00,52.7,46.7,29.99,NNE,27,2.0,8.0,80,0.00,,---,0.00,VWS V14.01,2013-09-22 11:54:00,
2013-09-22 07:55:00,52.6,46.6,29.99,NNE,15,2.0,8.0,80,0.00,,---,0.00,VWS V14.01,2013-09-22 11:55:00,
2013-09-22 07:56:00,52.7,46.4,29.99,NNE,29,0.0,8.0,79,0.00,,---,0.00,VWS V14.01,2013-09-22 11:56:00,
2013-09-22 07:57:00,52.8,46.5,29.99,NNE,29,1.0,8.0,79,0.00,,---,0.00,VWS V14.01,2013-09-22 11:57:00,
2013-09-22 07:58:00,52.8,46.5,29.99,NNE,29,1.0,8.0,79,0.00,,---,0.00,VWS V14.01,2013-09-22 11:58:00,
2013-09-22 07:59:00,52.9,46.6,29.99,NNE,29,1.0,8.0,79,0.00,,---,0.00,VWS V14.01,2013-09-22 11:59:00,
2013-09-22 08:00:00,52.6,46.6,29.99,NNE,22,1.0,8.0,80,0.00,,---,0.00,VWS V14.01,2013-09-22 12:00:00,
2013-09-22 08:01:00,53.1,46.8,29.99,NNE,29,1.0,2.0,79,0.00,,---,0.00,VWS V14.01,2013-09-22 12:01:00,
2013-09-22 08:02:00,53.1,46.8,30.00,NNE,29,2.0,2.0,79,0.00,,---,0.00,VWS V14.01,2013-09-22 12:02:00,
2013-09-22 08:03:00,53.2,46.9,30.00,NNE,29,0.0,2.0,79,0.00,,---,0.00,VWS V14.01,2013-09-22 12:03:00,
2013-09-22 08:04:00,53.3,47.0,30.00,NNE,29,0.0,2.0,79,0.00,,---,0.00,VWS V14.01,2013-09-22 12:04:00,
2013-09-22 08:05:00,52.7,46.4,29.99,NNE,27,1.0,8.0,79,0.00,,---,0.00,VWS V14.01,2013-09-22 12:05:00,
2013-09-22 08:06:00,53.5,46.8,30.00,NNE,29,1.0,2.0,78,0.00,,---,0.00,VWS V14.01,2013-09-22 12:06:00,
2013-09-22 08:07:00,53.5,46.8,30.00,NNE,29,0.0,2.0,78,0.00,,---,0.00,VWS V14.01,2013-09-22 12:07:00,
2013-09-22 08:08:00,53.6,46.9,30.00,NNE,29,1.0,2.0,78,0.00,,---,0.00,VWS V14.01,2013-09-22 12:08:00,
2013-09-22 08:09:00,53.7,47.0,30.00,NNE,29,1.0,2.0,78,0.00,,---,0.00,VWS V14.01,2013-09-22 12:09:00,
2013-09-22 08:10:00,53.0,46.7,29.99,NNE,29,1.0,1.0,79,0.00,,---,0.00,VWS V14.01,2013-09-22 12:10:00,
2013-09-22 08:11:00,53.8,47.1,30.00,NNE,29,3.0,3.0,78,0.00,,---,0.00,VWS V14.01,2013-09-22 12:11:00,
2013-09-22 08:12:00,53.9,46.9,30.00,NNE,29,2.0,3.0,77,0.00,,---,0.00,VWS V14.01,2013-09-22 12:12:00,
2013-09-22 08:13:00,53.9,46.9,30.00,NNE,33,2.0,3.0,77,0.00,,---,0.00,VWS V14.01,2013-09-22 12:13:00,
2013-09-22 08:14:00,54.0,47.0,30.00,NNE,18,3.0,4.0,77,0.00,,---,0.00,VWS V14.01,2013-09-22 12:14:00,
2013-09-22 08:15:00,53.4,47.1,30.00,NNE,29,1.0,2.0,79,0.00,,---,0.00,VWS V14.01,2013-09-22 12:15:00,
2013-09-22 08:16:00,54.0,47.0,30.00,NE,34,1.0,4.0,77,0.00,,---,0.00,VWS V14.01,2013-09-22 12:16:00,
2013-09-22 08:17:00,54.0,47.3,30.00,NE,34,1.0,4.0,78,0.00,,---,0.00,VWS V14.01,2013-09-22 12:17:00,
2013-09-22 08:18:00,54.0,47.3,30.00,NE,34,1.0,4.0,78,0.00,,---,0.00,VWS V14.01,2013-09-22 12:18:00,
2013-09-22 08:19:00,54.0,47.0,30.00,NE,46,3.0,4.0,77,0.00,,---,0.00,VWS V14.01,2013-09-22 12:19:00,
2013-09-22 08:20:00,53.8,47.1,30.00,NNE,29,1.0,2.0,78,0.00,,---,0.00,VWS V14.01,2013-09-22 12:20:00,
2013-09-22 08:21:00,54.1,47.1,30.00,NNE,12,2.0,4.0,77,0.00,,---,0.00,VWS V14.01,2013-09-22 12:21:00,
2013-09-22 08:22:00,54.1,47.1,30.00,NNE,12,1.0,4.0,77,0.00,,---,0.00,VWS V14.01,2013-09-22 12:22:00,
2013-09-22 08:23:00,54.2,47.5,30.00,NE,48,3.0,4.0,78,0.00,,---,0.00,VWS V14.01,2013-09-22 12:23:00,
2013-09-22 08:24:00,54.2,46.8,30.00,NE,48,3.0,4.0,76,0.00,,---,0.00,VWS V14.01,2013-09-22 12:24:00,
2013-09-22 08:25:00,54.0,47.0,30.00,NE,34,2.0,4.0,77,0.00,,---,0.00,VWS V14.01,2013-09-22 12:25:00,
2013-09-22 08:26:00,54.2,47.2,30.00,NNE,27,0.0,4.0,77,0.00,,---,0.00,VWS V14.01,2013-09-22 12:26:00,
2013-09-22 08:27:00,54.3,47.6,30.00,NNE,26,3.0,4.0,78,0.00,,---,0.00,VWS V14.01,2013-09-22 12:27:00,
2013-09-22 08:28:00,54.3,47.2,30.00,NNE,32,1.0,4.0,77,0.00,,---,0.00,VWS V14.01,2013-09-22 12:28:00,
2013-09-22 08:29:00,54.4,47.3,30.00,NNE,32,0.0,4.0,77,0.00,,---,0.00,VWS V14.01,2013-09-22 12:29:00,
2013-09-22 08:30:00,54.1,47.1,30.00,NE,44,2.0,4.0,77,0.00,,---,0.00,VWS V14.01,2013-09-22 12:30:00,
2013-09-22 08:31:00,54.4,47.7,30.00,NNE,32,2.0,3.0,78,0.00,,---,0.00,VWS V14.01,2013-09-22 12:31:00,
2013-09-22 08:32:00,54.4,47.3,30.00,NNE,32,1.0,3.0,77,0.00,,---,0.00,VWS V14.01,2013-09-22 12:32:00,
2013-09-22 08:33:00,54.4,46.7,30.00,ENE,66,4.0,5.0,75,0.00,,---,0.00,VWS V14.01,2013-09-22 12:33:00,
2013-09-22 08:34:00,54.4,46.7,30.00,NNE,33,3.0,5.0,75,0.00,,---,0.00,VWS V14.01,2013-09-22 12:34:00,
2013-09-22 08:35:00,54.2,47.2,30.00,ENE,60,1.0,4.0,77,0.00,,---,0.00,VWS V14.01,2013-09-22 12:35:00,
2013-09-22 08:36:00,54.4,47.0,30.00,NNE,32,3.0,5.0,76,0.00,,---,0.00,VWS V14.01,2013-09-22 12:36:00,
2013-09-22 08:37:00,54.4,47.0,30.00,NE,43,1.0,5.0,76,0.00,,---,0.00,VWS V14.01,2013-09-22 12:37:00,
2013-09-22 08:38:00,54.3,46.2,30.00,NE,41,5.0,5.0,74,0.00,,---,0.00,VWS V14.01,2013-09-22 12:38:00,
2013-09-22 08:39:00,54.3,46.2,30.00,ENE,63,3.0,5.0,74,0.00,,---,0.00,VWS V14.01,2013-09-22 12:39:00,
2013-09-22 08:40:00,54.4,47.7,30.00,NNE,32,0.0,2.0,78,0.00,,---,0.00,VWS V14.01,2013-09-22 12:40:00,
2013-09-22 08:41:00,54.4,46.7,30.00,NNE,33,1.0,5.0,75,0.00,,---,0.00,VWS V14.01,2013-09-22 12:41:00,
2013-09-22 08:42:00,54.4,47.0,30.00,NE,35,4.0,5.0,76,0.00,,---,0.00,VWS V14.01,2013-09-22 12:42:00,
2013-09-22 08:43:00,54.3,46.2,30.00,NE,41,4.0,5.0,74,0.00,,---,0.00,VWS V14.01,2013-09-22 12:43:00,
2013-09-22 08:44:00,54.3,45.8,30.00,NNE,21,2.0,5.0,73,0.00,,---,0.00,VWS V14.01,2013-09-22 12:44:00,
2013-09-22 08:45:00,54.4,47.0,30.00,ENE,64,5.0,5.0,76,0.00,,---,0.00,VWS V14.01,2013-09-22 12:45:00,
2013-09-22 08:46:00,54.3,46.2,30.00,NNE,14,4.0,6.0,74,0.00,,---,0.00,VWS V14.01,2013-09-22 12:46:00,
2013-09-22 08:47:00,54.3,46.2,30.01,NE,47,2.0,6.0,74,0.00,,---,0.00,VWS V14.01,2013-09-22 12:47:00,
2013-09-22 08:48:00,54.4,46.3,30.01,NE,42,4.0,6.0,74,0.00,,---,0.00,VWS V14.01,2013-09-22 12:48:00,
2013-09-22 08:49:00,54.4,45.9,30.01,NE,40,1.0,6.0,73,0.00,,---,0.00,VWS V14.01,2013-09-22 12:49:00,
2013-09-22 08:50:00,54.3,46.2,30.00,NNE,30,1.0,5.0,74,0.00,,---,0.00,VWS V14.01,2013-09-22 12:50:00,
2013-09-22 08:51:00,54.4,46.3,30.01,North,4,4.0,6.0,74,0.00,,---,0.00,VWS V14.01,2013-09-22 12:51:00,
2013-09-22 08:52:00,54.4,45.9,30.01,NE,36,2.0,6.0,73,0.00,,---,0.00,VWS V14.01,2013-09-22 12:52:00,
2013-09-22 08:53:00,54.4,45.9,30.01,NE,52,5.0,6.0,73,0.00,,---,0.00,VWS V14.01,2013-09-22 12:53:00,
2013-09-22 08:54:00,54.4,45.9,30.01,NE,51,3.0,6.0,73,0.00,,---,0.00,VWS V14.01,2013-09-22 12:54:00,
2013-09-22 08:55:00,54.3,45.8,30.00,NE,38,2.0,6.0,73,0.00,,---,0.00,VWS V14.01,2013-09-22 12:55:00,
2013-09-22 08:56:00,54.4,45.9,30.01,ENE,60,8.0,9.0,73,0.00,,---,0.00,VWS V14.01,2013-09-22 12:56:00,
2013-09-22 08:57:00,54.4,44.8,30.01,ENE,63,4.0,9.0,70,0.00,,---,0.00,VWS V14.01,2013-09-22 12:57:00,
2013-09-22 08:58:00,54.4,44.8,30.01,ENE,66,3.0,9.0,70,0.00,,---,0.00,VWS V14.01,2013-09-22 12:58:00,
2013-09-22 08:59:00,54.4,45.2,30.01,East,82,8.0,9.0,71,0.00,,---,0.00,VWS V14.01,2013-09-22 12:59:00,
2013-09-22 09:00:00,54.4,46.3,30.01,NE,53,4.0,6.0,74,0.00,,---,0.00,VWS V14.01,2013-09-22 13:00:00,
2013-09-22 09:01:00,54.5,46.0,30.01,ENE,61,4.0,8.0,73,0.00,,---,0.00,VWS V14.01,2013-09-22 13:01:00,
2013-09-22 09:02:00,54.5,46.0,30.01,ENE,77,8.0,9.0,73,0.00,,---,0.00,VWS V14.01,2013-09-22 13:02:00,
2013-09-22 09:03:00,54.5,45.3,30.01,ENE,73,7.0,9.0,71,0.00,,---,0.00,VWS V14.01,2013-09-22 13:03:00,
2013-09-22 09:04:00,54.5,44.5,30.01,NE,50,4.0,9.0,69,0.00,,---,0.00,VWS V14.01,2013-09-22 13:04:00,
2013-09-22 09:05:00,54.4,45.9,30.01,ENE,66,7.0,7.0,73,0.00,,---,0.00,VWS V14.01,2013-09-22 13:05:00,
2013-09-22 09:06:00,54.5,44.5,30.02,NE,48,7.0,9.0,69,0.00,,---,0.00,VWS V14.01,2013-09-22 13:06:00,
2013-09-22 09:07:00,54.5,44.5,30.01,NE,46,5.0,9.0,69,0.00,,---,0.00,VWS V14.01,2013-09-22 13:07:00,
2013-09-22 09:08:00,54.5,44.2,30.01,ENE,69,9.0,9.0,68,0.00,,---,0.00,VWS V14.01,2013-09-22 13:08:00,
2013-09-22 09:09:00,54.5,44.5,30.02,ENE,64,8.0,10.0,69,0.00,,---,0.00,VWS V14.01,2013-09-22 13:09:00,
2013-09-22 09:10:00,54.5,46.0,30.01,ENE,68,7.0,8.0,73,0.00,,---,0.00,VWS V14.01,2013-09-22 13:10:00,
2013-09-22 09:11:00,54.6,44.3,30.02,ENE,63,7.0,10.0,68,0.00,,---,0.00,VWS V14.01,2013-09-22 13:11:00,
2013-09-22 09:12:00,54.6,44.7,30.02,ENE,62,11.0,11.0,69,0.00,,---,0.00,VWS V14.01,2013-09-22 13:12:00,
2013-09-22 09:13:00,54.6,45.0,30.02,NE,44,7.0,11.0,70,0.00,,---,0.00,VWS V14.01,2013-09-22 13:13:00,
2013-09-22 09:14:00,54.6,43.5,30.02,East,85,8.0,11.0,66,0.00,,---,0.00,VWS V14.01,2013-09-22 13:14:00,
2013-09-22 09:15:00,54.5,44.5,30.02,ENE,59,8.0,9.0,69,0.00,,---,0.00,VWS V14.01,2013-09-22 13:15:00,
2013-09-22 09:16:00,54.6,43.9,30.02,ENE,66,8.0,11.0,67,0.00,,---,0.00,VWS V14.01,2013-09-22 13:16:00,
2013-09-22 09:17:00,54.7,45.1,30.02,ENE,62,8.0,11.0,70,0.00,,---,0.00,VWS V14.01,2013-09-22 13:17:00,
2013-09-22 09:18:00,54.8,45.2,30.02,ENE,68,7.0,11.0,70,0.00,,---,0.00,VWS V14.01,2013-09-22 13:18:00,
2013-09-22 09:19:00,54.8,44.1,30.02,NE,39,6.0,11.0,67,0.00,,---,0.00,VWS V14.01,2013-09-22 13:19:00,
2013-09-22 09:20:00,54.6,44.3,30.02,ENE,64,9.0,10.0,68,0.00,,---,0.00,VWS V14.01,2013-09-22 13:20:00,
2013-09-22 09:21:00,54.8,44.5,30.02,ENE,71,10.0,11.0,68,0.00,,---,0.00,VWS V14.01,2013-09-22 13:21:00,
2013-09-22 09:22:00,54.9,44.5,30.02,NE,48,4.0,12.0,68,0.00,,---,0.00,VWS V14.01,2013-09-22 13:22:00,
2013-09-22 09:23:00,54.9,44.9,30.02,NE,45,4.0,12.0,69,0.00,,---,0.00,VWS V14.01,2013-09-22 13:23:00,
2013-09-22 09:24:00,54.9,44.2,30.02,East,79,10.0,13.0,67,0.00,,---,0.00,VWS V14.01,2013-09-22 13:24:00,
2013-09-22 09:25:00,54.6,43.5,30.02,NE,55,5.0,11.0,66,0.00,,---,0.00,VWS V14.01,2013-09-22 13:25:00,
2013-09-22 09:26:00,54.9,44.2,30.02,NE,43,9.0,13.0,67,0.00,,---,0.00,VWS V14.01,2013-09-22 13:26:00,
2013-09-22 09:27:00,54.8,43.7,30.02,East,79,10.0,13.0,66,0.00,,---,0.00,VWS V14.01,2013-09-22 13:27:00,
2013-09-22 09:28:00,54.8,43.7,30.02,NE,50,8.0,13.0,66,0.00,,---,0.00,VWS V14.01,2013-09-22 13:28:00,
2013-09-22 09:29:00,54.9,44.9,30.02,NE,50,7.0,13.0,69,0.00,,---,0.00,VWS V14.01,2013-09-22 13:29:00,
2013-09-22 09:30:00,54.8,44.5,30.02,NE,41,3.0,11.0,68,0.00,,---,0.00,VWS V14.01,2013-09-22 13:30:00,
2013-09-22 09:31:00,55.0,44.7,30.02,NE,45,7.0,10.0,68,0.00,,---,0.00,VWS V14.01,2013-09-22 13:31:00,
2013-09-22 09:32:00,55.0,44.3,30.02,East,82,10.0,10.0,67,0.00,,---,0.00,VWS V14.01,2013-09-22 13:32:00,
2013-09-22 09:33:00,55.0,44.3,30.02,East,85,10.0,11.0,67,0.00,,---,0.00,VWS V14.01,2013-09-22 13:33:00,
2013-09-22 09:34:00,55.0,44.3,30.02,East,100,10.0,13.0,67,0.00,,---,0.00,VWS V14.01,2013-09-22 13:34:00,
2013-09-22 09:35:00,54.9,43.8,30.02,ENE,72,9.0,13.0,66,0.00,,---,0.00,VWS V14.01,2013-09-22 13:35:00,
2013-09-22 09:36:00,55.0,43.5,30.02,ENE,72,7.0,13.0,65,0.00,,---,0.00,VWS V14.01,2013-09-22 13:36:00,
2013-09-22 09:37:00,54.9,43.0,30.02,ENE,70,11.0,13.0,64,0.00,,---,0.00,VWS V14.01,2013-09-22 13:37:00,
2013-09-22 09:38:00,54.9,44.2,30.02,ENE,60,10.0,13.0,67,0.00,,---,0.00,VWS V14.01,2013-09-22 13:38:00,
2013-09-22 09:39:00,54.9,44.2,30.02,NE,45,8.0,13.0,67,0.00,,---,0.00,VWS V14.01,2013-09-22 13:39:00,
2013-09-22 09:40:00,54.9,44.5,30.02,North,11,4.0,10.0,68,0.00,,---,0.00,VWS V14.01,2013-09-22 13:40:00,
2013-09-22 09:41:00,55.0,45.4,30.02,ENE,65,4.0,13.0,70,0.00,,---,0.00,VWS V14.01,2013-09-22 13:41:00,
2013-09-22 09:42:00,55.0,43.5,30.02,NE,44,4.0,13.0,65,0.00,,---,0.00,VWS V14.01,2013-09-22 13:42:00,
2013-09-22 09:43:00,55.0,43.9,30.02,East,93,10.0,13.0,66,0.00,,---,0.00,VWS V14.01,2013-09-22 13:43:00,
2013-09-22 09:44:00,55.0,44.3,30.02,ESE,103,7.0,13.0,67,0.00,,---,0.00,VWS V14.01,2013-09-22 13:44:00,
2013-09-22 09:45:00,55.0,43.5,30.02,ENE,67,9.0,13.0,65,0.00,,---,0.00,VWS V14.01,2013-09-22 13:45:00,
2013-09-22 09:46:00,55.0,43.5,30.02,East,88,8.0,13.0,65,0.00,,---,0.00,VWS V14.01,2013-09-22 13:46:00,
2013-09-22 09:47:00,55.0,43.9,30.02,East,91,6.0,13.0,66,0.00,,---,0.00,VWS V14.01,2013-09-22 13:47:00,
2013-09-22 09:48:00,55.0,44.3,30.02,ENE,62,9.0,13.0,67,0.00,,---,0.00,VWS V14.01,2013-09-22 13:48:00,
2013-09-22 09:49:00,55.1,44.7,30.02,NE,39,4.0,13.0,68,0.00,,---,0.00,VWS V14.01,2013-09-22 13:49:00,
2013-09-22 09:50:00,55.0,45.4,30.02,NE,55,12.0,13.0,70,0.00,,---,0.00,VWS V14.01,2013-09-22 13:50:00,
2013-09-22 09:51:00,55.2,44.0,30.02,ENE,73,5.0,13.0,66,0.00,,---,0.00,VWS V14.01,2013-09-22 13:51:00,
2013-09-22 09:52:00,55.3,44.9,30.02,ESE,104,8.0,13.0,68,0.00,,---,0.00,VWS V14.01,2013-09-22 13:52:00,
2013-09-22 09:53:00,55.3,45.3,30.02,East,89,9.0,13.0,69,0.00,,---,0.00,VWS V14.01,2013-09-22 13:53:00,
2013-09-22 09:54:00,55.3,44.9,30.02,East,83,7.0,13.0,68,0.00,,---,0.00,VWS V14.01,2013-09-22 13:54:00,
2013-09-22 09:55:00,55.0,43.5,30.02,East,79,6.0,13.0,65,0.00,,---,0.00,VWS V14.01,2013-09-22 13:55:00,
2013-09-22 09:56:00,55.3,44.2,30.02,East,79,6.0,13.0,66,0.00,,---,0.00,VWS V14.01,2013-09-22 13:56:00,
2013-09-22 09:57:00,55.3,44.2,30.03,East,87,6.0,13.0,66,0.00,,---,0.00,VWS V14.01,2013-09-22 13:57:00,
2013-09-22 09:58:00,55.4,44.2,30.03,NE,45,6.0,13.0,66,0.00,,---,0.00,VWS V14.01,2013-09-22 13:58:00,
2013-09-22 09:59:00,55.4,45.0,30.03,NE,41,3.0,13.0,68,0.00,,---,0.00,VWS V14.01,2013-09-22 13:59:00,
2013-09-22 10:00:00,55.2,44.0,30.02,ESE,109,7.0,13.0,66,0.00,,---,0.00,VWS V14.01,2013-09-22 14:00:00,
2013-09-22 10:01:00,55.4,43.8,30.03,ENE,77,5.0,10.0,65,0.00,,---,0.00,VWS V14.01,2013-09-22 14:01:00,
2013-09-22 10:02:00,55.4,44.6,30.03,ESE,107,5.0,10.0,67,0.00,,---,0.00,VWS V14.01,2013-09-22 14:02:00,
2013-09-22 10:03:00,55.4,44.2,30.03,NE,45,4.0,10.0,66,0.00,,---,0.00,VWS V14.01,2013-09-22 14:03:00,
2013-09-22 10:04:00,55.4,43.8,30.03,ENE,58,4.0,10.0,65,0.00,,---,0.00,VWS V14.01,2013-09-22 14:04:00,
2013-09-22 10:05:00,55.3,44.2,30.02,ENE,75,4.0,13.0,66,0.00,,---,0.00,VWS V14.01,2013-09-22 14:05:00,
2013-09-22 10:06:00,55.5,45.1,30.03,East,92,7.0,10.0,68,0.00,,---,0.00,VWS V14.01,2013-09-22 14:06:00,
2013-09-22 10:07:00,55.5,44.7,30.03,NE,54,2.0,10.0,67,0.00,,---,0.00,VWS V14.01,2013-09-22 14:07:00,
2013-09-22 10:08:00,55.6,45.6,30.03,NE,50,6.0,10.0,69,0.00,,---,0.00,VWS V14.01,2013-09-22 14:08:00,
2013-09-22 10:09:00,55.7,44.1,30.03,NE,39,5.0,10.0,65,0.00,,---,0.00,VWS V14.01,2013-09-22 14:09:00,
2013-09-22 10:10:00,55.4,44.2,30.03,East,81,7.0,10.0,66,0.00,,---,0.00,VWS V14.01,2013-09-22 14:10:00,
2013-09-22 10:11:00,55.7,43.7,30.03,NE,35,5.0,10.0,64,0.00,,---,0.00,VWS V14.01,2013-09-22 14:11:00,
2013-09-22 10:12:00,55.7,43.7,30.03,NNE,26,5.0,10.0,64,0.00,,---,0.00,VWS V14.01,2013-09-22 14:12:00,
2013-09-22 10:13:00,55.7,44.1,30.03,ENE,70,5.0,10.0,65,0.00,,---,0.00,VWS V14.01,2013-09-22 14:13:00,
2013-09-22 10:14:00,55.8,44.6,30.03,ENE,73,9.0,10.0,66,0.00,,---,0.00,VWS V14.01,2013-09-22 14:14:00,
2013-09-22 10:15:00,55.5,45.1,30.03,East,91,7.0,10.0,68,0.00,,---,0.00,VWS V14.01,2013-09-22 14:15:00,
2013-09-22 10:16:00,55.8,44.2,30.03,ENE,66,14.0,17.0,65,0.00,,---,0.00,VWS V14.01,2013-09-22 14:16:00,
2013-09-22 10:17:00,55.8,43.8,30.03,ENE,70,10.0,17.0,64,0.00,,---,0.00,VWS V14.01,2013-09-22 14:17:00,
2013-09-22 10:18:00,55.7,43.3,30.03,NE,42,5.0,17.0,63,0.00,,---,0.00,VWS V14.01,2013-09-22 14:18:00,
2013-09-22 10:19:00,55.7,44.1,30.03,East,79,10.0,17.0,65,0.00,,---,0.00,VWS V14.01,2013-09-22 14:19:00,
2013-09-22 10:20:00,55.7,43.7,30.03,NE,39,3.0,10.0,64,0.00,,---,0.00,VWS V14.01,2013-09-22 14:20:00,
2013-09-22 10:21:00,55.7,43.7,30.03,East,95,7.0,17.0,64,0.00,,---,0.00,VWS V14.01,2013-09-22 14:21:00,
2013-09-22 10:22:00,55.7,43.7,30.03,East,89,7.0,17.0,64,0.00,,---,0.00,VWS V14.01,2013-09-22 14:22:00,
2013-09-22 10:23:00,55.7,43.7,30.03,East,81,5.0,17.0,64,0.00,,---,0.00,VWS V14.01,2013-09-22 14:23:00,
2013-09-22 10:24:00,55.8,43.8,30.03,East,89,3.0,17.0,64,0.00,,---,0.00,VWS V14.01,2013-09-22 14:24:00,
2013-09-22 10:25:00,55.8,44.2,30.03,East,82,14.0,17.0,65,0.00,,---,0.00,VWS V14.01,2013-09-22 14:25:00,
2013-09-22 10:26:00,55.8,44.2,30.03,ENE,57,2.0,17.0,65,0.00,,---,0.00,VWS V14.01,2013-09-22 14:26:00,
2013-09-22 10:27:00,55.9,44.7,30.03,ENE,66,7.0,17.0,66,0.00,,---,0.00,VWS V14.01,2013-09-22 14:27:00,
2013-09-22 10:28:00,56.0,44.8,30.03,ENE,64,7.0,17.0,66,0.00,,---,0.00,VWS V14.01,2013-09-22 14:28:00,
2013-09-22 10:29:00,56.0,44.8,30.03,ENE,59,5.0,17.0,66,0.00,,---,0.00,VWS V14.01,2013-09-22 14:29:00,
2013-09-22 10:30:00,55.7,43.7,30.03,East,93,7.0,17.0,64,0.00,,---,0.00,VWS V14.01,2013-09-22 14:30:00,
2013-09-22 10:31:00,56.0,44.0,30.03,ENE,75,12.0,12.0,64,0.00,,---,0.00,VWS V14.01,2013-09-22 14:31:00,
2013-09-22 10:32:00,56.1,44.9,30.03,East,80,14.0,15.0,66,0.00,,---,0.00,VWS V14.01,2013-09-22 14:32:00,
2013-09-22 10:33:00,56.2,45.4,30.03,North,354,9.0,17.0,67,0.00,,---,0.00,VWS V14.01,2013-09-22 14:33:00,
2013-09-22 10:34:00,56.3,44.7,30.03,NE,40,4.0,17.0,65,0.00,,---,0.00,VWS V14.01,2013-09-22 14:34:00,
2013-09-22 10:35:00,55.8,43.8,30.03,ENE,68,3.0,17.0,64,0.00,,---,0.00,VWS V14.01,2013-09-22 14:35:00,
2013-09-22 10:36:00,56.4,44.0,30.03,North,9,9.0,17.0,63,0.00,,---,0.00,VWS V14.01,2013-09-22 14:36:00,
2013-09-22 10:37:00,56.4,44.4,30.03,NE,38,7.0,17.0,64,0.00,,---,0.00,VWS V14.01,2013-09-22 14:37:00,
2013-09-22 10:38:00,56.3,43.9,30.03,North,11,4.0,17.0,63,0.00,,---,0.00,VWS V14.01,2013-09-22 14:38:00,
2013-09-22 10:39:00,56.3,44.3,30.03,NNE,25,8.0,17.0,64,0.00,,---,0.00,VWS V14.01,2013-09-22 14:39:00,
2013-09-22 10:40:00,56.1,44.5,30.03,ENE,64,9.0,12.0,65,0.00,,---,0.00,VWS V14.01,2013-09-22 14:40:00,
2013-09-22 10:41:00,56.4,44.0,30.03,NE,49,11.0,17.0,63,0.00,,---,0.00,VWS V14.01,2013-09-22 14:41:00,
2013-09-22 10:42:00,56.4,44.4,30.03,NE,35,7.0,17.0,64,0.00,,---,0.00,VWS V14.01,2013-09-22 14:42:00,
2013-09-22 10:43:00,56.4,45.2,30.03,NE,37,2.0,17.0,66,0.00,,---,0.00,VWS V14.01,2013-09-22 14:43:00,
2013-09-22 10:44:00,56.6,45.4,30.03,NE,50,6.0,17.0,66,0.00,,---,0.00,VWS V14.01,2013-09-22 14:44:00,
2013-09-22 10:45:00,56.4,44.8,30.03,NE,39,10.0,17.0,65,0.00,,---,0.00,VWS V14.01,2013-09-22 14:45:00,
2013-09-22 10:46:00,56.6,45.0,30.03,NE,36,6.0,17.0,65,0.00,,---,0.00,VWS V14.01,2013-09-22 14:46:00,
2013-09-22 10:47:00,56.6,44.2,30.03,NE,45,4.0,17.0,63,0.00,,---,0.00,VWS V14.01,2013-09-22 14:47:00,
2013-09-22 10:48:00,56.6,43.8,30.03,NE,39,2.0,17.0,62,0.00,,---,0.00,VWS V14.01,2013-09-22 14:48:00,
2013-09-22 10:49:00,56.6,44.2,30.03,ENE,58,3.0,17.0,63,0.00,,---,0.00,VWS V14.01,2013-09-22 14:49:00,
2013-09-22 10:50:00,56.4,44.0,30.03,NE,36,9.0,17.0,63,0.00,,---,0.00,VWS V14.01,2013-09-22 14:50:00,
2013-09-22 10:51:00,56.7,44.7,30.03,NE,49,2.0,17.0,64,0.00,,---,0.00,VWS V14.01,2013-09-22 14:51:00,
2013-09-22 10:52:00,56.7,44.3,30.03,NE,41,2.0,17.0,63,0.00,,---,0.00,VWS V14.01,2013-09-22 14:52:00,
2013-09-22 10:53:00,56.8,45.2,30.03,NNE,29,4.0,17.0,65,0.00,,---,0.00,VWS V14.01,2013-09-22 14:53:00,
2013-09-22 10:54:00,56.8,44.3,30.03,NNW,345,7.0,17.0,63,0.00,,---,0.00,VWS V14.01,2013-09-22 14:54:00,
2013-09-22 10:55:00,56.6,45.0,30.03,NE,56,5.0,17.0,65,0.00,,---,0.00,VWS V14.01,2013-09-22 14:55:00,
2013-09-22 10:56:00,57.1,45.0,30.03,North,4,2.0,17.0,64,0.00,,---,0.00,VWS V14.01,2013-09-22 14:56:00,
2013-09-22 10:57:00,57.1,45.0,30.03,North,354,6.0,17.0,64,0.00,,---,0.00,VWS V14.01,2013-09-22 14:57:00,
2013-09-22 10:58:00,57.2,44.3,30.03,NE,38,5.0,17.0,62,0.00,,---,0.00,VWS V14.01,2013-09-22 14:58:00,
2013-09-22 10:59:00,57.3,45.2,30.03,ENE,58,12.0,17.0,64,0.00,,---,0.00,VWS V14.01,2013-09-22 14:59:00,
2013-09-22 11:00:00,56.7,44.7,30.03,NNE,33,3.0,17.0,64,0.00,,---,0.00,VWS V14.01,2013-09-22 15:00:00,
2013-09-22 11:01:00,57.2,44.7,30.03,NE,40,10.0,15.0,63,0.00,,---,0.00,VWS V14.01,2013-09-22 15:01:00,
2013-09-22 11:02:00,57.1,43.8,30.04,NNE,28,3.0,15.0,61,0.00,,---,0.00,VWS V14.01,2013-09-22 15:02:00,
2013-09-22 11:03:00,57.0,44.1,30.03,NNE,24,4.0,15.0,62,0.00,,---,0.00,VWS V14.01,2013-09-22 15:03:00,
2013-09-22 11:04:00,57.0,44.5,30.03,NE,53,3.0,15.0,63,0.00,,---,0.00,VWS V14.01,2013-09-22 15:04:00,
2013-09-22 11:05:00,57.0,45.0,30.03,NNW,332,9.0,17.0,64,0.00,,---,0.00,VWS V14.01,2013-09-22 15:05:00,
2013-09-22 11:06:00,57.1,44.6,30.03,NE,45,4.0,15.0,63,0.00,,---,0.00,VWS V14.01,2013-09-22 15:06:00,
2013-09-22 11:07:00,57.2,44.3,30.04,NE,47,0.0,15.0,62,0.00,,---,0.00,VWS V14.01,2013-09-22 15:07:00,
2013-09-22 11:08:00,57.2,45.2,30.04,North,10,7.0,15.0,64,0.00,,---,0.00,VWS V14.01,2013-09-22 15:08:00,
2013-09-22 11:09:00,57.2,43.9,30.04,North,354,3.0,15.0,61,0.00,,---,0.00,VWS V14.01,2013-09-22 15:09:00,
2013-09-22 11:10:00,57.2,44.3,30.03,NE,51,11.0,15.0,62,0.00,,---,0.00,VWS V14.01,2013-09-22 15:10:00,
2013-09-22 11:11:00,57.1,44.6,30.04,NNW,347,0.0,15.0,63,0.00,,---,0.00,VWS V14.01,2013-09-22 15:11:00,
2013-09-22 11:12:00,57.2,45.2,30.04,ENE,67,11.0,15.0,64,0.00,,---,0.00,VWS V14.01,2013-09-22 15:12:00,
2013-09-22 11:13:00,57.3,44.4,30.04,ENE,61,7.0,15.0,62,0.00,,---,0.00,VWS V14.01,2013-09-22 15:13:00,
2013-09-22 11:14:00,57.3,45.2,30.03,NE,52,8.0,15.0,64,0.00,,---,0.00,VWS V14.01,2013-09-22 15:14:00,
2013-09-22 11:15:00,57.1,44.6,30.03,NE,52,4.0,15.0,63,0.00,,---,0.00,VWS V14.01,2013-09-22 15:15:00,
2013-09-22 11:16:00,57.2,44.3,30.03,ENE,57,9.0,17.0,62,0.00,,---,0.00,VWS V14.01,2013-09-22 15:16:00,
2013-09-22 11:17:00,57.2,44.3,30.03,NE,52,7.0,17.0,62,0.00,,---,0.00,VWS V14.01,2013-09-22 15:17:00,
2013-09-22 11:18:00,57.1,44.2,30.03,NNE,25,6.0,17.0,62,0.00,,---,0.00,VWS V14.01,2013-09-22 15:18:00,
2013-09-22 11:19:00,57.1,45.5,30.03,ENE,70,8.0,17.0,65,0.00,,---,0.00,VWS V14.01,2013-09-22 15:19:00,
2013-09-22 11:20:00,57.2,44.7,30.04,NNW,347,2.0,15.0,63,0.00,,---,0.00,VWS V14.01,2013-09-22 15:20:00,
2013-09-22 11:21:00,57.2,44.7,30.03,ENE,66,11.0,17.0,63,0.00,,---,0.00,VWS V14.01,2013-09-22 15:21:00,
2013-09-22 11:22:00,57.1,44.6,30.03,NE,54,7.0,17.0,63,0.00,,---,0.00,VWS V14.01,2013-09-22 15:22:00,
2013-09-22 11:23:00,57.1,45.0,30.03,ENE,66,13.0,17.0,64,0.00,,---,0.00,VWS V14.01,2013-09-22 15:23:00,
2013-09-22 11:24:00,57.1,45.0,30.03,NE,35,8.0,17.0,64,0.00,,---,0.00,VWS V14.01,2013-09-22 15:24:00,
2013-09-22 11:25:00,57.2,44.3,30.04,ENE,68,10.0,17.0,62,0.00,,---,0.00,VWS V14.01,2013-09-22 15:25:00,
2013-09-22 11:26:00,57.1,45.0,30.03,NE,53,5.0,17.0,64,0.00,,---,0.00,VWS V14.01,2013-09-22 15:26:00,
2013-09-22 11:27:00,57.1,44.6,30.03,NE,43,4.0,17.0,63,0.00,,---,0.00,VWS V14.01,2013-09-22 15:27:00,
2013-09-22 11:28:00,57.1,45.0,30.03,NNE,18,10.0,17.0,64,0.00,,---,0.00,VWS V14.01,2013-09-22 15:28:00,
2013-09-22 11:29:00,57.1,45.0,30.03,NNE,16,7.0,17.0,64,0.00,,---,0.00,VWS V14.01,2013-09-22 15:29:00,
2013-09-22 11:30:00,57.2,44.7,30.03,ENE,73,11.0,17.0,63,0.00,,---,0.00,VWS V14.01,2013-09-22 15:30:00,
2013-09-22 11:31:00,57.1,44.2,30.03,NE,55,6.0,9.0,62,0.00,,---,0.00,VWS V14.01,2013-09-22 15:31:00,
2013-09-22 11:32:00,57.1,45.5,30.03,ENE,66,12.0,13.0,65,0.00,,---,0.00,VWS V14.01,2013-09-22 15:32:00,
2013-09-22 11:33:00,57.1,44.6,30.03,ENE,64,8.0,13.0,63,0.00,,---,0.00,VWS V14.01,2013-09-22 15:33:00,
2013-09-22 11:34:00,57.0,44.1,30.03,ENE,66,1.0,13.0,62,0.00,,---,0.00,VWS V14.01,2013-09-22 15:34:00,
2013-09-22 11:35:00,57.1,45.0,30.03,NE,55,9.0,17.0,64,0.00,,---,0.00,VWS V14.01,2013-09-22 15:35:00,
2013-09-22 11:36:00,57.1,45.9,30.04,ENE,62,4.0,13.0,66,0.00,,---,0.00,VWS V14.01,2013-09-22 15:36:00,
2013-09-22 11:37:00,57.1,45.0,30.03,NNE,29,3.0,13.0,64,0.00,,---,0.00,VWS V14.01,2013-09-22 15:37:00,
2013-09-22 11:38:00,57.2,46.0,30.04,NE,56,5.0,13.0,66,0.00,,---,0.00,VWS V14.01,2013-09-22 15:38:00,
2013-09-22 11:39:00,57.3,46.5,30.03,NE,43,5.0,13.0,67,0.00,,---,0.00,VWS V14.01,2013-09-22 15:39:00,
2013-09-22 11:40:00,57.1,44.2,30.03,NE,39,5.0,8.0,62,0.00,,---,0.00,VWS V14.01,2013-09-22 15:40:00,
2013-09-22 11:41:00,57.5,45.4,30.04,ENE,64,7.0,13.0,64,0.00,,---,0.00,VWS V14.01,2013-09-22 15:41:00,
2013-09-22 11:42:00,57.6,45.5,30.04,ENE,63,9.0,13.0,64,0.00,,---,0.00,VWS V14.01,2013-09-22 15:42:00,
2013-09-22 11:43:00,57.7,45.2,30.03,NE,41,1.0,13.0,63,0.00,,---,0.00,VWS V14.01,2013-09-22 15:43:00,
2013-09-22 11:44:00,57.7,44.8,30.04,NE,43,5.0,13.0,62,0.00,,---,0.00,VWS V14.01,2013-09-22 15:44:00,
2013-09-22 11:45:00,57.0,44.5,30.04,ENE,64,7.0,13.0,63,0.00,,---,0.00,VWS V14.01,2013-09-22 15:45:00,
2013-09-22 11:46:00,57.7,45.2,30.04,NE,34,7.0,13.0,63,0.00,,---,0.00,VWS V14.01,2013-09-22 15:46:00,
2013-09-22 11:47:00,57.8,45.7,30.04,NE,35,5.0,13.0,64,0.00,,---,0.00,VWS V14.01,2013-09-22 15:47:00,
2013-09-22 11:48:00,57.8,45.3,30.04,NE,53,6.0,13.0,63,0.00,,---,0.00,VWS V14.01,2013-09-22 15:48:00,
2013-09-22 11:49:00,57.8,45.7,30.03,ENE,60,4.0,13.0,64,0.00,,---,0.00,VWS V14.01,2013-09-22 15:49:00,
2013-09-22 11:50:00,57.5,45.8,30.04,NNE,29,6.0,13.0,65,0.00,,---,0.00,VWS V14.01,2013-09-22 15:50:00,
2013-09-22 11:51:00,57.9,45.0,30.03,NNE,28,2.0,13.0,62,0.00,,---,0.00,VWS V14.01,2013-09-22 15:51:00,
2013-09-22 11:52:00,58.0,46.7,30.03,NE,36,2.0,13.0,66,0.00,,---,0.00,VWS V14.01,2013-09-22 15:52:00,
2013-09-22 11:53:00,58.0,45.1,30.03,NNE,33,6.0,13.0,62,0.00,,---,0.00,VWS V14.01,2013-09-22 15:53:00,
2013-09-22 11:54:00,58.0,45.1,30.03,NNE,25,3.0,13.0,62,0.00,,---,0.00,VWS V14.01,2013-09-22 15:54:00,
2013-09-22 11:55:00,57.7,45.2,30.04,NNW,330,6.0,13.0,63,0.00,,---,0.00,VWS V14.01,2013-09-22 15:55:00,
2013-09-22 11:56:00,58.0,45.9,30.03,North,9,2.0,13.0,64,0.00,,---,0.00,VWS V14.01,2013-09-22 15:56:00,
2013-09-22 11:57:00,58.0,45.5,30.03,NNE,27,2.0,13.0,63,0.00,,---,0.00,VWS V14.01,2013-09-22 15:57:00,
2013-09-22 11:58:00,58.0,45.5,30.03,ENE,61,5.0,13.0,63,0.00,,---,0.00,VWS V14.01,2013-09-22 15:58:00,
2013-09-22 11:59:00,58.0,45.9,30.03,NE,43,2.0,13.0,64,0.00,,---,0.00,VWS V14.01,2013-09-22 15:59:00,
2013-09-22 12:00:00,57.9,45.0,30.03,NW,314,1.0,13.0,62,0.00,,---,0.00,VWS V14.01,2013-09-22 16:00:00,
2013-09-22 12:01:00,58.1,45.6,30.03,NE,49,11.0,11.0,63,0.00,,---,0.00,VWS V14.01,2013-09-22 16:01:00,
2013-09-22 12:02:00,58.1,45.2,30.03,NNW,342,4.0,11.0,62,0.00,,---,0.00,VWS V14.01,2013-09-22 16:02:00,
2013-09-22 12:03:00,58.2,45.7,30.03,NNE,27,3.0,11.0,63,0.00,,---,0.00,VWS V14.01,2013-09-22 16:03:00,
2013-09-22 12:04:00,58.3,45.3,30.04,NNE,27,6.0,11.0,62,0.00,,---,0.00,VWS V14.01,2013-09-22 16:04:00,
2013-09-22 12:05:00,58.0,45.9,30.03,NNE,14,5.0,13.0,64,0.00,,---,0.00,VWS V14.01,2013-09-22 16:05:00,
2013-09-22 12:06:00,58.4,46.3,30.03,NE,36,9.0,11.0,64,0.00,,---,0.00,VWS V14.01,2013-09-22 16:06:00,
2013-09-22 12:07:00,58.5,46.0,30.04,NNE,33,3.0,11.0,63,0.00,,---,0.00,VWS V14.01,2013-09-22 16:07:00,
2013-09-22 12:08:00,58.6,46.1,30.03,NE,47,3.0,11.0,63,0.00,,---,0.00,VWS V14.01,2013-09-22 16:08:00,
2013-09-22 12:09:00,58.6,45.2,30.03,NNE,26,4.0,11.0,61,0.00,,---,0.00,VWS V14.01,2013-09-22 16:09:00,
2013-09-22 12:10:00,58.1,45.6,30.03,NE,36,11.0,11.0,63,0.00,,---,0.00,VWS V14.01,2013-09-22 16:10:00,
2013-09-22 12:11:00,58.6,46.1,30.03,NNE,31,1.0,11.0,63,0.00,,---,0.00,VWS V14.01,2013-09-22 16:11:00,
2013-09-22 12:12:00,58.6,46.1,30.03,NE,37,1.0,11.0,63,0.00,,---,0.00,VWS V14.01,2013-09-22 16:12:00,
2013-09-22 12:13:00,58.6,46.9,30.03,NE,56,0.0,11.0,65,0.00,,---,0.00,VWS V14.01,2013-09-22 16:13:00,
2013-09-22 12:14:00,58.7,47.4,30.03,WNW,297,3.0,11.0,66,0.00,,---,0.00,VWS V14.01,2013-09-22 16:14:00,
2013-09-22 12:15:00,58.4,46.3,30.03,NE,43,8.0,11.0,64,0.00,,---,0.00,VWS V14.01,2013-09-22 16:15:00,
2013-09-22 12:16:00,58.9,47.6,30.03,NE,39,3.0,11.0,66,0.00,,---,0.00,VWS V14.01,2013-09-22 16:16:00,
2013-09-22 12:17:00,58.9,47.2,30.03,NNE,28,3.0,11.0,65,0.00,,---,0.00,VWS V14.01,2013-09-22 16:17:00,
2013-09-22 12:18:00,58.9,46.3,30.03,NNE,17,2.0,11.0,63,0.00,,---,0.00,VWS V14.01,2013-09-22 16:18:00,
2013-09-22 12:19:00,58.9,46.3,30.03,NNE,22,5.0,11.0,63,0.00,,---,0.00,VWS V14.01,2013-09-22 16:19:00,
2013-09-22 12:20:00,58.6,45.6,30.03,NE,50,1.0,11.0,62,0.00,,---,0.00,VWS V14.01,2013-09-22 16:20:00,
2013-09-22 12:21:00,58.8,45.4,30.03,NE,52,0.0,11.0,61,0.00,,---,0.00,VWS V14.01,2013-09-22 16:21:00,
2013-09-22 12:22:00,58.8,46.2,30.03,North,4,1.0,11.0,63,0.00,,---,0.00,VWS V14.01,2013-09-22 16:22:00,
2013-09-22 12:23:00,58.8,46.2,30.03,NNE,23,6.0,11.0,63,0.00,,---,0.00,VWS V14.01,2013-09-22 16:23:00,
2013-09-22 12:24:00,58.8,45.8,30.03,NNE,22,7.0,11.0,62,0.00,,---,0.00,VWS V14.01,2013-09-22 16:24:00,
2013-09-22 12:25:00,58.9,47.6,30.03,NE,44,3.0,11.0,66,0.00,,---,0.00,VWS V14.01,2013-09-22 16:25:00,
2013-09-22 12:26:00,58.6,45.6,30.03,NNE,27,6.0,13.0,62,0.00,,---,0.00,VWS V14.01,2013-09-22 16:26:00,
2013-09-22 12:27:00,58.4,45.9,30.03,NNE,14,3.0,13.0,63,0.00,,---,0.00,VWS V14.01,2013-09-22 16:27:00,
2013-09-22 12:28:00,58.4,46.3,30.03,NE,37,3.0,13.0,64,0.00,,---,0.00,VWS V14.01,2013-09-22 16:28:00,
2013-09-22 12:29:00,58.4,45.9,30.03,NNE,29,1.0,13.0,63,0.00,,---,0.00,VWS V14.01,2013-09-22 16:29:00,
2013-09-22 12:30:00,58.8,45.4,30.03,NE,52,0.0,11.0,61,0.00,,---,0.00,VWS V14.01,2013-09-22 16:30:00,
2013-09-22 12:31:00,58.4,45.9,30.03,NE,50,10.0,10.0,63,0.00,,---,0.00,VWS V14.01,2013-09-22 16:31:00,
2013-09-22 12:32:00,58.5,46.0,30.03,ENE,66,12.0,12.0,63,0.00,,---,0.00,VWS V14.01,2013-09-22 16:32:00,
2013-09-22 12:33:00,58.4,45.5,30.03,NE,41,7.0,13.0,62,0.00,,---,0.00,VWS V14.01,2013-09-22 16:33:00,
2013-09-22 12:34:00,58.4,45.0,30.03,NE,52,6.0,13.0,61,0.00,,---,0.00,VWS V14.01,2013-09-22 16:34:00,
2013-09-22 12:35:00,58.6,45.6,30.03,NE,46,3.0,13.0,62,0.00,,---,0.00,VWS V14.01,2013-09-22 16:35:00,
2013-09-22 12:36:00,58.4,45.5,30.03,ENE,78,8.0,13.0,62,0.00,,---,0.00,VWS V14.01,2013-09-22 16:36:00,
2013-09-22 12:37:00,58.4,45.5,30.03,ENE,69,5.0,13.0,62,0.00,,---,0.00,VWS V14.01,2013-09-22 16:37:00,
2013-09-22 12:38:00,58.4,45.9,30.03,ENE,77,7.0,13.0,63,0.00,,---,0.00,VWS V14.01,2013-09-22 16:38:00,
2013-09-22 12:39:00,58.4,46.3,30.03,NE,52,7.0,13.0,64,0.00,,---,0.00,VWS V14.01,2013-09-22 16:39:00,
2013-09-22 12:40:00,58.4,45.9,30.03,NE,42,6.0,8.0,63,0.00,,---,0.00,VWS V14.01,2013-09-22 16:40:00,
2013-09-22 12:41:00,58.5,46.0,30.03,NE,45,6.0,14.0,63,0.00,,---,0.00,VWS V14.01,2013-09-22 16:41:00,
2013-09-22 12:42:00,58.5,45.1,30.03,NNW,335,6.0,14.0,61,0.00,,---,0.00,VWS V14.01,2013-09-22 16:42:00,
2013-09-22 12:43:00,58.5,45.5,30.03,North,4,2.0,14.0,62,0.00,,---,0.00,VWS V14.01,2013-09-22 16:43:00,
2013-09-22 12:44:00,58.7,46.2,30.03,NNW,328,7.0,14.0,63,0.00,,---,0.00,VWS V14.01,2013-09-22 16:44:00,
2013-09-22 12:45:00,58.4,45.5,30.03,East,80,8.0,13.0,62,0.00,,---,0.00,VWS V14.01,2013-09-22 16:45:00,
2013-09-22 12:46:00,59.0,46.4,30.03,NNW,330,0.0,14.0,63,0.00,,---,0.00,VWS V14.01,2013-09-22 16:46:00,
2013-09-22 12:47:00,59.3,47.5,30.03,NE,47,4.0,14.0,65,0.00,,---,0.00,VWS V14.01,2013-09-22 16:47:00,
2013-09-22 12:48:00,59.4,47.7,30.03,NE,54,1.0,14.0,65,0.00,,---,0.00,VWS V14.01,2013-09-22 16:48:00,
2013-09-22 12:49:00,59.5,46.9,30.03,NNE,33,4.0,14.0,63,0.00,,---,0.00,VWS V14.01,2013-09-22 16:49:00,
2013-09-22 12:50:00,58.5,46.0,30.03,NE,50,9.0,14.0,63,0.00,,---,0.00,VWS V14.01,2013-09-22 16:50:00,
2013-09-22 12:51:00,59.5,46.5,30.03,ENE,77,14.0,14.0,62,0.00,,---,0.00,VWS V14.01,2013-09-22 16:51:00,
2013-09-22 12:52:00,59.4,46.4,30.03,East,81,17.0,18.0,62,0.00,,---,0.00,VWS V14.01,2013-09-22 16:52:00,
2013-09-22 12:53:00,59.2,45.3,30.03,East,100,9.0,18.0,60,0.00,,---,0.00,VWS V14.01,2013-09-22 16:53:00,
2013-09-22 12:54:00,59.1,45.2,30.03,East,94,7.0,18.0,60,0.00,,---,0.00,VWS V14.01,2013-09-22 16:54:00,
2013-09-22 12:55:00,59.0,46.4,30.03,NNE,31,2.0,14.0,63,0.00,,---,0.00,VWS V14.01,2013-09-22 16:55:00,
2013-09-22 12:56:00,58.9,45.1,30.03,NE,41,2.0,18.0,60,0.00,,---,0.00,VWS V14.01,2013-09-22 16:56:00,
2013-09-22 12:57:00,58.8,45.4,30.03,NE,43,8.0,18.0,61,0.00,,---,0.00,VWS V14.01,2013-09-22 16:57:00,
2013-09-22 12:58:00,58.8,45.0,30.03,ENE,61,9.0,18.0,60,0.00,,---,0.00,VWS V14.01,2013-09-22 16:58:00,
2013-09-22 12:59:00,58.8,44.5,30.03,NNE,24,9.0,18.0,59,0.00,,---,0.00,VWS V14.01,2013-09-22 16:59:00,
2013-09-22 13:00:00,59.5,46.5,30.03,ENE,75,13.0,14.0,62,0.00,,---,0.00,VWS V14.01,2013-09-22 17:00:00,
2013-09-22 13:01:00,58.9,45.1,30.03,North,354,3.0,12.0,60,0.00,,---,0.00,VWS V14.01,2013-09-22 17:01:00,
2013-09-22 13:02:00,58.9,44.6,30.03,NE,48,5.0,12.0,59,0.00,,---,0.00,VWS V14.01,2013-09-22 17:02:00,
2013-09-22 13:03:00,58.9,45.5,30.03,NE,41,3.0,12.0,61,0.00,,---,0.00,VWS V14.01,2013-09-22 17:03:00,
2013-09-22 13:04:00,58.9,45.1,30.03,NE,36,5.0,12.0,60,0.00,,---,0.00,VWS V14.01,2013-09-22 17:04:00,
2013-09-22 13:05:00,58.9,45.1,30.03,NE,50,4.0,18.0,60,0.00,,---,0.00,VWS V14.01,2013-09-22 17:05:00,
2013-09-22 13:06:00,58.9,45.1,30.03,ENE,68,14.0,14.0,60,0.00,,---,0.00,VWS V14.01,2013-09-22 17:06:00,
2013-09-22 13:07:00,59.0,45.2,30.03,NNE,33,5.0,14.0,60,0.00,,---,0.00,VWS V14.01,2013-09-22 17:07:00,
2013-09-22 13:08:00,59.1,46.1,30.03,NE,48,1.0,14.0,62,0.00,,---,0.00,VWS V14.01,2013-09-22 17:08:00,
2013-09-22 13:09:00,59.1,45.2,30.03,NE,37,4.0,14.0,60,0.00,,---,0.00,VWS V14.01,2013-09-22 17:09:00,
2013-09-22 13:10:00,58.9,45.1,30.03,NE,46,3.0,12.0,60,0.00,,---,0.00,VWS V14.01,2013-09-22 17:10:00,
2013-09-22 13:11:00,59.3,46.3,30.03,NE,35,9.0,14.0,62,0.00,,---,0.00,VWS V14.01,2013-09-22 17:11:00,
2013-09-22 13:12:00,59.3,45.4,30.03,NE,54,7.0,14.0,60,0.00,,---,0.00,VWS V14.01,2013-09-22 17:12:00,
2013-09-22 13:13:00,59.2,44.9,30.03,NE,49,8.0,14.0,59,0.00,,---,0.00,VWS V14.01,2013-09-22 17:13:00,
2013-09-22 13:14:00,59.1,44.8,30.03,NE,48,7.0,14.0,59,0.00,,---,0.00,VWS V14.01,2013-09-22 17:14:00,
2013-09-22 13:15:00,58.9,45.1,30.03,ENE,77,11.0,13.0,60,0.00,,---,0.00,VWS V14.01,2013-09-22 17:15:00,
2013-09-22 13:16:00,59.1,45.2,30.03,ENE,62,7.0,14.0,60,0.00,,---,0.00,VWS V14.01,2013-09-22 17:16:00,
2013-09-22 13:17:00,59.2,45.3,30.03,ENE,58,7.0,14.0,60,0.00,,---,0.00,VWS V14.01,2013-09-22 17:17:00,
2013-09-22 13:18:00,59.2,45.3,30.03,NE,41,3.0,14.0,60,0.00,,---,0.00,VWS V14.01,2013-09-22 17:18:00,
2013-09-22 13:19:00,59.3,46.3,30.03,NE,50,3.0,14.0,62,0.00,,---,0.00,VWS V14.01,2013-09-22 17:19:00,
2013-09-22 13:20:00,59.3,46.3,30.03,NE,55,3.0,14.0,62,0.00,,---,0.00,VWS V14.01,2013-09-22 17:20:00,
2013-09-22 13:21:00,59.5,46.1,30.03,NW,319,5.0,14.0,61,0.00,,---,0.00,VWS V14.01,2013-09-22 17:21:00,
2013-09-22 13:22:00,59.6,46.6,30.03,NNE,24,5.0,14.0,62,0.00,,---,0.00,VWS V14.01,2013-09-22 17:22:00,
2013-09-22 13:23:00,59.7,45.4,30.03,NE,41,3.0,14.0,59,0.00,,---,0.00,VWS V14.01,2013-09-22 17:23:00,
2013-09-22 13:24:00,59.8,46.3,30.03,ENE,58,9.0,14.0,61,0.00,,---,0.00,VWS V14.01,2013-09-22 17:24:00,
2013-09-22 13:25:00,59.1,45.2,30.03,NE,54,9.0,14.0,60,0.00,,---,0.00,VWS V14.01,2013-09-22 17:25:00,
2013-09-22 13:26:00,59.7,45.4,30.03,ENE,68,11.0,14.0,59,0.00,,---,0.00,VWS V14.01,2013-09-22 17:26:00,
2013-09-22 13:27:00,59.6,45.7,30.03,NE,56,10.0,14.0,60,0.00,,---,0.00,VWS V14.01,2013-09-22 17:27:00,
2013-09-22 13:28:00,59.6,45.3,30.03,NE,43,7.0,14.0,59,0.00,,---,0.00,VWS V14.01,2013-09-22 17:28:00,
2013-09-22 13:29:00,59.6,46.6,30.03,NNE,19,3.0,14.0,62,0.00,,---,0.00,VWS V14.01,2013-09-22 17:29:00,
2013-09-22 13:30:00,59.5,46.1,30.03,North,350,4.0,14.0,61,0.00,,---,0.00,VWS V14.01,2013-09-22 17:30:00,
2013-09-22 13:31:00,59.8,45.9,30.03,NW,305,3.0,7.0,60,0.00,,---,0.00,VWS V14.01,2013-09-22 17:31:00,
2013-09-22 13:32:00,59.9,46.0,30.02,NW,318,7.0,7.0,60,0.00,,---,0.00,VWS V14.01,2013-09-22 17:32:00,
2013-09-22 13:33:00,59.9,45.1,30.02,NNW,330,4.0,7.0,58,0.00,,---,0.00,VWS V14.01,2013-09-22 17:33:00,
2013-09-22 13:34:00,60.0,45.7,30.03,NNW,339,1.0,7.0,59,0.00,,---,0.00,VWS V14.01,2013-09-22 17:34:00,
2013-09-22 13:35:00,59.7,44.9,30.03,ENE,74,13.0,14.0,58,0.00,,---,0.00,VWS V14.01,2013-09-22 17:35:00,
2013-09-22 13:36:00,60.0,46.1,30.02,NNE,12,4.0,11.0,60,0.00,,---,0.00,VWS V14.01,2013-09-22 17:36:00,
2013-09-22 13:37:00,60.1,47.5,30.02,NE,35,5.0,11.0,63,0.00,,---,0.00,VWS V14.01,2013-09-22 17:37:00,
2013-09-22 13:38:00,60.2,46.7,30.02,North,4,3.0,11.0,61,0.00,,---,0.00,VWS V14.01,2013-09-22 17:38:00,
2013-09-22 13:39:00,60.2,47.6,30.02,NNE,22,0.0,11.0,63,0.00,,---,0.00,VWS V14.01,2013-09-22 17:39:00,
2013-09-22 13:40:00,59.8,45.9,30.03,WNW,293,4.0,6.0,60,0.00,,---,0.00,VWS V14.01,2013-09-22 17:40:00,
2013-09-22 13:41:00,60.3,46.4,30.02,NNE,25,5.0,11.0,60,0.00,,---,0.00,VWS V14.01,2013-09-22 17:41:00,
2013-09-22 13:42:00,60.4,46.5,30.02,NNE,21,5.0,11.0,60,0.00,,---,0.00,VWS V14.01,2013-09-22 17:42:00,
2013-09-22 13:43:00,60.5,47.0,30.02,NNW,345,1.0,11.0,61,0.00,,---,0.00,VWS V14.01,2013-09-22 17:43:00,
2013-09-22 13:44:00,60.6,46.2,30.02,WNW,303,6.0,11.0,59,0.00,,---,0.00,VWS V14.01,2013-09-22 17:44:00,
2013-09-22 13:45:00,60.0,46.1,30.02,ENE,77,11.0,11.0,60,0.00,,---,0.00,VWS V14.01,2013-09-22 17:45:00,
2013-09-22 13:46:00,60.6,45.8,30.02,NW,314,10.0,12.0,58,0.00,,---,0.00,VWS V14.01,2013-09-22 17:46:00,
2013-09-22 13:47:00,60.5,44.7,30.02,ENE,59,8.0,12.0,56,0.00,,---,0.00,VWS V14.01,2013-09-22 17:47:00,
2013-09-22 13:48:00,60.4,46.0,30.02,ENE,61,13.0,15.0,59,0.00,,---,0.00,VWS V14.01,2013-09-22 17:48:00,
2013-09-22 13:49:00,60.2,46.3,30.02,NE,48,5.0,15.0,60,0.00,,---,0.00,VWS V14.01,2013-09-22 17:49:00,
2013-09-22 13:50:00,60.3,46.4,30.02,North,11,2.0,11.0,60,0.00,,---,0.00,VWS V14.01,2013-09-22 17:50:00,
2013-09-22 13:51:00,60.1,45.3,30.02,ENE,68,10.0,15.0,58,0.00,,---,0.00,VWS V14.01,2013-09-22 17:51:00,
2013-09-22 13:52:00,60.1,47.0,30.02,NNE,23,5.0,15.0,62,0.00,,---,0.00,VWS V14.01,2013-09-22 17:52:00,
2013-09-22 13:53:00,60.2,45.8,30.02,NE,51,3.0,15.0,59,0.00,,---,0.00,VWS V14.01,2013-09-22 17:53:00,
2013-09-22 13:54:00,60.2,46.3,30.02,NE,43,8.0,15.0,60,0.00,,---,0.00,VWS V14.01,2013-09-22 17:54:00,
2013-09-22 13:55:00,60.7,45.8,30.02,NW,308,10.0,12.0,58,0.00,,---,0.00,VWS V14.01,2013-09-22 17:55:00,
2013-09-22 13:56:00,60.1,45.3,30.02,ENE,63,12.0,15.0,58,0.00,,---,0.00,VWS V14.01,2013-09-22 17:56:00,
2013-09-22 13:57:00,60.2,45.8,30.02,NE,55,12.0,15.0,59,0.00,,---,0.00,VWS V14.01,2013-09-22 17:57:00,
2013-09-22 13:58:00,60.1,46.6,30.02,ENE,58,11.0,15.0,61,0.00,,---,0.00,VWS V14.01,2013-09-22 17:58:00,
2013-09-22 13:59:00,60.1,45.3,30.01,ENE,64,7.0,15.0,58,0.00,,---,0.00,VWS V14.01,2013-09-22 17:59:00,
2013-09-22 14:00:00,60.1,45.3,30.02,ENE,64,11.0,15.0,58,0.00,,---,0.00,VWS V14.01,2013-09-22 18:00:00,
2013-09-22 14:01:00,60.0,45.2,30.02,NE,41,8.0,12.0,58,0.00,,---,0.00,VWS V14.01,2013-09-22 18:01:00,
2013-09-22 14:02:00,60.1,45.7,30.02,ENE,62,11.0,12.0,59,0.00,,---,0.00,VWS V14.01,2013-09-22 18:02:00,
2013-09-22 14:03:00,60.1,46.2,30.01,NE,41,1.0,12.0,60,0.00,,---,0.00,VWS V14.01,2013-09-22 18:03:00,
2013-09-22 14:04:00,60.1,45.7,30.01,North,4,4.0,12.0,59,0.00,,---,0.00,VWS V14.01,2013-09-22 18:04:00,
2013-09-22 14:05:00,60.1,44.8,30.02,ENE,58,7.0,15.0,57,0.00,,---,0.00,VWS V14.01,2013-09-22 18:05:00,
2013-09-22 14:06:00,60.3,45.5,30.01,NE,50,5.0,12.0,58,0.00,,---,0.00,VWS V14.01,2013-09-22 18:06:00,
2013-09-22 14:07:00,60.4,45.6,30.01,ENE,58,13.0,13.0,58,0.00,,---,0.00,VWS V14.01,2013-09-22 18:07:00,
2013-09-22 14:08:00,60.5,45.7,30.01,NE,52,10.0,15.0,58,0.00,,---,0.00,VWS V14.01,2013-09-22 18:08:00,
2013-09-22 14:09:00,60.5,45.2,30.01,NE,51,6.0,15.0,57,0.00,,---,0.00,VWS V14.01,2013-09-22 18:09:00,
2013-09-22 14:10:00,60.0,44.7,30.02,NNE,14,6.0,12.0,57,0.00,,---,0.00,VWS V14.01,2013-09-22 18:10:00,
2013-09-22 14:11:00,60.4,45.6,30.01,NNE,29,7.0,15.0,58,0.00,,---,0.00,VWS V14.01,2013-09-22 18:11:00,
2013-09-22 14:12:00,60.5,46.6,30.01,NE,37,7.0,15.0,60,0.00,,---,0.00,VWS V14.01,2013-09-22 18:12:00,
2013-09-22 14:13:00,60.5,46.1,30.01,NE,40,5.0,15.0,59,0.00,,---,0.00,VWS V14.01,2013-09-22 18:13:00,
2013-09-22 14:14:00,60.5,46.6,30.01,NE,35,1.0,15.0,60,0.00,,---,0.00,VWS V14.01,2013-09-22 18:14:00,
2013-09-22 14:15:00,60.2,45.4,30.01,NNE,13,3.0,12.0,58,0.00,,---,0.00,VWS V14.01,2013-09-22 18:15:00,
2013-09-22 14:16:00,60.7,46.8,30.01,NE,43,6.0,15.0,60,0.00,,---,0.00,VWS V14.01,2013-09-22 18:16:00,
2013-09-22 14:17:00,60.7,45.4,30.01,ENE,58,11.0,15.0,57,0.00,,---,0.00,VWS V14.01,2013-09-22 18:17:00,
2013-09-22 14:18:00,60.8,46.0,30.01,ENE,65,14.0,15.0,58,0.00,,---,0.00,VWS V14.01,2013-09-22 18:18:00,
2013-09-22 14:19:00,60.7,45.4,30.01,ENE,73,10.0,15.0,57,0.00,,---,0.00,VWS V14.01,2013-09-22 18:19:00,
2013-09-22 14:20:00,60.5,45.7,30.01,NE,44,4.0,15.0,58,0.00,,---,0.00,VWS V14.01,2013-09-22 18:20:00,
2013-09-22 14:21:00,60.6,44.8,30.01,ENE,57,7.0,15.0,56,0.00,,---,0.00,VWS V14.01,2013-09-22 18:21:00,
2013-09-22 14:22:00,60.6,45.8,30.01,East,89,10.0,15.0,58,0.00,,---,0.00,VWS V14.01,2013-09-22 18:22:00,
2013-09-22 14:23:00,60.5,45.2,30.01,ENE,74,9.0,15.0,57,0.00,,---,0.00,VWS V14.01,2013-09-22 18:23:00,
2013-09-22 14:24:00,60.5,45.2,30.01,East,87,8.0,15.0,57,0.00,,---,0.00,VWS V14.01,2013-09-22 18:24:00,
2013-09-22 14:25:00,60.7,46.8,30.01,NE,49,8.0,15.0,60,0.00,,---,0.00,VWS V14.01,2013-09-22 18:25:00,
2013-09-22 14:26:00,60.5,44.7,30.01,East,81,6.0,15.0,56,0.00,,---,0.00,VWS V14.01,2013-09-22 18:26:00,
2013-09-22 14:27:00,60.4,46.0,30.00,ENE,59,10.0,15.0,59,0.00,,---,0.00,VWS V14.01,2013-09-22 18:27:00,
2013-09-22 14:28:00,60.5,45.7,30.00,NE,56,8.0,15.0,58,0.00,,---,0.00,VWS V14.01,2013-09-22 18:28:00,
2013-09-22 14:29:00,60.6,47.1,30.00,NE,54,9.0,15.0,61,0.00,,---,0.00,VWS V14.01,2013-09-22 18:29:00,
2013-09-22 14:30:00,60.6,44.8,30.01,ENE,62,5.0,15.0,56,0.00,,---,0.00,VWS V14.01,2013-09-22 18:30:00,
2013-09-22 14:31:00,60.9,45.6,30.00,NNE,31,4.0,11.0,57,0.00,,---,0.00,VWS V14.01,2013-09-22 18:31:00,
2013-09-22 14:32:00,61.0,45.2,30.00,NNW,345,4.0,11.0,56,0.00,,---,0.00,VWS V14.01,2013-09-22 18:32:00,
2013-09-22 14:33:00,61.1,46.2,30.00,WNW,293,4.0,11.0,58,0.00,,---,0.00,VWS V14.01,2013-09-22 18:33:00,
2013-09-22 14:34:00,61.2,46.3,30.00,WNW,301,8.0,11.0,58,0.00,,---,0.00,VWS V14.01,2013-09-22 18:34:00,
2013-09-22 14:35:00,60.4,44.7,30.01,ENE,76,3.0,15.0,56,0.00,,---,0.00,VWS V14.01,2013-09-22 18:35:00,
2013-09-22 14:36:00,61.6,47.6,30.00,NNE,23,8.0,11.0,60,0.00,,---,0.00,VWS V14.01,2013-09-22 18:36:00,
2013-09-22 14:37:00,61.7,45.4,30.00,NNE,13,3.0,11.0,55,0.00,,---,0.00,VWS V14.01,2013-09-22 18:37:00,
2013-09-22 14:38:00,61.7,45.4,30.00,NE,45,3.0,11.0,55,0.00,,---,0.00,VWS V14.01,2013-09-22 18:38:00,
2013-09-22 14:39:00,61.8,45.5,30.00,NE,38,4.0,11.0,55,0.00,,---,0.00,VWS V14.01,2013-09-22 18:39:00,
2013-09-22 14:40:00,60.9,47.4,30.00,North,8,5.0,11.0,61,0.00,,---,0.00,VWS V14.01,2013-09-22 18:40:00,
2013-09-22 14:41:00,61.8,45.5,30.00,ENE,61,11.0,11.0,55,0.00,,---,0.00,VWS V14.01,2013-09-22 18:41:00,
2013-09-22 14:42:00,61.7,45.9,30.00,ENE,58,12.0,15.0,56,0.00,,---,0.00,VWS V14.01,2013-09-22 18:42:00,
2013-09-22 14:43:00,61.7,44.9,30.00,ENE,68,9.0,15.0,54,0.00,,---,0.00,VWS V14.01,2013-09-22 18:43:00,
2013-09-22 14:44:00,61.6,45.8,30.00,ENE,58,14.0,15.0,56,0.00,,---,0.00,VWS V14.01,2013-09-22 18:44:00,
2013-09-22 14:45:00,61.6,47.6,30.00,NNE,23,9.0,11.0,60,0.00,,---,0.00,VWS V14.01,2013-09-22 18:45:00,
2013-09-22 14:46:00,61.4,46.0,30.00,NE,56,10.0,15.0,57,0.00,,---,0.00,VWS V14.01,2013-09-22 18:46:00,
2013-09-22 14:47:00,61.3,46.0,30.00,ENE,61,11.0,15.0,57,0.00,,---,0.00,VWS V14.01,2013-09-22 18:47:00,
2013-09-22 14:48:00,61.3,45.0,30.00,ENE,58,7.0,15.0,55,0.00,,---,0.00,VWS V14.01,2013-09-22 18:48:00,
2013-09-22 14:49:00,61.2,44.9,30.00,NE,47,3.0,15.0,55,0.00,,---,0.00,VWS V14.01,2013-09-22 18:49:00,
2013-09-22 14:50:00,61.8,45.5,30.00,ENE,60,5.0,11.0,55,0.00,,---,0.00,VWS V14.01,2013-09-22 18:50:00,
2013-09-22 14:51:00,61.3,46.0,30.00,East,89,8.0,15.0,57,0.00,,---,0.00,VWS V14.01,2013-09-22 18:51:00,
2013-09-22 14:52:00,61.3,46.0,30.00,ENE,64,15.0,15.0,57,0.00,,---,0.00,VWS V14.01,2013-09-22 18:52:00,
2013-09-22 14:53:00,61.4,45.6,30.00,ENE,57,4.0,16.0,56,0.00,,---,0.00,VWS V14.01,2013-09-22 18:53:00,
2013-09-22 14:54:00,61.4,45.1,30.00,ENE,75,10.0,16.0,55,0.00,,---,0.00,VWS V14.01,2013-09-22 18:54:00,
2013-09-22 14:55:00,61.4,46.0,30.00,ENE,63,5.0,15.0,57,0.00,,---,0.00,VWS V14.01,2013-09-22 18:55:00,
2013-09-22 14:56:00,61.4,44.6,30.00,NE,43,9.0,16.0,54,0.00,,---,0.00,VWS V14.01,2013-09-22 18:56:00,
2013-09-22 14:57:00,61.4,45.1,30.00,NE,42,10.0,16.0,55,0.00,,---,0.00,VWS V14.01,2013-09-22 18:57:00,
2013-09-22 14:58:00,61.6,47.6,30.00,NE,41,1.0,16.0,60,0.00,,---,0.00,VWS V14.01,2013-09-22 18:58:00,
2013-09-22 14:59:00,61.7,47.7,30.00,NE,39,1.0,16.0,60,0.00,,---,0.00,VWS V14.01,2013-09-22 18:59:00,
2013-09-22 15:00:00,61.2,45.9,30.00,East,79,8.0,15.0,57,0.00,,---,0.00,VWS V14.01,2013-09-22 19:00:00,
2013-09-22 15:01:00,62.0,45.7,30.00,NE,40,3.0,10.0,55,0.00,,---,0.00,VWS V14.01,2013-09-22 19:01:00,
2013-09-22 15:02:00,62.0,46.1,30.00,NE,35,9.0,10.0,56,0.00,,---,0.00,VWS V14.01,2013-09-22 19:02:00,
2013-09-22 15:03:00,62.0,45.2,30.00,NNE,32,4.0,11.0,54,0.00,,---,0.00,VWS V14.01,2013-09-22 19:03:00,
2013-09-22 15:04:00,62.0,46.6,30.00,NE,42,6.0,16.0,57,0.00,,---,0.00,VWS V14.01,2013-09-22 19:04:00,
2013-09-22 15:05:00,61.4,44.6,30.00,NE,46,6.0,16.0,54,0.00,,---,0.00,VWS V14.01,2013-09-22 19:05:00,
2013-09-22 15:06:00,61.9,46.5,30.00,East,93,13.0,16.0,57,0.00,,---,0.00,VWS V14.01,2013-09-22 19:06:00,
2013-09-22 15:07:00,61.8,45.0,30.00,ENE,75,9.0,16.0,54,0.00,,---,0.00,VWS V14.01,2013-09-22 19:07:00,
2013-09-22 15:08:00,61.7,44.4,30.00,East,87,7.0,16.0,53,0.00,,---,0.00,VWS V14.01,2013-09-22 19:08:00,
2013-09-22 15:09:00,61.7,46.3,30.00,ENE,59,9.0,16.0,57,0.00,,---,0.00,VWS V14.01,2013-09-22 19:09:00,
2013-09-22 15:10:00,61.7,46.3,30.00,NE,41,2.0,16.0,57,0.00,,---,0.00,VWS V14.01,2013-09-22 19:10:00,
2013-09-22 15:11:00,62.0,45.7,30.00,NNE,33,5.0,10.0,55,0.00,,---,0.00,VWS V14.01,2013-09-22 19:11:00,
2013-09-22 15:12:00,61.8,46.0,30.00,NNE,22,5.0,16.0,56,0.00,,---,0.00,VWS V14.01,2013-09-22 19:12:00,
2013-09-22 15:13:00,61.9,45.6,30.00,NE,49,4.0,16.0,55,0.00,,---,0.00,VWS V14.01,2013-09-22 19:13:00,
2013-09-22 15:14:00,61.9,45.6,30.00,NE,46,3.0,16.0,55,0.00,,---,0.00,VWS V14.01,2013-09-22 19:14:00,
2013-09-22 15:15:00,61.9,45.1,30.00,North,354,3.0,16.0,54,0.00,,---,0.00,VWS V14.01,2013-09-22 19:15:00,
2013-09-22 15:16:00,61.9,46.5,30.00,East,84,13.0,16.0,57,0.00,,---,0.00,VWS V14.01,2013-09-22 19:16:00,
2013-09-22 15:17:00,62.1,47.2,30.00,North,4,2.0,16.0,58,0.00,,---,0.00,VWS V14.01,2013-09-22 19:17:00,
2013-09-22 15:18:00,62.2,46.3,30.00,NW,321,4.0,16.0,56,0.00,,---,0.00,VWS V14.01,2013-09-22 19:18:00,
2013-09-22 15:19:00,62.4,46.0,30.00,NE,41,0.0,16.0,55,0.00,,---,0.00,VWS V14.01,2013-09-22 19:19:00,
2013-09-22 15:20:00,62.5,46.6,30.00,NE,38,3.0,16.0,56,0.00,,---,0.00,VWS V14.01,2013-09-22 19:20:00,
2013-09-22 15:21:00,61.8,46.4,30.00,NE,34,3.0,16.0,57,0.00,,---,0.00,VWS V14.01,2013-09-22 19:21:00,
2013-09-22 15:22:00,62.7,46.3,30.00,NNE,30,3.0,16.0,55,0.00,,---,0.00,VWS V14.01,2013-09-22 19:22:00,
2013-09-22 15:23:00,62.7,46.3,30.00,NNE,18,6.0,16.0,55,0.00,,---,0.00,VWS V14.01,2013-09-22 19:23:00,
2013-09-22 15:24:00,62.7,45.8,30.00,North,354,3.0,16.0,54,0.00,,---,0.00,VWS V14.01,2013-09-22 19:24:00,
2013-09-22 15:25:00,62.8,46.9,30.00,NNE,28,1.0,16.0,56,0.00,,---,0.00,VWS V14.01,2013-09-22 19:25:00,
2013-09-22 15:26:00,62.1,47.2,30.00,NE,35,3.0,16.0,58,0.00,,---,0.00,VWS V14.01,2013-09-22 19:26:00,
2013-09-22 15:27:00,62.9,46.5,29.99,NE,44,8.0,16.0,55,0.00,,---,0.00,VWS V14.01,2013-09-22 19:27:00,
2013-09-22 15:28:00,62.9,45.0,29.99,NE,37,6.0,16.0,52,0.00,,---,0.00,VWS V14.01,2013-09-22 19:28:00,
2013-09-22 15:29:00,62.7,44.8,29.99,NE,38,5.0,16.0,52,0.00,,---,0.00,VWS V14.01,2013-09-22 19:29:00,
2013-09-22 15:30:00,62.6,45.2,29.99,NE,37,6.0,8.0,53,0.00,,---,0.00,VWS V14.01,2013-09-22 19:30:00,
2013-09-22 15:31:00,62.6,46.2,30.00,North,354,3.0,16.0,55,0.00,,---,0.00,VWS V14.01,2013-09-22 19:31:00,
2013-09-22 15:32:00,62.4,46.0,29.99,ENE,73,7.0,9.0,55,0.00,,---,0.00,VWS V14.01,2013-09-22 19:32:00,
2013-09-22 15:33:00,62.3,44.5,29.99,ENE,65,0.0,9.0,52,0.00,,---,0.00,VWS V14.01,2013-09-22 19:33:00,
2013-09-22 15:34:00,62.3,45.0,29.99,ESE,117,2.0,9.0,53,0.00,,---,0.00,VWS V14.01,2013-09-22 19:34:00,
2013-09-22 15:35:00,62.3,46.4,29.99,NNE,29,1.0,9.0,56,0.00,,---,0.00,VWS V14.01,2013-09-22 19:35:00,
2013-09-22 15:36:00,62.9,46.5,30.00,NE,39,5.0,16.0,55,0.00,,---,0.00,VWS V14.01,2013-09-22 19:36:00,
2013-09-22 15:37:00,62.4,45.1,29.99,NE,41,7.0,10.0,53,0.00,,---,0.00,VWS V14.01,2013-09-22 19:37:00,
2013-09-22 15:38:00,62.5,45.2,29.99,NNE,21,5.0,10.0,53,0.00,,---,0.00,VWS V14.01,2013-09-22 19:38:00,
2013-09-22 15:39:00,62.5,45.7,29.99,ENE,60,10.0,13.0,54,0.00,,---,0.00,VWS V14.01,2013-09-22 19:39:00,
2013-09-22 15:40:00,62.5,45.2,29.99,NE,51,8.0,13.0,53,0.00,,---,0.00,VWS V14.01,2013-09-22 19:40:00,
2013-09-22 15:41:00,62.5,46.1,29.99,East,81,6.0,9.0,55,0.00,,---,0.00,VWS V14.01,2013-09-22 19:41:00,
2013-09-22 15:42:00,62.5,44.7,29.99,ENE,68,8.0,13.0,52,0.00,,---,0.00,VWS V14.01,2013-09-22 19:42:00,
2013-09-22 15:43:00,62.4,44.6,29.99,ENE,62,9.0,13.0,52,0.00,,---,0.00,VWS V14.01,2013-09-22 19:43:00,
2013-09-22 15:44:00,62.4,45.1,29.99,East,82,8.0,13.0,53,0.00,,---,0.00,VWS V14.01,2013-09-22 19:44:00,
2013-09-22 15:45:00,62.4,45.1,29.99,NE,39,6.0,13.0,53,0.00,,---,0.00,VWS V14.01,2013-09-22 19:45:00,
2013-09-22 15:46:00,62.4,46.0,29.99,NE,39,6.0,9.0,55,0.00,,---,0.00,VWS V14.01,2013-09-22 19:46:00,
2013-09-22 15:47:00,62.5,46.6,29.99,ENE,64,4.0,13.0,56,0.00,,---,0.00,VWS V14.01,2013-09-22 19:47:00,
2013-09-22 15:48:00,62.5,45.7,29.99,NNE,29,6.0,13.0,54,0.00,,---,0.00,VWS V14.01,2013-09-22 19:48:00,
2013-09-22 15:49:00,62.5,46.1,29.99,NNW,343,4.0,13.0,55,0.00,,---,0.00,VWS V14.01,2013-09-22 19:49:00,
2013-09-22 15:50:00,62.6,45.2,29.99,NW,326,7.0,13.0,53,0.00,,---,0.00,VWS V14.01,2013-09-22 19:50:00,
2013-09-22 15:51:00,62.5,45.7,29.99,ENE,57,7.0,13.0,54,0.00,,---,0.00,VWS V14.01,2013-09-22 19:51:00,
2013-09-22 15:52:00,62.7,45.8,29.99,NE,51,1.0,13.0,54,0.00,,---,0.00,VWS V14.01,2013-09-22 19:52:00,
2013-09-22 15:53:00,62.8,47.4,29.99,NNE,17,2.0,13.0,57,0.00,,---,0.00,VWS V14.01,2013-09-22 19:53:00,
2013-09-22 15:54:00,62.9,46.0,29.99,NE,48,5.0,13.0,54,0.00,,---,0.00,VWS V14.01,2013-09-22 19:54:00,
2013-09-22 15:55:00,62.9,45.5,29.99,NE,42,5.0,13.0,53,0.00,,---,0.00,VWS V14.01,2013-09-22 19:55:00,
2013-09-22 15:56:00,62.4,45.1,29.99,ENE,61,5.0,13.0,53,0.00,,---,0.00,VWS V14.01,2013-09-22 19:56:00,
2013-09-22 15:57:00,63.0,45.1,29.99,NW,315,1.0,13.0,52,0.00,,---,0.00,VWS V14.01,2013-09-22 19:57:00,
2013-09-22 15:58:00,63.0,45.1,29.99,NNE,18,0.0,13.0,52,0.00,,---,0.00,VWS V14.01,2013-09-22 19:58:00,
2013-09-22 15:59:00,63.0,46.1,29.99,NNE,18,0.0,13.0,54,0.00,,---,0.00,VWS V14.01,2013-09-22 19:59:00,
2013-09-22 16:00:00,63.1,45.7,29.99,NNE,29,5.0,6.0,53,0.00,,---,0.00,VWS V14.01,2013-09-22 20:00:00,
2013-09-22 16:01:00,62.7,45.8,29.99,NE,52,6.0,13.0,54,0.00,,---,0.00,VWS V14.01,2013-09-22 20:01:00,
2013-09-22 16:02:00,63.2,45.8,29.99,NE,43,6.0,10.0,53,0.00,,---,0.00,VWS V14.01,2013-09-22 20:02:00,
2013-09-22 16:03:00,63.2,45.8,29.99,NNE,15,3.0,10.0,53,0.00,,---,0.00,VWS V14.01,2013-09-22 20:03:00,
2013-09-22 16:04:00,63.2,46.3,29.99,NE,47,4.0,10.0,54,0.00,,---,0.00,VWS V14.01,2013-09-22 20:04:00,
2013-09-22 16:05:00,63.2,45.8,29.99,NNW,336,3.0,10.0,53,0.00,,---,0.00,VWS V14.01,2013-09-22 20:05:00,
2013-09-22 16:06:00,63.0,45.1,29.99,NW,315,2.0,13.0,52,0.00,,---,0.00,VWS V14.01,2013-09-22 20:06:00,
2013-09-22 16:07:00,63.4,46.5,29.99,NNE,33,0.0,10.0,54,0.00,,---,0.00,VWS V14.01,2013-09-22 20:07:00,
2013-09-22 16:08:00,63.5,46.6,29.99,NNE,13,2.0,10.0,54,0.00,,---,0.00,VWS V14.01,2013-09-22 20:08:00,
2013-09-22 16:09:00,63.6,47.2,29.99,NNE,21,2.0,10.0,55,0.00,,---,0.00,VWS V14.01,2013-09-22 20:09:00,
2013-09-22 16:10:00,63.6,46.2,29.99,NE,44,2.0,10.0,53,0.00,,---,0.00,VWS V14.01,2013-09-22 20:10:00,
2013-09-22 16:11:00,63.2,45.8,29.99,NNE,33,8.0,10.0,53,0.00,,---,0.00,VWS V14.01,2013-09-22 20:11:00,
2013-09-22 16:12:00,63.5,45.1,29.99,ENE,65,13.0,13.0,51,0.00,,---,0.00,VWS V14.01,2013-09-22 20:12:00,
2013-09-22 16:13:00,63.4,45.5,29.99,ENE,61,8.0,13.0,52,0.00,,---,0.00,VWS V14.01,2013-09-22 20:13:00,
2013-09-22 16:14:00,63.3,46.4,29.99,ENE,68,13.0,15.0,54,0.00,,---,0.00,VWS V14.01,2013-09-22 20:14:00,
2013-09-22 16:15:00,63.1,44.7,29.99,ENE,58,9.0,15.0,51,0.00,,---,0.00,VWS V14.01,2013-09-22 20:15:00,
2013-09-22 16:16:00,63.4,46.5,29.99,NNE,33,2.0,10.0,54,0.00,,---,0.00,VWS V14.01,2013-09-22 20:16:00,
2013-09-22 16:17:00,62.9,46.0,29.99,NE,37,10.0,15.0,54,0.00,,---,0.00,VWS V14.01,2013-09-22 20:17:00,
2013-09-22 16:18:00,62.9,45.5,29.99,NE,43,7.0,15.0,53,0.00,,---,0.00,VWS V14.01,2013-09-22 20:18:00,
2013-09-22 16:19:00,62.8,46.4,29.99,ENE,60,4.0,15.0,55,0.00,,---,0.00,VWS V14.01,2013-09-22 20:19:00,
2013-09-22 16:20:00,62.8,45.9,29.99,NE,52,3.0,15.0,54,0.00,,---,0.00,VWS V14.01,2013-09-22 20:20:00,
2013-09-22 16:21:00,63.6,45.2,29.99,ENE,64,10.0,10.0,51,0.00,,---,0.00,VWS V14.01,2013-09-22 20:21:00,
2013-09-22 16:22:00,62.7,45.3,29.99,NE,41,3.0,15.0,53,0.00,,---,0.00,VWS V14.01,2013-09-22 20:22:00,
2013-09-22 16:23:00,62.7,46.3,29.99,NNE,16,4.0,15.0,55,0.00,,---,0.00,VWS V14.01,2013-09-22 20:23:00,
2013-09-22 16:24:00,62.8,45.9,29.99,NE,40,7.0,15.0,54,0.00,,---,0.00,VWS V14.01,2013-09-22 20:24:00,
2013-09-22 16:25:00,62.9,46.0,29.99,NE,45,2.0,15.0,54,0.00,,---,0.00,VWS V14.01,2013-09-22 20:25:00,
2013-09-22 16:26:00,62.9,45.0,29.99,ENE,64,10.0,15.0,52,0.00,,---,0.00,VWS V14.01,2013-09-22 20:26:00,
2013-09-22 16:27:00,63.1,47.6,29.99,NE,43,3.0,15.0,57,0.00,,---,0.00,VWS V14.01,2013-09-22 20:27:00,
2013-09-22 16:28:00,63.1,46.2,29.99,North,354,4.0,15.0,54,0.00,,---,0.00,VWS V14.01,2013-09-22 20:28:00,
2013-09-22 16:29:00,63.2,46.3,29.99,North,359,5.0,15.0,54,0.00,,---,0.00,VWS V14.01,2013-09-22 20:29:00,
2013-09-22 16:30:00,63.3,46.4,29.99,WNW,302,4.0,4.0,54,0.00,,---,0.00,VWS V14.01,2013-09-22 20:30:00,
2013-09-22 16:31:00,62.7,45.3,29.99,NNE,31,4.0,15.0,53,0.00,,---,0.00,VWS V14.01,2013-09-22 20:31:00,
2013-09-22 16:32:00,63.5,46.6,29.99,NW,318,1.0,6.0,54,0.00,,---,0.00,VWS V14.01,2013-09-22 20:32:00,
2013-09-22 16:33:00,63.6,47.6,29.99,NNE,31,2.0,6.0,56,0.00,,---,0.00,VWS V14.01,2013-09-22 20:33:00,
2013-09-22 16:34:00,63.7,46.8,29.99,East,81,9.0,9.0,54,0.00,,---,0.00,VWS V14.01,2013-09-22 20:34:00,
2013-09-22 16:35:00,63.6,45.2,29.99,NE,53,4.0,9.0,51,0.00,,---,0.00,VWS V14.01,2013-09-22 20:35:00,
2013-09-22 16:36:00,63.1,47.6,29.99,ENE,64,5.0,15.0,57,0.00,,---,0.00,VWS V14.01,2013-09-22 20:36:00,
2013-09-22 16:37:00,63.5,47.1,29.99,East,93,15.0,15.0,55,0.00,,---,0.00,VWS V14.01,2013-09-22 20:37:00,
2013-09-22 16:38:00,63.5,47.1,29.99,NE,51,6.0,15.0,55,0.00,,---,0.00,VWS V14.01,2013-09-22 20:38:00,
2013-09-22 16:39:00,63.4,46.5,29.99,NE,40,3.0,15.0,54,0.00,,---,0.00,VWS V14.01,2013-09-22 20:39:00,
2013-09-22 16:40:00,63.4,47.5,29.99,ENE,63,10.0,15.0,56,0.00,,---,0.00,VWS V14.01,2013-09-22 20:40:00,
2013-09-22 16:41:00,63.5,46.6,29.99,NW,318,1.0,6.0,54,0.00,,---,0.00,VWS V14.01,2013-09-22 20:41:00,
2013-09-22 16:42:00,63.3,45.4,29.99,NNE,18,7.0,15.0,52,0.00,,---,0.00,VWS V14.01,2013-09-22 20:42:00,
2013-09-22 16:43:00,63.3,46.9,29.99,NNE,17,0.0,15.0,55,0.00,,---,0.00,VWS V14.01,2013-09-22 20:43:00,
2013-09-22 16:44:00,63.3,46.9,29.99,North,11,7.0,15.0,55,0.00,,---,0.00,VWS V14.01,2013-09-22 20:44:00,
2013-09-22 16:45:00,63.3,45.9,29.99,NE,43,1.0,15.0,53,0.00,,---,0.00,VWS V14.01,2013-09-22 20:45:00,
2013-09-22 16:46:00,63.5,47.1,29.99,ENE,66,11.0,11.0,55,0.00,,---,0.00,VWS V14.01,2013-09-22 20:46:00,
2013-09-22 16:47:00,63.3,46.4,29.99,NE,44,5.0,15.0,54,0.00,,---,0.00,VWS V14.01,2013-09-22 20:47:00,
2013-09-22 16:48:00,63.3,45.9,29.99,NE,46,4.0,15.0,53,0.00,,---,0.00,VWS V14.01,2013-09-22 20:48:00,
2013-09-22 16:49:00,63.2,46.3,29.99,NE,44,8.0,15.0,54,0.00,,---,0.00,VWS V14.01,2013-09-22 20:49:00,
2013-09-22 16:50:00,63.3,46.9,29.99,NE,55,3.0,15.0,55,0.00,,---,0.00,VWS V14.01,2013-09-22 20:50:00,
2013-09-22 16:51:00,63.3,45.4,29.99,NE,37,5.0,15.0,52,0.00,,---,0.00,VWS V14.01,2013-09-22 20:51:00,
2013-09-22 16:52:00,63.3,46.4,29.99,NE,54,5.0,15.0,54,0.00,,---,0.00,VWS V14.01,2013-09-22 20:52:00,
2013-09-22 16:53:00,63.3,45.9,29.99,NNE,27,6.0,15.0,53,0.00,,---,0.00,VWS V14.01,2013-09-22 20:53:00,
2013-09-22 16:54:00,63.2,45.3,29.98,NNE,28,6.0,15.0,52,0.00,,---,0.00,VWS V14.01,2013-09-22 20:54:00,
2013-09-22 16:55:00,63.2,45.8,29.99,NE,43,5.0,15.0,53,0.00,,---,0.00,VWS V14.01,2013-09-22 20:55:00,
2013-09-22 16:56:00,63.3,46.4,29.99,NE,43,3.0,15.0,54,0.00,,---,0.00,VWS V14.01,2013-09-22 20:56:00,
2013-09-22 16:57:00,63.2,46.3,29.98,NE,39,6.0,15.0,54,0.00,,---,0.00,VWS V14.01,2013-09-22 20:57:00,
2013-09-22 16:58:00,63.2,47.7,29.98,ENE,62,10.0,15.0,57,0.00,,---,0.00,VWS V14.01,2013-09-22 20:58:00,
2013-09-22 16:59:00,63.2,46.8,29.98,ENE,66,10.0,15.0,55,0.00,,---,0.00,VWS V14.01,2013-09-22 20:59:00,
2013-09-22 17:00:00,63.2,45.8,29.98,ENE,73,12.0,12.0,53,0.00,,---,0.00,VWS V14.01,2013-09-22 21:00:00,
2013-09-22 17:01:00,63.3,46.4,29.99,NNE,25,3.0,15.0,54,0.00,,---,0.00,VWS V14.01,2013-09-22 21:01:00,
2013-09-22 17:02:00,63.1,46.2,29.98,ENE,60,8.0,12.0,54,0.00,,---,0.00,VWS V14.01,2013-09-22 21:02:00,
2013-09-22 17:03:00,63.1,46.2,29.98,NE,47,10.0,12.0,54,0.00,,---,0.00,VWS V14.01,2013-09-22 21:03:00,
2013-09-22 17:04:00,63.1,46.2,29.98,NE,48,7.0,12.0,54,0.00,,---,0.00,VWS V14.01,2013-09-22 21:04:00,
2013-09-22 17:05:00,63.1,45.7,29.98,NE,39,5.0,13.0,53,0.00,,---,0.00,VWS V14.01,2013-09-22 21:05:00,
2013-09-22 17:06:00,63.2,46.3,29.98,NE,35,5.0,15.0,54,0.00,,---,0.00,VWS V14.01,2013-09-22 21:06:00,
2013-09-22 17:07:00,63.0,46.1,29.98,ENE,58,5.0,13.0,54,0.00,,---,0.00,VWS V14.01,2013-09-22 21:07:00,
2013-09-22 17:08:00,63.1,46.2,29.98,NE,50,7.0,13.0,54,0.00,,---,0.00,VWS V14.01,2013-09-22 21:08:00,
2013-09-22 17:09:00,63.0,45.6,29.98,NE,50,7.0,13.0,53,0.00,,---,0.00,VWS V14.01,2013-09-22 21:09:00,
2013-09-22 17:10:00,63.0,45.6,29.98,NE,37,6.0,13.0,53,0.00,,---,0.00,VWS V14.01,2013-09-22 21:10:00,
2013-09-22 17:11:00,63.1,46.2,29.98,ENE,69,5.0,12.0,54,0.00,,---,0.00,VWS V14.01,2013-09-22 21:11:00,
2013-09-22 17:12:00,63.1,46.7,29.98,ENE,73,9.0,14.0,55,0.00,,---,0.00,VWS V14.01,2013-09-22 21:12:00,
2013-09-22 17:13:00,63.1,44.7,29.98,ENE,60,7.0,14.0,51,0.00,,---,0.00,VWS V14.01,2013-09-22 21:13:00,
2013-09-22 17:14:00,63.1,45.7,29.98,NE,44,3.0,14.0,53,0.00,,---,0.00,VWS V14.01,2013-09-22 21:14:00,
2013-09-22 17:15:00,63.1,45.2,29.98,NE,52,5.0,14.0,52,0.00,,---,0.00,VWS V14.01,2013-09-22 21:15:00,
2013-09-22 17:16:00,63.0,46.1,29.98,ENE,70,9.0,13.0,54,0.00,,---,0.00,VWS V14.01,2013-09-22 21:16:00,
2013-09-22 17:17:00,63.1,45.2,29.98,NE,44,2.0,14.0,52,0.00,,---,0.00,VWS V14.01,2013-09-22 21:17:00,
2013-09-22 17:18:00,63.1,44.7,29.98,NNE,27,3.0,14.0,51,0.00,,---,0.00,VWS V14.01,2013-09-22 21:18:00,
2013-09-22 17:19:00,63.2,45.8,29.98,North,10,6.0,14.0,53,0.00,,---,0.00,VWS V14.01,2013-09-22 21:19:00,
2013-09-22 17:20:00,63.2,45.8,29.98,NE,54,5.0,14.0,53,0.00,,---,0.00,VWS V14.01,2013-09-22 21:20:00,
2013-09-22 17:21:00,63.1,46.7,29.98,East,80,13.0,14.0,55,0.00,,---,0.00,VWS V14.01,2013-09-22 21:21:00,
2013-09-22 17:22:00,63.4,47.9,29.98,ENE,71,14.0,16.0,57,0.00,,---,0.00,VWS V14.01,2013-09-22 21:22:00,
2013-09-22 17:23:00,63.3,45.9,29.98,ENE,67,10.0,16.0,53,0.00,,---,0.00,VWS V14.01,2013-09-22 21:23:00,
2013-09-22 17:24:00,63.3,46.4,29.98,ENE,60,14.0,16.0,54,0.00,,---,0.00,VWS V14.01,2013-09-22 21:24:00,
2013-09-22 17:25:00,63.2,45.8,29.98,NE,49,7.0,16.0,53,0.00,,---,0.00,VWS V14.01,2013-09-22 21:25:00,
2013-09-22 17:26:00,63.1,45.2,29.98,NE,44,4.0,14.0,52,0.00,,---,0.00,VWS V14.01,2013-09-22 21:26:00,
2013-09-22 17:27:00,63.2,45.3,29.98,NE,50,8.0,16.0,52,0.00,,---,0.00,VWS V14.01,2013-09-22 21:27:00,
2013-09-22 17:28:00,63.2,46.3,29.99,NE,35,6.0,16.0,54,0.00,,---,0.00,VWS V14.01,2013-09-22 21:28:00,
2013-09-22 17:29:00,63.1,46.2,29.99,NE,53,4.0,16.0,54,0.00,,---,0.00,VWS V14.01,2013-09-22 21:29:00,
2013-09-22 17:30:00,63.1,46.2,29.99,NE,54,6.0,8.0,54,0.00,,---,0.00,VWS V14.01,2013-09-22 21:30:00,
2013-09-22 17:31:00,63.3,47.8,29.98,ENE,76,15.0,15.0,57,0.00,,---,0.00,VWS V14.01,2013-09-22 21:31:00,
2013-09-22 17:32:00,63.1,46.2,29.99,NE,54,7.0,11.0,54,0.00,,---,0.00,VWS V14.01,2013-09-22 21:32:00,
2013-09-22 17:33:00,63.1,44.7,29.99,ENE,62,7.0,11.0,51,0.00,,---,0.00,VWS V14.01,2013-09-22 21:33:00,
2013-09-22 17:34:00,63.1,45.7,29.99,NE,56,7.0,11.0,53,0.00,,---,0.00,VWS V14.01,2013-09-22 21:34:00,
2013-09-22 17:35:00,63.1,45.7,29.99,ENE,75,7.0,11.0,53,0.00,,---,0.00,VWS V14.01,2013-09-22 21:35:00,
2013-09-22 17:36:00,63.2,45.8,29.98,ENE,69,10.0,16.0,53,0.00,,---,0.00,VWS V14.01,2013-09-22 21:36:00,
2013-09-22 17:37:00,63.1,46.2,29.99,ENE,68,8.0,11.0,54,0.00,,---,0.00,VWS V14.01,2013-09-22 21:37:00,
2013-09-22 17:38:00,63.1,46.7,29.99,NE,43,6.0,11.0,55,0.00,,---,0.00,VWS V14.01,2013-09-22 21:38:00,
2013-09-22 17:39:00,63.2,46.8,29.99,NE,45,4.0,11.0,55,0.00,,---,0.00,VWS V14.01,2013-09-22 21:39:00,
2013-09-22 17:40:00,63.2,46.8,29.99,NE,50,6.0,11.0,55,0.00,,---,0.00,VWS V14.01,2013-09-22 21:40:00,
2013-09-22 17:41:00,63.1,46.7,29.99,NE,43,2.0,11.0,55,0.00,,---,0.00,VWS V14.01,2013-09-22 21:41:00,
2013-09-22 17:42:00,63.1,45.7,29.99,NE,39,8.0,11.0,53,0.00,,---,0.00,VWS V14.01,2013-09-22 21:42:00,
2013-09-22 17:43:00,63.1,45.2,29.99,NE,49,5.0,11.0,52,0.00,,---,0.00,VWS V14.01,2013-09-22 21:43:00,
2013-09-22 17:44:00,63.1,45.7,29.99,NNE,29,5.0,11.0,53,0.00,,---,0.00,VWS V14.01,2013-09-22 21:44:00,
2013-09-22 17:45:00,63.1,45.2,29.99,NNE,27,4.0,11.0,52,0.00,,---,0.00,VWS V14.01,2013-09-22 21:45:00,
2013-09-22 17:46:00,63.1,46.2,29.99,ENE,61,9.0,11.0,54,0.00,,---,0.00,VWS V14.01,2013-09-22 21:46:00,
2013-09-22 17:47:00,63.2,45.8,29.99,NE,55,5.0,11.0,53,0.00,,---,0.00,VWS V14.01,2013-09-22 21:47:00,
2013-09-22 17:48:00,63.2,45.3,29.99,NE,35,4.0,11.0,52,0.00,,---,0.00,VWS V14.01,2013-09-22 21:48:00,
2013-09-22 17:49:00,63.2,45.3,29.99,NNE,28,3.0,11.0,52,0.00,,---,0.00,VWS V14.01,2013-09-22 21:49:00,
2013-09-22 17:50:00,63.2,46.8,29.99,NE,39,1.0,11.0,55,0.00,,---,0.00,VWS V14.01,2013-09-22 21:50:00,
2013-09-22 17:51:00,63.2,45.8,29.99,NE,45,4.0,11.0,53,0.00,,---,0.00,VWS V14.01,2013-09-22 21:51:00,
2013-09-22 17:52:00,63.2,46.3,29.99,NE,44,5.0,11.0,54,0.00,,---,0.00,VWS V14.01,2013-09-22 21:52:00,
2013-09-22 17:53:00,63.2,45.8,29.99,ENE,58,5.0,11.0,53,0.00,,---,0.00,VWS V14.01,2013-09-22 21:53:00,
2013-09-22 17:54:00,63.2,46.8,29.99,ENE,70,11.0,11.0,55,0.00,,---,0.00,VWS V14.01,2013-09-22 21:54:00,
2013-09-22 17:55:00,63.2,45.8,29.99,ENE,69,5.0,11.0,53,0.00,,---,0.00,VWS V14.01,2013-09-22 21:55:00,
2013-09-22 17:56:00,63.2,45.8,29.99,NE,53,5.0,11.0,53,0.00,,---,0.00,VWS V14.01,2013-09-22 21:56:00,
2013-09-22 17:57:00,63.3,47.8,29.99,ENE,70,9.0,11.0,57,0.00,,---,0.00,VWS V14.01,2013-09-22 21:57:00,
2013-09-22 17:58:00,63.3,48.3,29.99,NE,55,7.0,11.0,58,0.00,,---,0.00,VWS V14.01,2013-09-22 21:58:00,
2013-09-22 17:59:00,63.3,45.9,29.99,NE,54,3.0,11.0,53,0.00,,---,0.00,VWS V14.01,2013-09-22 21:59:00,
2013-09-22 18:00:00,63.3,46.4,29.99,NE,47,7.0,7.0,54,0.00,,---,0.00,VWS V14.01,2013-09-22 22:00:00,
2013-09-22 18:01:00,63.2,46.3,29.99,NNE,33,5.0,11.0,54,0.00,,---,0.00,VWS V14.01,2013-09-22 22:01:00,
2013-09-22 18:02:00,63.2,45.8,29.99,ENE,57,7.0,7.0,53,0.00,,---,0.00,VWS V14.01,2013-09-22 22:02:00,
2013-09-22 18:03:00,63.3,46.9,29.99,NE,52,2.0,7.0,55,0.00,,---,0.00,VWS V14.01,2013-09-22 22:03:00,
2013-09-22 18:04:00,63.3,46.9,29.99,NE,50,6.0,8.0,55,0.00,,---,0.00,VWS V14.01,2013-09-22 22:04:00,
2013-09-22 18:05:00,63.3,45.9,29.99,ENE,60,7.0,8.0,53,0.00,,---,0.00,VWS V14.01,2013-09-22 22:05:00,
2013-09-22 18:06:00,63.2,47.7,29.99,NE,54,4.0,11.0,57,0.00,,---,0.00,VWS V14.01,2013-09-22 22:06:00,
2013-09-22 18:07:00,63.3,46.9,29.99,NE,39,2.0,8.0,55,0.00,,---,0.00,VWS V14.01,2013-09-22 22:07:00,
2013-09-22 18:08:00,63.3,45.9,29.99,NE,48,4.0,8.0,53,0.00,,---,0.00,VWS V14.01,2013-09-22 22:08:00,
2013-09-22 18:09:00,63.3,46.9,29.99,NE,51,2.0,8.0,55,0.00,,---,0.00,VWS V14.01,2013-09-22 22:09:00,
2013-09-22 18:10:00,63.4,47.9,29.99,NE,41,3.0,8.0,57,0.00,,---,0.00,VWS V14.01,2013-09-22 22:10:00,
2013-09-22 18:11:00,63.2,46.3,29.99,NE,52,4.0,7.0,54,0.00,,---,0.00,VWS V14.01,2013-09-22 22:11:00,
2013-09-22 18:12:00,63.3,45.9,29.99,NE,48,7.0,8.0,53,0.00,,---,0.00,VWS V14.01,2013-09-22 22:12:00,
2013-09-22 18:13:00,63.3,45.9,29.99,NE,42,4.0,8.0,53,0.00,,---,0.00,VWS V14.01,2013-09-22 22:13:00,
2013-09-22 18:14:00,63.2,46.3,29.99,NE,39,5.0,8.0,54,0.00,,---,0.00,VWS V14.01,2013-09-22 22:14:00,
2013-09-22 18:15:00,63.2,46.3,29.99,NE,42,4.0,8.0,54,0.00,,---,0.00,VWS V14.01,2013-09-22 22:15:00,
2013-09-22 18:16:00,63.3,46.9,29.99,NNE,33,4.0,8.0,55,0.00,,---,0.00,VWS V14.01,2013-09-22 22:16:00,
2013-09-22 18:17:00,63.2,46.8,29.99,NE,39,5.0,8.0,55,0.00,,---,0.00,VWS V14.01,2013-09-22 22:17:00,
2013-09-22 18:18:00,63.2,45.8,29.99,NE,50,5.0,8.0,53,0.00,,---,0.00,VWS V14.01,2013-09-22 22:18:00,
2013-09-22 18:19:00,63.2,45.8,29.99,NE,48,5.0,8.0,53,0.00,,---,0.00,VWS V14.01,2013-09-22 22:19:00,
2013-09-22 18:20:00,63.2,48.7,29.99,NE,35,6.0,8.0,59,0.00,,---,0.00,VWS V14.01,2013-09-22 22:20:00,
2013-09-22 18:21:00,63.3,45.9,29.99,NE,47,5.0,8.0,53,0.00,,---,0.00,VWS V14.01,2013-09-22 22:21:00,
2013-09-22 18:22:00,63.2,46.8,29.99,NE,44,3.0,8.0,55,0.00,,---,0.00,VWS V14.01,2013-09-22 22:22:00,
2013-09-22 18:23:00,63.2,47.7,29.99,NE,35,3.0,8.0,57,0.00,,---,0.00,VWS V14.01,2013-09-22 22:23:00,
2013-09-22 18:24:00,63.2,46.3,29.99,NE,45,2.0,8.0,54,0.00,,---,0.00,VWS V14.01,2013-09-22 22:24:00,
2013-09-22 18:25:00,63.1,45.7,29.99,NE,41,3.0,8.0,53,0.00,,---,0.00,VWS V14.01,2013-09-22 22:25:00,
2013-09-22 18:26:00,63.2,46.8,29.99,NE,56,7.0,8.0,55,0.00,,---,0.00,VWS V14.01,2013-09-22 22:26:00,
2013-09-22 18:27:00,63.1,45.7,29.99,NE,47,4.0,8.0,53,0.00,,---,0.00,VWS V14.01,2013-09-22 22:27:00,
2013-09-22 18:28:00,63.1,46.2,29.99,NNE,32,4.0,8.0,54,0.00,,---,0.00,VWS V14.01,2013-09-22 22:28:00,
2013-09-22 18:29:00,63.1,46.2,29.99,NE,35,4.0,8.0,54,0.00,,---,0.00,VWS V14.01,2013-09-22 22:29:00,
2013-09-22 18:30:00,63.1,46.2,29.99,NE,41,3.0,3.0,54,0.00,,---,0.00,VWS V14.01,2013-09-22 22:30:00,
2013-09-22 18:31:00,63.2,46.8,29.99,ENE,58,7.0,8.0,55,0.00,,---,0.00,VWS V14.01,2013-09-22 22:31:00,
2013-09-22 18:32:00,63.1,46.7,29.99,NNE,33,5.0,5.0,55,0.00,,---,0.00,VWS V14.01,2013-09-22 22:32:00,
2013-09-22 18:33:00,63.1,46.7,29.99,NNE,29,3.0,5.0,55,0.00,,---,0.00,VWS V14.01,2013-09-22 22:33:00,
2013-09-22 18:34:00,63.1,46.2,29.99,NE,39,3.0,5.0,54,0.00,,---,0.00,VWS V14.01,2013-09-22 22:34:00,
2013-09-22 18:35:00,63.1,46.2,30.00,NE,43,5.0,5.0,54,0.00,,---,0.00,VWS V14.01,2013-09-22 22:35:00,
2013-09-22 18:36:00,63.1,45.7,29.99,NE,52,4.0,8.0,53,0.00,,---,0.00,VWS V14.01,2013-09-22 22:36:00,
2013-09-22 18:37:00,63.1,47.6,30.00,NE,38,4.0,5.0,57,0.00,,---,0.00,VWS V14.01,2013-09-22 22:37:00,
2013-09-22 18:38:00,63.1,46.2,30.00,ENE,58,5.0,5.0,54,0.00,,---,0.00,VWS V14.01,2013-09-22 22:38:00,
2013-09-22 18:39:00,63.1,47.2,30.00,NE,49,5.0,5.0,56,0.00,,---,0.00,VWS V14.01,2013-09-22 22:39:00,
2013-09-22 18:40:00,63.0,46.1,30.00,NE,43,4.0,7.0,54,0.00,,---,0.00,VWS V14.01,2013-09-22 22:40:00,
2013-09-22 18:41:00,63.1,46.7,29.99,NNE,26,2.0,5.0,55,0.00,,---,0.00,VWS V14.01,2013-09-22 22:41:00,
2013-09-22 18:42:00,63.0,46.1,30.00,NE,41,4.0,7.0,54,0.00,,---,0.00,VWS V14.01,2013-09-22 22:42:00,
2013-09-22 18:43:00,62.9,46.5,30.00,ENE,57,4.0,7.0,55,0.00,,---,0.00,VWS V14.01,2013-09-22 22:43:00,
2013-09-22 18:44:00,62.9,46.5,30.00,NNE,33,5.0,7.0,55,0.00,,---,0.00,VWS V14.01,2013-09-22 22:44:00,
2013-09-22 18:45:00,62.8,46.9,30.00,NE,52,6.0,7.0,56,0.00,,---,0.00,VWS V14.01,2013-09-22 22:45:00,
2013-09-22 18:46:00,63.1,47.6,30.00,NE,43,3.0,5.0,57,0.00,,---,0.00,VWS V14.01,2013-09-22 22:46:00,
2013-09-22 18:47:00,62.8,46.9,30.00,ENE,58,7.0,10.0,56,0.00,,---,0.00,VWS V14.01,2013-09-22 22:47:00,
2013-09-22 18:48:00,62.8,46.4,30.00,ENE,68,8.0,10.0,55,0.00,,---,0.00,VWS V14.01,2013-09-22 22:48:00,
2013-09-22 18:49:00,62.8,46.4,30.00,ENE,57,7.0,10.0,55,0.00,,---,0.00,VWS V14.01,2013-09-22 22:49:00,
2013-09-22 18:50:00,62.8,46.4,30.00,NE,46,4.0,10.0,55,0.00,,---,0.00,VWS V14.01,2013-09-22 22:50:00,
2013-09-22 18:51:00,63.0,46.1,30.00,NE,51,3.0,7.0,54,0.00,,---,0.00,VWS V14.01,2013-09-22 22:51:00,
2013-09-22 18:52:00,62.8,47.8,30.00,ENE,71,8.0,10.0,58,0.00,,---,0.00,VWS V14.01,2013-09-22 22:52:00,
2013-09-22 18:53:00,62.8,47.8,29.99,NE,37,5.0,10.0,58,0.00,,---,0.00,VWS V14.01,2013-09-22 22:53:00,
2013-09-22 18:54:00,62.8,48.3,30.00,NE,56,4.0,10.0,59,0.00,,---,0.00,VWS V14.01,2013-09-22 22:54:00,
2013-09-22 18:55:00,62.7,47.3,30.00,ENE,59,7.0,10.0,57,0.00,,---,0.00,VWS V14.01,2013-09-22 22:55:00,
2013-09-22 18:56:00,62.8,46.9,30.00,ENE,58,7.0,10.0,56,0.00,,---,0.00,VWS V14.01,2013-09-22 22:56:00,
2013-09-22 18:57:00,62.7,49.1,30.00,NE,54,4.0,10.0,61,0.00,,---,0.00,VWS V14.01,2013-09-22 22:57:00,
2013-09-22 18:58:00,62.6,49.0,30.00,ENE,75,7.0,10.0,61,0.00,,---,0.00,VWS V14.01,2013-09-22 22:58:00,
2013-09-22 18:59:00,62.6,48.5,30.00,East,79,8.0,10.0,60,0.00,,---,0.00,VWS V14.01,2013-09-22 22:59:00,
2013-09-22 19:00:00,62.6,48.1,30.00,East,79,8.0,9.0,59,0.00,,---,0.00,VWS V14.01,2013-09-22 23:00:00,
2013-09-22 19:01:00,62.9,47.9,30.00,ENE,70,7.0,10.0,58,0.00,,---,0.00,VWS V14.01,2013-09-22 23:01:00,
2013-09-22 19:02:00,62.4,47.5,30.00,East,82,6.0,10.0,58,0.00,,---,0.00,VWS V14.01,2013-09-22 23:02:00,
2013-09-22 19:03:00,62.4,48.3,30.00,ENE,78,8.0,10.0,60,0.00,,---,0.00,VWS V14.01,2013-09-22 23:03:00,
2013-09-22 19:04:00,62.3,47.3,30.00,ENE,73,8.0,10.0,58,0.00,,---,0.00,VWS V14.01,2013-09-22 23:04:00,
2013-09-22 19:05:00,62.3,46.9,30.00,East,80,9.0,10.0,57,0.00,,---,0.00,VWS V14.01,2013-09-22 23:05:00,
2013-09-22 19:06:00,62.7,49.1,30.00,ENE,73,7.0,10.0,61,0.00,,---,0.00,VWS V14.01,2013-09-22 23:06:00,
2013-09-22 19:07:00,62.2,48.6,30.00,ENE,73,9.0,10.0,61,0.00,,---,0.00,VWS V14.01,2013-09-22 23:07:00,
2013-09-22 19:08:00,62.1,48.1,30.00,ENE,70,8.0,10.0,60,0.00,,---,0.00,VWS V14.01,2013-09-22 23:08:00,
2013-09-22 19:09:00,62.1,47.6,30.00,ENE,60,8.0,10.0,59,0.00,,---,0.00,VWS V14.01,2013-09-22 23:09:00,
2013-09-22 19:10:00,62.0,47.5,30.00,ENE,62,7.0,10.0,59,0.00,,---,0.00,VWS V14.01,2013-09-22 23:10:00,
2013-09-22 19:11:00,62.5,48.0,30.00,East,87,6.0,10.0,59,0.00,,---,0.00,VWS V14.01,2013-09-22 23:11:00,
2013-09-22 19:12:00,62.0,48.4,30.00,ENE,73,9.0,10.0,61,0.00,,---,0.00,VWS V14.01,2013-09-22 23:12:00,
2013-09-22 19:13:00,61.9,48.3,30.00,ENE,67,5.0,10.0,61,0.00,,---,0.00,VWS V14.01,2013-09-22 23:13:00,
2013-09-22 19:14:00,61.8,48.2,30.00,NE,46,5.0,10.0,61,0.00,,---,0.00,VWS V14.01,2013-09-22 23:14:00,
2013-09-22 19:15:00,61.7,48.6,30.00,NE,54,4.0,10.0,62,0.00,,---,0.00,VWS V14.01,2013-09-22 23:15:00,
2013-09-22 19:16:00,62.2,47.3,30.00,ENE,77,7.0,10.0,58,0.00,,---,0.00,VWS V14.01,2013-09-22 23:16:00,
2013-09-22 19:17:00,61.6,49.7,30.00,ENE,70,8.0,10.0,65,0.00,,---,0.00,VWS V14.01,2013-09-22 23:17:00,
2013-09-22 19:18:00,61.6,47.2,30.00,ENE,76,8.0,11.0,59,0.00,,---,0.00,VWS V14.01,2013-09-22 23:18:00,
2013-09-22 19:19:00,61.5,47.5,30.00,East,79,7.0,11.0,60,0.00,,---,0.00,VWS V14.01,2013-09-22 23:19:00,
2013-09-22 19:20:00,61.4,49.5,30.00,ENE,66,8.0,11.0,65,0.00,,---,0.00,VWS V14.01,2013-09-22 23:20:00,
2013-09-22 19:21:00,62.0,49.3,30.00,ENE,62,5.0,10.0,63,0.00,,---,0.00,VWS V14.01,2013-09-22 23:21:00,
2013-09-22 19:22:00,61.3,47.8,30.00,ESE,104,4.0,11.0,61,0.00,,---,0.00,VWS V14.01,2013-09-22 23:22:00,
2013-09-22 19:23:00,61.2,48.5,30.00,ESE,108,4.0,11.0,63,0.00,,---,0.00,VWS V14.01,2013-09-22 23:23:00,
2013-09-22 19:24:00,61.1,48.4,30.00,East,93,5.0,11.0,63,0.00,,---,0.00,VWS V14.01,2013-09-22 23:24:00,
2013-09-22 19:25:00,60.9,48.2,30.00,East,89,5.0,11.0,63,0.00,,---,0.00,VWS V14.01,2013-09-22 23:25:00,
2013-09-22 19:26:00,61.7,49.8,30.00,ENE,70,9.0,10.0,65,0.00,,---,0.00,VWS V14.01,2013-09-22 23:26:00,
2013-09-22 19:27:00,60.7,48.0,30.00,East,83,7.0,11.0,63,0.00,,---,0.00,VWS V14.01,2013-09-22 23:27:00,
2013-09-22 19:28:00,60.5,47.4,30.00,East,85,8.0,11.0,62,0.00,,---,0.00,VWS V14.01,2013-09-22 23:28:00,
2013-09-22 19:29:00,60.5,48.3,30.00,East,95,6.0,11.0,64,0.00,,---,0.00,VWS V14.01,2013-09-22 23:29:00,
2013-09-22 19:30:00,60.4,48.6,30.01,East,95,6.0,7.0,65,0.00,,---,0.00,VWS V14.01,2013-09-22 23:30:00,
2013-09-22 19:31:00,61.3,47.8,30.00,ESE,103,5.0,11.0,61,0.00,,---,0.00,VWS V14.01,2013-09-22 23:31:00,
2013-09-22 19:32:00,60.2,48.0,30.01,East,85,6.0,8.0,64,0.00,,---,0.00,VWS V14.01,2013-09-22 23:32:00,
2013-09-22 19:33:00,60.1,48.7,30.01,East,97,5.0,8.0,66,0.00,,---,0.00,VWS V14.01,2013-09-22 23:33:00,
2013-09-22 19:34:00,60.0,48.2,30.01,East,92,5.0,8.0,65,0.00,,---,0.00,VWS V14.01,2013-09-22 23:34:00,
2013-09-22 19:35:00,59.9,48.5,30.01,ESE,104,5.0,8.0,66,0.00,,---,0.00,VWS V14.01,2013-09-22 23:35:00,
2013-09-22 19:36:00,60.7,48.0,30.00,East,90,8.0,11.0,63,0.00,,---,0.00,VWS V14.01,2013-09-22 23:36:00,
2013-09-22 19:37:00,59.8,48.4,30.00,East,96,5.0,8.0,66,0.00,,---,0.00,VWS V14.01,2013-09-22 23:37:00,
2013-09-22 19:38:00,59.7,49.1,30.01,East,84,9.0,9.0,68,0.00,,---,0.00,VWS V14.01,2013-09-22 23:38:00,
2013-09-22 19:39:00,59.6,48.2,30.01,ENE,67,7.0,10.0,66,0.00,,---,0.00,VWS V14.01,2013-09-22 23:39:00,
2013-09-22 19:40:00,59.6,48.6,30.01,East,83,7.0,10.0,67,0.00,,---,0.00,VWS V14.01,2013-09-22 23:40:00,
2013-09-22 19:41:00,60.2,48.0,30.01,East,99,6.0,8.0,64,0.00,,---,0.00,VWS V14.01,2013-09-22 23:41:00,
2013-09-22 19:42:00,59.4,48.0,30.01,East,86,10.0,10.0,66,0.00,,---,0.00,VWS V14.01,2013-09-22 23:42:00,
2013-09-22 19:43:00,59.4,48.5,30.01,ENE,77,8.0,10.0,67,0.00,,---,0.00,VWS V14.01,2013-09-22 23:43:00,
2013-09-22 19:44:00,59.3,48.4,30.01,ENE,65,8.0,10.0,67,0.00,,---,0.00,VWS V14.01,2013-09-22 23:44:00,
2013-09-22 19:45:00,59.3,48.0,30.01,East,89,8.0,10.0,66,0.00,,---,0.00,VWS V14.01,2013-09-22 23:45:00,
2013-09-22 19:46:00,59.8,48.4,30.01,East,101,4.0,8.0,66,0.00,,---,0.00,VWS V14.01,2013-09-22 23:46:00,
2013-09-22 19:47:00,59.2,47.9,30.01,East,90,9.0,11.0,66,0.00,,---,0.00,VWS V14.01,2013-09-22 23:47:00,
2013-09-22 19:48:00,59.1,47.8,30.01,East,81,8.0,11.0,66,0.00,,---,0.00,VWS V14.01,2013-09-22 23:48:00,
2013-09-22 19:49:00,59.0,47.7,30.01,East,81,9.0,11.0,66,0.00,,---,0.00,VWS V14.01,2013-09-22 23:49:00,
2013-09-22 19:50:00,58.9,48.0,30.01,ENE,68,9.0,11.0,67,0.00,,---,0.00,VWS V14.01,2013-09-22 23:50:00,
2013-09-22 19:51:00,59.5,48.2,30.01,ENE,72,7.0,10.0,66,0.00,,---,0.00,VWS V14.01,2013-09-22 23:51:00,
2013-09-22 19:52:00,58.8,47.5,30.01,East,91,10.0,11.0,66,0.00,,---,0.00,VWS V14.01,2013-09-22 23:52:00,
2013-09-22 19:53:00,58.7,47.4,30.01,East,87,9.0,11.0,66,0.00,,---,0.00,VWS V14.01,2013-09-22 23:53:00,
2013-09-22 19:54:00,58.7,47.8,30.01,ENE,77,9.0,11.0,67,0.00,,---,0.00,VWS V14.01,2013-09-22 23:54:00,
2013-09-22 19:55:00,58.6,47.7,30.01,East,92,9.0,11.0,67,0.00,,---,0.00,VWS V14.01,2013-09-22 23:55:00,
2013-09-22 19:56:00,59.2,48.3,30.01,East,85,8.0,11.0,67,0.00,,---,0.00,VWS V14.01,2013-09-22 23:56:00,
2013-09-22 19:57:00,58.5,48.4,30.01,East,85,8.0,11.0,69,0.00,,---,0.00,VWS V14.01,2013-09-22 23:57:00,
2013-09-22 19:58:00,58.5,48.4,30.01,East,91,7.0,11.0,69,0.00,,---,0.00,VWS V14.01,2013-09-22 23:58:00,
2013-09-22 19:59:00,58.5,48.4,30.01,East,85,6.0,11.0,69,0.00,,---,0.00,VWS V14.01,2013-09-22 23:59:00,
2013-09-22 20:00:00,58.4,48.3,30.01,ESE,102,7.0,8.0,69,0.00,,---,0.00,VWS V14.01,2013-09-23 00:00:00,
2013-09-22 20:01:00,58.9,47.6,30.01,East,91,9.0,11.0,66,0.00,,---,0.00,VWS V14.01,2013-09-23 00:01:00,
2013-09-22 20:02:00,58.3,48.2,30.01,East,97,7.0,8.0,69,0.00,,---,0.00,VWS V14.01,2013-09-23 00:02:00,
2013-09-22 20:03:00,58.2,48.1,30.01,ESE,105,7.0,8.0,69,0.00,,---,0.00,VWS V14.01,2013-09-23 00:03:00,
2013-09-22 20:04:00,58.1,47.2,30.01,ESE,105,5.0,8.0,67,0.00,,---,0.00,VWS V14.01,2013-09-23 00:04:00,
2013-09-22 20:05:00,58.0,48.3,30.01,East,91,5.0,8.0,70,0.00,,---,0.00,VWS V14.01,2013-09-23 00:05:00,
2013-09-22 20:06:00,58.6,48.5,30.01,East,88,8.0,11.0,69,0.00,,---,0.00,VWS V14.01,2013-09-23 00:06:00,
2013-09-22 20:07:00,57.9,47.8,30.01,East,90,6.0,10.0,69,0.00,,---,0.00,VWS V14.01,2013-09-23 00:07:00,
2013-09-22 20:08:00,57.8,47.3,30.01,East,79,8.0,10.0,68,0.00,,---,0.00,VWS V14.01,2013-09-23 00:08:00,
2013-09-22 20:09:00,57.8,47.3,30.01,ENE,64,9.0,10.0,68,0.00,,---,0.00,VWS V14.01,2013-09-23 00:09:00,
2013-09-22 20:10:00,57.7,48.0,30.02,East,82,8.0,10.0,70,0.00,,---,0.00,VWS V14.01,2013-09-23 00:10:00,
2013-09-22 20:11:00,58.3,48.2,30.01,East,86,6.0,8.0,69,0.00,,---,0.00,VWS V14.01,2013-09-23 00:11:00,
2013-09-22 20:12:00,57.7,47.6,30.01,ENE,66,7.0,10.0,69,0.00,,---,0.00,VWS V14.01,2013-09-23 00:12:00,
2013-09-22 20:13:00,57.6,47.5,30.02,East,82,10.0,10.0,69,0.00,,---,0.00,VWS V14.01,2013-09-23 00:13:00,
2013-09-22 20:14:00,57.6,47.9,30.02,ENE,77,8.0,10.0,70,0.00,,---,0.00,VWS V14.01,2013-09-23 00:14:00,
2013-09-22 20:15:00,57.6,47.5,30.02,East,94,6.0,10.0,69,0.00,,---,0.00,VWS V14.01,2013-09-23 00:15:00,
2013-09-22 20:16:00,57.9,47.8,30.01,ESE,102,5.0,10.0,69,0.00,,---,0.00,VWS V14.01,2013-09-23 00:16:00,
2013-09-22 20:17:00,57.5,48.2,30.02,ESE,108,5.0,10.0,71,0.00,,---,0.00,VWS V14.01,2013-09-23 00:17:00,
2013-09-22 20:18:00,57.4,47.7,30.02,East,87,6.0,10.0,70,0.00,,---,0.00,VWS V14.01,2013-09-23 00:18:00,
2013-09-22 20:19:00,57.3,47.6,30.02,ESE,105,4.0,10.0,70,0.00,,---,0.00,VWS V14.01,2013-09-23 00:19:00,
2013-09-22 20:20:00,57.2,47.9,30.02,East,94,7.0,10.0,71,0.00,,---,0.00,VWS V14.01,2013-09-23 00:20:00,
2013-09-22 20:21:00,57.7,48.0,30.02,East,80,7.0,10.0,70,0.00,,---,0.00,VWS V14.01,2013-09-23 00:21:00,
2013-09-22 20:22:00,57.1,48.2,30.02,East,100,6.0,10.0,72,0.00,,---,0.00,VWS V14.01,2013-09-23 00:22:00,
2013-09-22 20:23:00,57.0,47.7,30.02,ESE,104,5.0,10.0,71,0.00,,---,0.00,VWS V14.01,2013-09-23 00:23:00,
2013-09-22 20:24:00,56.9,47.6,30.02,ESE,111,5.0,10.0,71,0.00,,---,0.00,VWS V14.01,2013-09-23 00:24:00,
2013-09-22 20:25:00,56.9,47.6,30.02,East,97,6.0,10.0,71,0.00,,---,0.00,VWS V14.01,2013-09-23 00:25:00,
2013-09-22 20:26:00,57.5,47.8,30.02,ESE,108,5.0,10.0,70,0.00,,---,0.00,VWS V14.01,2013-09-23 00:26:00,
2013-09-22 20:27:00,56.7,47.8,30.02,East,89,6.0,10.0,72,0.00,,---,0.00,VWS V14.01,2013-09-23 00:27:00,
2013-09-22 20:28:00,56.7,48.2,30.02,East,86,7.0,10.0,73,0.00,,---,0.00,VWS V14.01,2013-09-23 00:28:00,
2013-09-22 20:29:00,56.7,47.8,30.02,East,81,9.0,10.0,72,0.00,,---,0.00,VWS V14.01,2013-09-23 00:29:00,
2013-09-22 20:30:00,56.7,48.2,30.02,East,96,7.0,8.0,73,0.00,,---,0.00,VWS V14.01,2013-09-23 00:30:00,
2013-09-22 20:31:00,57.1,47.8,30.02,ESE,112,4.0,10.0,71,0.00,,---,0.00,VWS V14.01,2013-09-23 00:31:00,
2013-09-22 20:32:00,56.6,47.7,30.02,East,85,7.0,9.0,72,0.00,,---,0.00,VWS V14.01,2013-09-23 00:32:00,
2013-09-22 20:33:00,56.6,47.7,30.02,East,91,8.0,9.0,72,0.00,,---,0.00,VWS V14.01,2013-09-23 00:33:00,
2013-09-22 20:34:00,56.5,47.6,30.02,East,90,9.0,9.0,72,0.00,,---,0.00,VWS V14.01,2013-09-23 00:34:00,
2013-09-22 20:35:00,56.5,48.0,30.02,East,86,8.0,9.0,73,0.00,,---,0.00,VWS V14.01,2013-09-23 00:35:00,
2013-09-22 20:36:00,56.7,47.8,30.02,East,93,6.0,10.0,72,0.00,,---,0.00,VWS V14.01,2013-09-23 00:36:00,
2013-09-22 20:37:00,56.4,47.9,30.02,East,81,9.0,11.0,73,0.00,,---,0.00,VWS V14.01,2013-09-23 00:37:00,
2013-09-22 20:38:00,56.3,47.4,30.02,East,84,9.0,11.0,72,0.00,,---,0.00,VWS V14.01,2013-09-23 00:38:00,
2013-09-22 20:39:00,56.3,47.0,30.03,East,95,9.0,11.0,71,0.00,,---,0.00,VWS V14.01,2013-09-23 00:39:00,
2013-09-22 20:40:00,56.2,47.3,30.02,ENE,68,8.0,11.0,72,0.00,,---,0.00,VWS V14.01,2013-09-23 00:40:00,
2013-09-22 20:41:00,56.6,47.7,30.02,East,86,6.0,9.0,72,0.00,,---,0.00,VWS V14.01,2013-09-23 00:41:00,
2013-09-22 20:42:00,56.0,47.1,30.03,East,82,10.0,11.0,72,0.00,,---,0.00,VWS V14.01,2013-09-23 00:42:00,
2013-09-22 20:43:00,56.0,46.7,30.03,East,86,9.0,11.0,71,0.00,,---,0.00,VWS V14.01,2013-09-23 00:43:00,
2013-09-22 20:44:00,55.9,47.0,30.03,ENE,64,10.0,11.0,72,0.00,,---,0.00,VWS V14.01,2013-09-23 00:44:00,
2013-09-22 20:45:00,55.9,47.4,30.03,East,89,9.0,11.0,73,0.00,,---,0.00,VWS V14.01,2013-09-23 00:45:00,
2013-09-22 20:46:00,56.4,47.9,30.02,East,87,9.0,10.0,73,0.00,,---,0.00,VWS V14.01,2013-09-23 00:46:00,
2013-09-22 20:47:00,55.8,47.3,30.03,East,85,8.0,11.0,73,0.00,,---,0.00,VWS V14.01,2013-09-23 00:47:00,
2013-09-22 20:48:00,55.7,47.2,30.03,ENE,71,7.0,11.0,73,0.00,,---,0.00,VWS V14.01,2013-09-23 00:48:00,
2013-09-22 20:49:00,55.8,48.0,30.03,East,84,8.0,11.0,75,0.00,,---,0.00,VWS V14.01,2013-09-23 00:49:00,
2013-09-22 20:50:00,55.7,47.9,30.03,East,87,9.0,11.0,75,0.00,,---,0.00,VWS V14.01,2013-09-23 00:50:00,
2013-09-22 20:51:00,56.1,47.2,30.02,ENE,77,11.0,11.0,72,0.00,,---,0.00,VWS V14.01,2013-09-23 00:51:00,
2013-09-22 20:52:00,55.7,47.2,30.03,East,80,9.0,11.0,73,0.00,,---,0.00,VWS V14.01,2013-09-23 00:52:00,
2013-09-22 20:53:00,55.7,47.2,30.03,East,85,9.0,11.0,73,0.00,,---,0.00,VWS V14.01,2013-09-23 00:53:00,
2013-09-22 20:54:00,55.6,47.1,30.03,East,89,8.0,11.0,73,0.00,,---,0.00,VWS V14.01,2013-09-23 00:54:00,
2013-09-22 20:55:00,55.6,47.1,30.03,ENE,73,9.0,11.0,73,0.00,,---,0.00,VWS V14.01,2013-09-23 00:55:00,
2013-09-22 20:56:00,55.8,47.3,30.03,ENE,68,10.0,11.0,73,0.00,,---,0.00,VWS V14.01,2013-09-23 00:56:00,
2013-09-22 20:57:00,55.5,47.0,30.03,ENE,73,9.0,11.0,73,0.00,,---,0.00,VWS V14.01,2013-09-23 00:57:00,
2013-09-22 20:58:00,55.5,47.0,30.03,ENE,76,11.0,14.0,73,0.00,,---,0.00,VWS V14.01,2013-09-23 00:58:00,
2013-09-22 20:59:00,55.4,47.3,30.03,East,100,8.0,14.0,74,0.00,,---,0.00,VWS V14.01,2013-09-23 00:59:00,
2013-09-22 21:00:00,55.4,47.3,30.03,East,89,9.0,9.0,74,0.00,,---,0.00,VWS V14.01,2013-09-23 01:00:00,
2013-09-22 21:01:00,55.7,47.2,30.03,ENE,78,8.0,11.0,73,0.00,,---,0.00,VWS V14.01,2013-09-23 01:01:00,
2013-09-22 21:02:00,55.3,46.8,30.03,East,90,7.0,9.0,73,0.00,,---,0.00,VWS V14.01,2013-09-23 01:02:00,
2013-09-22 21:03:00,55.2,47.1,30.03,East,86,6.0,9.0,74,0.00,,---,0.00,VWS V14.01,2013-09-23 01:03:00,
2013-09-22 21:04:00,55.2,47.1,30.03,East,91,8.0,9.0,74,0.00,,---,0.00,VWS V14.01,2013-09-23 01:04:00,
2013-09-22 21:05:00,55.1,46.6,30.03,East,91,9.0,10.0,73,0.00,,---,0.00,VWS V14.01,2013-09-23 01:05:00,
2013-09-22 21:06:00,55.5,47.0,30.03,ENE,71,9.0,11.0,73,0.00,,---,0.00,VWS V14.01,2013-09-23 01:06:00,
2013-09-22 21:07:00,55.0,46.5,30.03,ESE,107,7.0,11.0,73,0.00,,---,0.00,VWS V14.01,2013-09-23 01:07:00,
2013-09-22 21:08:00,54.9,46.8,30.03,East,93,7.0,11.0,74,0.00,,---,0.00,VWS V14.01,2013-09-23 01:08:00,
2013-09-22 21:09:00,54.9,47.1,30.03,East,93,7.0,11.0,75,0.00,,---,0.00,VWS V14.01,2013-09-23 01:09:00,
2013-09-22 21:10:00,54.9,47.1,30.03,East,100,8.0,11.0,75,0.00,,---,0.00,VWS V14.01,2013-09-23 01:10:00,
2013-09-22 21:11:00,55.3,47.5,30.03,ENE,76,8.0,9.0,75,0.00,,---,0.00,VWS V14.01,2013-09-23 01:11:00,
2013-09-22 21:12:00,54.8,46.7,30.03,East,79,10.0,13.0,74,0.00,,---,0.00,VWS V14.01,2013-09-23 01:12:00,
2013-09-22 21:13:00,54.8,47.0,30.03,East,89,9.0,13.0,75,0.00,,---,0.00,VWS V14.01,2013-09-23 01:13:00,
2013-09-22 21:14:00,54.8,47.4,30.03,East,97,5.0,13.0,76,0.00,,---,0.00,VWS V14.01,2013-09-23 01:14:00,
2013-09-22 21:15:00,54.7,46.9,30.03,ENE,77,5.0,13.0,75,0.00,,---,0.00,VWS V14.01,2013-09-23 01:15:00,
2013-09-22 21:16:00,55.0,46.5,30.03,East,99,9.0,11.0,73,0.00,,---,0.00,VWS V14.01,2013-09-23 01:16:00,
2013-09-22 21:17:00,54.6,46.8,30.04,ESE,106,5.0,13.0,75,0.00,,---,0.00,VWS V14.01,2013-09-23 01:17:00,
2013-09-22 21:18:00,54.5,46.8,30.03,ESE,110,8.0,13.0,75,0.00,,---,0.00,VWS V14.01,2013-09-23 01:18:00,
2013-09-22 21:19:00,54.5,46.4,30.04,East,84,8.0,13.0,74,0.00,,---,0.00,VWS V14.01,2013-09-23 01:19:00,
2013-09-22 21:20:00,54.5,46.8,30.04,ESE,110,8.0,13.0,75,0.00,,---,0.00,VWS V14.01,2013-09-23 01:20:00,
2013-09-22 21:21:00,54.8,46.7,30.03,East,81,8.0,11.0,74,0.00,,---,0.00,VWS V14.01,2013-09-23 01:21:00,
2013-09-22 21:22:00,54.3,46.6,30.04,ESE,106,8.0,13.0,75,0.00,,---,0.00,VWS V14.01,2013-09-23 01:22:00,
2013-09-22 21:23:00,54.2,46.5,30.04,East,90,7.0,13.0,75,0.00,,---,0.00,VWS V14.01,2013-09-23 01:23:00,
2013-09-22 21:24:00,54.1,46.7,30.04,East,100,7.0,13.0,76,0.00,,---,0.00,VWS V14.01,2013-09-23 01:24:00,
2013-09-22 21:25:00,54.1,46.4,30.04,East,100,6.0,13.0,75,0.00,,---,0.00,VWS V14.01,2013-09-23 01:25:00,
2013-09-22 21:26:00,54.6,46.8,30.03,ESE,112,8.0,13.0,75,0.00,,---,0.00,VWS V14.01,2013-09-23 01:26:00,
2013-09-22 21:27:00,54.0,47.0,30.04,ESE,102,7.0,13.0,77,0.00,,---,0.00,VWS V14.01,2013-09-23 01:27:00,
2013-09-22 21:28:00,54.0,46.6,30.04,East,86,6.0,13.0,76,0.00,,---,0.00,VWS V14.01,2013-09-23 01:28:00,
2013-09-22 21:29:00,53.9,46.5,30.04,ESE,106,8.0,13.0,76,0.00,,---,0.00,VWS V14.01,2013-09-23 01:29:00,
2013-09-22 21:30:00,53.9,46.5,30.04,East,98,8.0,9.0,76,0.00,,---,0.00,VWS V14.01,2013-09-23 01:30:00,
2013-09-22 21:31:00,54.3,46.6,30.04,ESE,104,7.0,13.0,75,0.00,,---,0.00,VWS V14.01,2013-09-23 01:31:00,
2013-09-22 21:32:00,53.8,46.8,30.04,ESE,107,8.0,9.0,77,0.00,,---,0.00,VWS V14.01,2013-09-23 01:32:00,
2013-09-22 21:33:00,53.8,46.4,30.04,ENE,72,8.0,9.0,76,0.00,,---,0.00,VWS V14.01,2013-09-23 01:33:00,
2013-09-22 21:34:00,53.8,47.1,30.04,ESE,104,7.0,9.0,78,0.00,,---,0.00,VWS V14.01,2013-09-23 01:34:00,
2013-09-22 21:35:00,53.7,46.7,30.04,East,86,6.0,9.0,77,0.00,,---,0.00,VWS V14.01,2013-09-23 01:35:00,
2013-09-22 21:36:00,54.1,46.7,30.04,ESE,103,7.0,13.0,76,0.00,,---,0.00,VWS V14.01,2013-09-23 01:36:00,
2013-09-22 21:37:00,53.7,46.7,30.04,East,85,8.0,9.0,77,0.00,,---,0.00,VWS V14.01,2013-09-23 01:37:00,
2013-09-22 21:38:00,53.7,46.3,30.04,East,92,8.0,10.0,76,0.00,,---,0.00,VWS V14.01,2013-09-23 01:38:00,
2013-09-22 21:39:00,53.6,46.2,30.04,ENE,64,7.0,10.0,76,0.00,,---,0.00,VWS V14.01,2013-09-23 01:39:00,
2013-09-22 21:40:00,53.6,46.6,30.04,ENE,73,7.0,10.0,77,0.00,,---,0.00,VWS V14.01,2013-09-23 01:40:00,
2013-09-22 21:41:00,53.8,46.4,30.04,ESE,110,8.0,9.0,76,0.00,,---,0.00,VWS V14.01,2013-09-23 01:41:00,
2013-09-22 21:42:00,53.6,47.3,30.04,ENE,78,7.0,10.0,79,0.00,,---,0.00,VWS V14.01,2013-09-23 01:42:00,
2013-09-22 21:43:00,53.6,46.9,30.04,ENE,75,7.0,10.0,78,0.00,,---,0.00,VWS V14.01,2013-09-23 01:43:00,
2013-09-22 21:44:00,53.6,46.9,30.04,East,82,5.0,10.0,78,0.00,,---,0.00,VWS V14.01,2013-09-23 01:44:00,
2013-09-22 21:45:00,53.6,46.6,30.04,East,89,8.0,10.0,77,0.00,,---,0.00,VWS V14.01,2013-09-23 01:45:00,
2013-09-22 21:46:00,53.7,46.7,30.04,ENE,70,8.0,9.0,77,0.00,,---,0.00,VWS V14.01,2013-09-23 01:46:00,
2013-09-22 21:47:00,53.4,46.4,30.04,East,83,7.0,10.0,77,0.00,,---,0.00,VWS V14.01,2013-09-23 01:47:00,
2013-09-22 21:48:00,53.4,46.4,30.04,East,81,8.0,10.0,77,0.00,,---,0.00,VWS V14.01,2013-09-23 01:48:00,
2013-09-22 21:49:00,53.4,46.7,30.04,East,96,6.0,10.0,78,0.00,,---,0.00,VWS V14.01,2013-09-23 01:49:00,
2013-09-22 21:50:00,53.4,46.7,30.04,East,101,4.0,10.0,78,0.00,,---,0.00,VWS V14.01,2013-09-23 01:50:00,
2013-09-22 21:51:00,53.6,47.3,30.04,East,83,7.0,10.0,79,0.00,,---,0.00,VWS V14.01,2013-09-23 01:51:00,
2013-09-22 21:52:00,53.3,47.0,30.04,East,89,6.0,10.0,79,0.00,,---,0.00,VWS V14.01,2013-09-23 01:52:00,
2013-09-22 21:53:00,53.3,47.3,30.05,East,79,7.0,10.0,80,0.00,,---,0.00,VWS V14.01,2013-09-23 01:53:00,
2013-09-22 21:54:00,53.3,46.6,30.04,East,83,7.0,10.0,78,0.00,,---,0.00,VWS V14.01,2013-09-23 01:54:00,
2013-09-22 21:55:00,53.2,46.2,30.05,East,80,8.0,10.0,77,0.00,,---,0.00,VWS V14.01,2013-09-23 01:55:00,
2013-09-22 21:56:00,53.5,46.5,30.04,East,89,6.0,10.0,77,0.00,,---,0.00,VWS V14.01,2013-09-23 01:56:00,
2013-09-22 21:57:00,53.1,46.4,30.05,East,79,7.0,11.0,78,0.00,,---,0.00,VWS V14.01,2013-09-23 01:57:00,
2013-09-22 21:58:00,53.1,46.1,30.05,East,89,8.0,11.0,77,0.00,,---,0.00,VWS V14.01,2013-09-23 01:58:00,
2013-09-22 21:59:00,53.0,46.3,30.05,East,91,9.0,11.0,78,0.00,,---,0.00,VWS V14.01,2013-09-23 01:59:00,
2013-09-22 22:00:00,53.0,46.3,30.05,East,98,7.0,7.0,78,0.00,,---,0.00,VWS V14.01,2013-09-23 02:00:00,
2013-09-22 22:01:00,53.3,47.0,30.04,ENE,65,7.0,10.0,79,0.00,,---,0.00,VWS V14.01,2013-09-23 02:01:00,
2013-09-22 22:02:00,53.0,46.7,30.05,East,85,7.0,8.0,79,0.00,,---,0.00,VWS V14.01,2013-09-23 02:02:00,
2013-09-22 22:03:00,53.0,46.3,30.05,East,89,7.0,8.0,78,0.00,,---,0.00,VWS V14.01,2013-09-23 02:03:00,
2013-09-22 22:04:00,52.9,46.2,30.05,East,81,7.0,8.0,78,0.00,,---,0.00,VWS V14.01,2013-09-23 02:04:00,
2013-09-22 22:05:00,52.8,46.5,30.05,East,83,7.0,9.0,79,0.00,,---,0.00,VWS V14.01,2013-09-23 02:05:00,
2013-09-22 22:06:00,53.1,46.1,30.05,East,81,9.0,11.0,77,0.00,,---,0.00,VWS V14.01,2013-09-23 02:06:00,
2013-09-22 22:07:00,52.7,46.0,30.05,East,87,7.0,9.0,78,0.00,,---,0.00,VWS V14.01,2013-09-23 02:07:00,
2013-09-22 22:08:00,52.7,46.0,30.05,East,100,3.0,9.0,78,0.00,,---,0.00,VWS V14.01,2013-09-23 02:08:00,
2013-09-22 22:09:00,52.7,46.7,30.05,ENE,77,7.0,9.0,80,0.00,,---,0.00,VWS V14.01,2013-09-23 02:09:00,
2013-09-22 22:10:00,52.7,46.7,30.05,ENE,69,5.0,9.0,80,0.00,,---,0.00,VWS V14.01,2013-09-23 02:10:00,
2013-09-22 22:11:00,53.0,46.7,30.05,East,101,7.0,8.0,79,0.00,,---,0.00,VWS V14.01,2013-09-23 02:11:00,
2013-09-22 22:12:00,52.6,46.6,30.05,East,83,6.0,9.0,80,0.00,,---,0.00,VWS V14.01,2013-09-23 02:12:00,
2013-09-22 22:13:00,52.6,46.3,30.05,ENE,63,8.0,10.0,79,0.00,,---,0.00,VWS V14.01,2013-09-23 02:13:00,
2013-09-22 22:14:00,52.7,47.0,30.05,East,91,9.0,10.0,81,0.00,,---,0.00,VWS V14.01,2013-09-23 02:14:00,
2013-09-22 22:15:00,52.6,46.0,30.05,East,83,6.0,10.0,78,0.00,,---,0.00,VWS V14.01,2013-09-23 02:15:00,
2013-09-22 22:16:00,52.8,46.1,30.05,East,100,7.0,9.0,78,0.00,,---,0.00,VWS V14.01,2013-09-23 02:16:00,
2013-09-22 22:17:00,52.5,46.2,30.05,ENE,74,7.0,10.0,79,0.00,,---,0.00,VWS V14.01,2013-09-23 02:17:00,
2013-09-22 22:18:00,52.5,46.5,30.05,East,89,6.0,10.0,80,0.00,,---,0.00,VWS V14.01,2013-09-23 02:18:00,
2013-09-22 22:19:00,52.5,46.5,30.05,East,85,7.0,10.0,80,0.00,,---,0.00,VWS V14.01,2013-09-23 02:19:00,
2013-09-22 22:20:00,52.4,46.1,30.06,ESE,113,5.0,10.0,79,0.00,,---,0.00,VWS V14.01,2013-09-23 02:20:00,
2013-09-22 22:21:00,52.6,46.6,30.05,East,88,6.0,9.0,80,0.00,,---,0.00,VWS V14.01,2013-09-23 02:21:00,
2013-09-22 22:22:00,52.4,46.4,30.06,East,100,7.0,10.0,80,0.00,,---,0.00,VWS V14.01,2013-09-23 02:22:00,
2013-09-22 22:23:00,52.3,46.3,30.06,ENE,76,7.0,10.0,80,0.00,,---,0.00,VWS V14.01,2013-09-23 02:23:00,
2013-09-22 22:24:00,52.3,46.3,30.06,ENE,68,8.0,10.0,80,0.00,,---,0.00,VWS V14.01,2013-09-23 02:24:00,
2013-09-22 22:25:00,52.3,46.0,30.06,ENE,72,9.0,10.0,79,0.00,,---,0.00,VWS V14.01,2013-09-23 02:25:00,
2013-09-22 22:26:00,52.6,46.3,30.05,East,81,6.0,10.0,79,0.00,,---,0.00,VWS V14.01,2013-09-23 02:26:00,
2013-09-22 22:27:00,52.2,45.9,30.06,ENE,65,9.0,13.0,79,0.00,,---,0.00,VWS V14.01,2013-09-23 02:27:00,
2013-09-22 22:28:00,52.1,45.8,30.06,ENE,75,9.0,13.0,79,0.00,,---,0.00,VWS V14.01,2013-09-23 02:28:00,
2013-09-22 22:29:00,52.1,45.8,30.06,East,85,9.0,13.0,79,0.00,,---,0.00,VWS V14.01,2013-09-23 02:29:00,
2013-09-22 22:30:00,52.0,45.7,30.06,ENE,73,10.0,10.0,79,0.00,,---,0.00,VWS V14.01,2013-09-23 02:30:00,
2013-09-22 22:31:00,52.4,46.4,30.05,East,80,7.0,10.0,80,0.00,,---,0.00,VWS V14.01,2013-09-23 02:31:00,
2013-09-22 22:32:00,51.9,45.9,30.06,East,85,9.0,10.0,80,0.00,,---,0.00,VWS V14.01,2013-09-23 02:32:00,
2013-09-22 22:33:00,51.9,45.9,30.06,East,90,8.0,10.0,80,0.00,,---,0.00,VWS V14.01,2013-09-23 02:33:00,
2013-09-22 22:34:00,51.9,45.9,30.05,East,87,8.0,10.0,80,0.00,,---,0.00,VWS V14.01,2013-09-23 02:34:00,
2013-09-22 22:35:00,51.9,46.3,30.06,East,91,8.0,10.0,81,0.00,,---,0.00,VWS V14.01,2013-09-23 02:35:00,
2013-09-22 22:36:00,52.2,45.9,30.06,ENE,68,9.0,11.0,79,0.00,,---,0.00,VWS V14.01,2013-09-23 02:36:00,
2013-09-22 22:37:00,51.9,46.3,30.06,East,85,7.0,10.0,81,0.00,,---,0.00,VWS V14.01,2013-09-23 02:37:00,
2013-09-22 22:38:00,51.9,46.3,30.05,East,100,6.0,10.0,81,0.00,,---,0.00,VWS V14.01,2013-09-23 02:38:00,
2013-09-22 22:39:00,51.9,46.3,30.06,East,92,6.0,10.0,81,0.00,,---,0.00,VWS V14.01,2013-09-23 02:39:00,
2013-09-22 22:40:00,51.9,46.3,30.06,ESE,105,5.0,10.0,81,0.00,,---,0.00,VWS V14.01,2013-09-23 02:40:00,
2013-09-22 22:41:00,51.9,45.6,30.06,ENE,71,8.0,10.0,79,0.00,,---,0.00,VWS V14.01,2013-09-23 02:41:00,
2013-09-22 22:42:00,51.8,45.8,30.06,ENE,78,8.0,10.0,80,0.00,,---,0.00,VWS V14.01,2013-09-23 02:42:00,
2013-09-22 22:43:00,51.7,45.7,30.06,ESE,108,7.0,10.0,80,0.00,,---,0.00,VWS V14.01,2013-09-23 02:43:00,
2013-09-22 22:44:00,51.6,45.6,30.06,East,96,6.0,10.0,80,0.00,,---,0.00,VWS V14.01,2013-09-23 02:44:00,
2013-09-22 22:45:00,51.5,45.5,30.06,East,100,5.0,10.0,80,0.00,,---,0.00,VWS V14.01,2013-09-23 02:45:00,
2013-09-22 22:46:00,51.9,45.9,30.06,East,92,8.0,10.0,80,0.00,,---,0.00,VWS V14.01,2013-09-23 02:46:00,
2013-09-22 22:47:00,51.4,45.8,30.06,East,94,7.0,10.0,81,0.00,,---,0.00,VWS V14.01,2013-09-23 02:47:00,
2013-09-22 22:48:00,51.3,45.3,30.06,ESE,112,7.0,10.0,80,0.00,,---,0.00,VWS V14.01,2013-09-23 02:48:00,
2013-09-22 22:49:00,51.3,45.7,30.06,East,100,8.0,10.0,81,0.00,,---,0.00,VWS V14.01,2013-09-23 02:49:00,
2013-09-22 22:50:00,51.2,45.9,30.06,ESE,111,5.0,10.0,82,0.00,,---,0.00,VWS V14.01,2013-09-23 02:50:00,
2013-09-22 22:51:00,51.8,45.8,30.06,ESE,106,7.0,10.0,80,0.00,,---,0.00,VWS V14.01,2013-09-23 02:51:00,
2013-09-22 22:52:00,51.0,45.1,30.06,ESE,107,5.0,10.0,80,0.00,,---,0.00,VWS V14.01,2013-09-23 02:52:00,
2013-09-22 22:53:00,51.0,45.4,30.06,East,98,6.0,10.0,81,0.00,,---,0.00,VWS V14.01,2013-09-23 02:53:00,
2013-09-22 22:54:00,50.9,45.6,30.06,ESE,108,5.0,10.0,82,0.00,,---,0.00,VWS V14.01,2013-09-23 02:54:00,
2013-09-22 22:55:00,50.9,45.6,30.06,East,83,7.0,10.0,82,0.00,,---,0.00,VWS V14.01,2013-09-23 02:55:00,
2013-09-22 22:56:00,51.4,45.8,30.06,East,97,9.0,10.0,81,0.00,,---,0.00,VWS V14.01,2013-09-23 02:56:00,
2013-09-22 22:57:00,50.9,45.9,30.06,East,95,7.0,10.0,83,0.00,,---,0.00,VWS V14.01,2013-09-23 02:57:00,
2013-09-22 22:58:00,50.9,45.9,30.06,East,93,6.0,10.0,83,0.00,,---,0.00,VWS V14.01,2013-09-23 02:58:00,
2013-09-22 22:59:00,50.9,45.9,30.06,East,88,8.0,10.0,83,0.00,,---,0.00,VWS V14.01,2013-09-23 02:59:00,
2013-09-22 23:00:00,50.9,45.9,30.05,ESE,111,5.0,7.0,83,0.00,,---,0.00,VWS V14.01,2013-09-23 03:00:00,
2013-09-22 23:01:00,51.1,45.2,30.06,ESE,102,5.0,10.0,80,0.00,,---,0.00,VWS V14.01,2013-09-23 03:01:00,
2013-09-22 23:02:00,50.9,45.6,30.06,ESE,104,5.0,8.0,82,0.00,,---,0.00,VWS V14.01,2013-09-23 03:02:00,
2013-09-22 23:03:00,50.8,45.8,30.06,ESE,110,7.0,8.0,83,0.00,,---,0.00,VWS V14.01,2013-09-23 03:03:00,
2013-09-22 23:04:00,50.8,45.5,30.05,ESE,112,4.0,8.0,82,0.00,,---,0.00,VWS V14.01,2013-09-23 03:04:00,
2013-09-22 23:05:00,50.7,45.4,30.06,ESE,116,4.0,8.0,82,0.00,,---,0.00,VWS V14.01,2013-09-23 03:05:00,
2013-09-22 23:06:00,50.9,45.9,30.06,East,79,7.0,10.0,83,0.00,,---,0.00,VWS V14.01,2013-09-23 03:06:00,
2013-09-22 23:07:00,50.6,45.3,30.06,ESE,108,5.0,8.0,82,0.00,,---,0.00,VWS V14.01,2013-09-23 03:07:00,
2013-09-22 23:08:00,50.5,45.2,30.06,ESE,104,5.0,8.0,82,0.00,,---,0.00,VWS V14.01,2013-09-23 03:08:00,
2013-09-22 23:09:00,50.5,45.2,30.06,ESE,114,5.0,8.0,82,0.00,,---,0.00,VWS V14.01,2013-09-23 03:09:00,
2013-09-22 23:10:00,50.4,45.1,30.06,ESE,116,5.0,8.0,82,0.00,,---,0.00,VWS V14.01,2013-09-23 03:10:00,
2013-09-22 23:11:00,50.9,45.6,30.06,ESE,110,5.0,8.0,82,0.00,,---,0.00,VWS V14.01,2013-09-23 03:11:00,
2013-09-22 23:12:00,50.3,45.0,30.06,ESE,106,4.0,8.0,82,0.00,,---,0.00,VWS V14.01,2013-09-23 03:12:00,
2013-09-22 23:13:00,50.2,44.9,30.06,ESE,111,5.0,8.0,82,0.00,,---,0.00,VWS V14.01,2013-09-23 03:13:00,
2013-09-22 23:14:00,50.2,45.2,30.06,ESE,108,4.0,8.0,83,0.00,,---,0.00,VWS V14.01,2013-09-23 03:14:00,
2013-09-22 23:15:00,50.2,45.6,30.06,ESE,118,5.0,8.0,84,0.00,,---,0.00,VWS V14.01,2013-09-23 03:15:00,
2013-09-22 23:16:00,50.6,45.3,30.06,ESE,108,5.0,8.0,82,0.00,,---,0.00,VWS V14.01,2013-09-23 03:16:00,
2013-09-22 23:17:00,50.1,45.2,30.06,ESE,118,5.0,8.0,83,0.00,,---,0.00,VWS V14.01,2013-09-23 03:17:00,
2013-09-22 23:18:00,50.0,45.0,30.06,ESE,116,7.0,8.0,83,0.00,,---,0.00,VWS V14.01,2013-09-23 03:18:00,
2013-09-22 23:19:00,50.0,45.4,30.06,ESE,110,5.0,8.0,84,0.00,,---,0.00,VWS V14.01,2013-09-23 03:19:00,
2013-09-22 23:20:00,49.9,45.0,30.06,ESE,108,4.0,8.0,83,0.00,,---,0.00,VWS V14.01,2013-09-23 03:20:00,
2013-09-22 23:21:00,50.3,45.0,30.06,ESE,110,5.0,8.0,82,0.00,,---,0.00,VWS V14.01,2013-09-23 03:21:00,
2013-09-22 23:22:00,49.9,45.3,30.06,ESE,104,5.0,8.0,84,0.00,,---,0.00,VWS V14.01,2013-09-23 03:22:00,
2013-09-22 23:23:00,49.9,45.3,30.06,East,96,7.0,8.0,84,0.00,,---,0.00,VWS V14.01,2013-09-23 03:23:00,
2013-09-22 23:24:00,49.9,45.3,30.06,ESE,110,5.0,8.0,84,0.00,,---,0.00,VWS V14.01,2013-09-23 03:24:00,
2013-09-22 23:25:00,49.8,45.2,30.06,ESE,113,7.0,8.0,84,0.00,,---,0.00,VWS V14.01,2013-09-23 03:25:00,
2013-09-22 23:26:00,50.1,45.2,30.06,ESE,113,4.0,8.0,83,0.00,,---,0.00,VWS V14.01,2013-09-23 03:26:00,
2013-09-22 23:27:00,49.7,44.8,30.06,East,99,5.0,8.0,83,0.00,,---,0.00,VWS V14.01,2013-09-23 03:27:00,
2013-09-22 23:28:00,49.7,45.1,30.06,East,100,5.0,8.0,84,0.00,,---,0.00,VWS V14.01,2013-09-23 03:28:00,
2013-09-22 23:29:00,49.7,45.1,30.06,ESE,122,3.0,8.0,84,0.00,,---,0.00,VWS V14.01,2013-09-23 03:29:00,
2013-09-22 23:30:00,49.7,45.4,30.06,ESE,110,4.0,7.0,85,0.00,,---,0.00,VWS V14.01,2013-09-23 03:30:00,
2013-09-22 23:31:00,49.9,45.3,30.06,ESE,106,4.0,8.0,84,0.00,,---,0.00,VWS V14.01,2013-09-23 03:31:00,
2013-09-22 23:32:00,49.6,45.3,30.06,ESE,107,4.0,7.0,85,0.00,,---,0.00,VWS V14.01,2013-09-23 03:32:00,
2013-09-22 23:33:00,49.6,45.3,30.06,ESE,113,5.0,7.0,85,0.00,,---,0.00,VWS V14.01,2013-09-23 03:33:00,
2013-09-22 23:34:00,49.6,45.3,30.06,SE,124,5.0,7.0,85,0.00,,---,0.00,VWS V14.01,2013-09-23 03:34:00,
2013-09-22 23:35:00,49.6,45.0,30.06,ESE,106,4.0,7.0,84,0.00,,---,0.00,VWS V14.01,2013-09-23 03:35:00,
2013-09-22 23:36:00,49.7,44.8,30.06,ESE,107,4.0,8.0,83,0.00,,---,0.00,VWS V14.01,2013-09-23 03:36:00,
2013-09-22 23:37:00,49.5,44.9,30.06,ESE,106,3.0,7.0,84,0.00,,---,0.00,VWS V14.01,2013-09-23 03:37:00,
2013-09-22 23:38:00,49.5,44.9,30.06,ESE,110,3.0,7.0,84,0.00,,---,0.00,VWS V14.01,2013-09-23 03:38:00,
2013-09-22 23:39:00,49.4,44.8,30.06,ESE,108,4.0,7.0,84,0.00,,---,0.00,VWS V14.01,2013-09-23 03:39:00,
2013-09-22 23:40:00,49.4,45.1,30.06,ESE,114,3.0,7.0,85,0.00,,---,0.00,VWS V14.01,2013-09-23 03:40:00,
2013-09-22 23:41:00,49.6,45.3,30.06,ESE,112,4.0,7.0,85,0.00,,---,0.00,VWS V14.01,2013-09-23 03:41:00,
2013-09-22 23:42:00,49.3,45.0,30.06,ESE,109,3.0,7.0,85,0.00,,---,0.00,VWS V14.01,2013-09-23 03:42:00,
2013-09-22 23:43:00,49.3,45.0,30.06,ESE,118,3.0,7.0,85,0.00,,---,0.00,VWS V14.01,2013-09-23 03:43:00,
2013-09-22 23:44:00,49.2,44.9,30.06,ESE,115,3.0,7.0,85,0.00,,---,0.00,VWS V14.01,2013-09-23 03:44:00,
2013-09-22 23:45:00,49.2,44.9,30.06,ESE,112,4.0,7.0,85,0.00,,---,0.00,VWS V14.01,2013-09-23 03:45:00,
2013-09-22 23:46:00,49.5,44.9,30.06,ESE,108,4.0,7.0,84,0.00,,---,0.00,VWS V14.01,2013-09-23 03:46:00,
2013-09-22 23:47:00,49.1,44.8,30.06,ESE,112,5.0,7.0,85,0.00,,---,0.00,VWS V14.01,2013-09-23 03:47:00,
2013-09-22 23:48:00,49.1,44.8,30.06,East,98,5.0,7.0,85,0.00,,---,0.00,VWS V14.01,2013-09-23 03:48:00,
2013-09-22 23:49:00,49.0,44.7,30.06,East,98,3.0,7.0,85,0.00,,---,0.00,VWS V14.01,2013-09-23 03:49:00,
2013-09-22 23:50:00,49.0,44.7,30.06,East,99,6.0,8.0,85,0.00,,---,0.00,VWS V14.01,2013-09-23 03:50:00,
2013-09-22 23:51:00,49.3,45.0,30.06,ESE,109,4.0,7.0,85,0.00,,---,0.00,VWS V14.01,2013-09-23 03:51:00,
2013-09-22 23:52:00,49.0,45.0,30.06,East,96,7.0,8.0,86,0.00,,---,0.00,VWS V14.01,2013-09-23 03:52:00,
2013-09-22 23:53:00,49.0,45.0,30.06,ESE,108,4.0,8.0,86,0.00,,---,0.00,VWS V14.01,2013-09-23 03:53:00,
2013-09-22 23:54:00,49.0,45.0,30.06,ESE,112,3.0,8.0,86,0.00,,---,0.00,VWS V14.01,2013-09-23 03:54:00,
2013-09-22 23:55:00,49.0,45.0,30.06,ESE,118,5.0,8.0,86,0.00,,---,0.00,VWS V14.01,2013-09-23 03:55:00,
2013-09-22 23:56:00,49.1,44.8,30.06,ESE,110,4.0,7.0,85,0.00,,---,0.00,VWS V14.01,2013-09-23 03:56:00,
2013-09-22 23:57:00,49.0,45.0,30.06,East,101,5.0,8.0,86,0.00,,---,0.00,VWS V14.01,2013-09-23 03:57:00,
2013-09-22 23:58:00,49.0,44.7,30.06,ESE,106,4.0,8.0,85,0.00,,---,0.00,VWS V14.01,2013-09-23 03:58:00,
2013-09-22 23:59:00,49.0,45.0,30.06,ESE,114,5.0,8.0,86,0.00,,---,0.00,VWS V14.01,2013-09-23 03:59:00,